<?xml version="1.0" encoding="UTF-8" standalone="no" ?>
<gpx xmlns="http://www.topografix.com/GPX/1/1" xmlns:xsi="http://www.w3.org/2001/XMLSchema-instance" xsi:schemaLocation="http://www.topografix.com/GPX/1/1 http://www.topografix.com/GPX/1/1/gpx.xsd" version="1.1" creator="VisuGPX - https://www.visugpx.com">
  <metadata>
    <name>Les crêtes par les Santons</name>
    <desc><![CDATA[Pas simple, donc pas trop fréquentée. Très beaux paysages, de part et d'autre de l'Étoile.]]></desc>
  </metadata>
  <trk>
    <name><![CDATA[2021-04-25 16:15:28]]></name>
    <trkseg>
      <trkpt lat="43.41166" lon="5.44971">
        <ele>385.63</ele>
        <time>2021-04-25T08:37:41Z</time>
      </trkpt>
      <trkpt lat="43.41165" lon="5.44973">
        <ele>385.15</ele>
        <time>2021-04-25T08:37:43Z</time>
      </trkpt>
      <trkpt lat="43.41161" lon="5.44979">
        <ele>381.3</ele>
        <time>2021-04-25T08:37:47Z</time>
      </trkpt>
      <trkpt lat="43.41155" lon="5.44981">
        <ele>381.3</ele>
        <time>2021-04-25T08:38:00Z</time>
      </trkpt>
      <trkpt lat="43.41145" lon="5.44981">
        <ele>379.86</ele>
        <time>2021-04-25T08:38:12Z</time>
      </trkpt>
      <trkpt lat="43.41142" lon="5.44979">
        <ele>381.78</ele>
        <time>2021-04-25T08:38:18Z</time>
      </trkpt>
      <trkpt lat="43.41137" lon="5.44974">
        <ele>386.59</ele>
        <time>2021-04-25T08:38:31Z</time>
      </trkpt>
      <trkpt lat="43.41134" lon="5.44965">
        <ele>393.32</ele>
        <time>2021-04-25T08:38:45Z</time>
      </trkpt>
      <trkpt lat="43.41131" lon="5.44956">
        <ele>396.68</ele>
        <time>2021-04-25T08:38:56Z</time>
      </trkpt>
      <trkpt lat="43.41123" lon="5.44947">
        <ele>400.53</ele>
        <time>2021-04-25T08:39:10Z</time>
      </trkpt>
      <trkpt lat="43.41125" lon="5.44935">
        <ele>405.81</ele>
        <time>2021-04-25T08:39:23Z</time>
      </trkpt>
      <trkpt lat="43.41129" lon="5.44926">
        <ele>417.35</ele>
        <time>2021-04-25T08:39:36Z</time>
      </trkpt>
      <trkpt lat="43.41133" lon="5.4492">
        <ele>424.08</ele>
        <time>2021-04-25T08:39:44Z</time>
      </trkpt>
      <trkpt lat="43.41136" lon="5.44905">
        <ele>431.29</ele>
        <time>2021-04-25T08:39:56Z</time>
      </trkpt>
      <trkpt lat="43.4115" lon="5.4489">
        <ele>436.58</ele>
        <time>2021-04-25T08:40:06Z</time>
      </trkpt>
      <trkpt lat="43.41149" lon="5.44884">
        <ele>440.9</ele>
        <time>2021-04-25T08:40:18Z</time>
      </trkpt>
      <trkpt lat="43.41157" lon="5.44868">
        <ele>445.23</ele>
        <time>2021-04-25T08:40:29Z</time>
      </trkpt>
      <trkpt lat="43.41154" lon="5.44848">
        <ele>441.38</ele>
        <time>2021-04-25T08:40:41Z</time>
      </trkpt>
      <trkpt lat="43.41149" lon="5.44831">
        <ele>436.1</ele>
        <time>2021-04-25T08:40:54Z</time>
      </trkpt>
      <trkpt lat="43.41143" lon="5.44817">
        <ele>431.29</ele>
        <time>2021-04-25T08:41:02Z</time>
      </trkpt>
      <trkpt lat="43.41139" lon="5.4481">
        <ele>428.4</ele>
        <time>2021-04-25T08:41:08Z</time>
      </trkpt>
      <trkpt lat="43.41139" lon="5.44792">
        <ele>423.6</ele>
        <time>2021-04-25T08:41:20Z</time>
      </trkpt>
      <trkpt lat="43.41138" lon="5.44791">
        <ele>423.12</ele>
        <time>2021-04-25T08:41:21Z</time>
      </trkpt>
      <trkpt lat="43.41134" lon="5.44781">
        <ele>420.23</ele>
        <time>2021-04-25T08:41:30Z</time>
      </trkpt>
      <trkpt lat="43.41139" lon="5.44763">
        <ele>418.79</ele>
        <time>2021-04-25T08:41:42Z</time>
      </trkpt>
      <trkpt lat="43.41134" lon="5.44748">
        <ele>416.39</ele>
        <time>2021-04-25T08:41:52Z</time>
      </trkpt>
      <trkpt lat="43.41125" lon="5.44728">
        <ele>412.54</ele>
        <time>2021-04-25T08:42:04Z</time>
      </trkpt>
      <trkpt lat="43.41127" lon="5.44716">
        <ele>412.54</ele>
        <time>2021-04-25T08:42:11Z</time>
      </trkpt>
      <trkpt lat="43.41123" lon="5.44707">
        <ele>411.58</ele>
        <time>2021-04-25T08:42:19Z</time>
      </trkpt>
      <trkpt lat="43.41132" lon="5.44687">
        <ele>413.02</ele>
        <time>2021-04-25T08:42:31Z</time>
      </trkpt>
      <trkpt lat="43.41129" lon="5.44673">
        <ele>411.1</ele>
        <time>2021-04-25T08:42:41Z</time>
      </trkpt>
      <trkpt lat="43.41132" lon="5.4466">
        <ele>410.14</ele>
        <time>2021-04-25T08:42:53Z</time>
      </trkpt>
      <trkpt lat="43.41146" lon="5.44641">
        <ele>410.62</ele>
        <time>2021-04-25T08:43:04Z</time>
      </trkpt>
      <trkpt lat="43.41149" lon="5.4462">
        <ele>411.58</ele>
        <time>2021-04-25T08:43:15Z</time>
      </trkpt>
      <trkpt lat="43.41148" lon="5.44609">
        <ele>415.91</ele>
        <time>2021-04-25T08:43:26Z</time>
      </trkpt>
      <trkpt lat="43.41157" lon="5.44595">
        <ele>423.6</ele>
        <time>2021-04-25T08:43:37Z</time>
      </trkpt>
      <trkpt lat="43.41159" lon="5.44593">
        <ele>424.56</ele>
        <time>2021-04-25T08:43:38Z</time>
      </trkpt>
      <trkpt lat="43.41162" lon="5.44589">
        <ele>426.48</ele>
        <time>2021-04-25T08:43:41Z</time>
      </trkpt>
      <trkpt lat="43.41157" lon="5.44565">
        <ele>422.64</ele>
        <time>2021-04-25T08:43:49Z</time>
      </trkpt>
      <trkpt lat="43.41141" lon="5.44556">
        <ele>416.87</ele>
        <time>2021-04-25T08:44:01Z</time>
      </trkpt>
      <trkpt lat="43.41131" lon="5.44553">
        <ele>413.02</ele>
        <time>2021-04-25T08:44:11Z</time>
      </trkpt>
      <trkpt lat="43.41117" lon="5.44552">
        <ele>409.18</ele>
        <time>2021-04-25T08:44:22Z</time>
      </trkpt>
      <trkpt lat="43.41106" lon="5.44556">
        <ele>403.89</ele>
        <time>2021-04-25T08:44:35Z</time>
      </trkpt>
      <trkpt lat="43.41092" lon="5.4456">
        <ele>401.97</ele>
        <time>2021-04-25T08:44:49Z</time>
      </trkpt>
      <trkpt lat="43.41084" lon="5.44563">
        <ele>401.01</ele>
        <time>2021-04-25T08:44:59Z</time>
      </trkpt>
      <trkpt lat="43.41074" lon="5.44566">
        <ele>401.49</ele>
        <time>2021-04-25T08:45:12Z</time>
      </trkpt>
      <trkpt lat="43.41072" lon="5.44565">
        <ele>401.49</ele>
        <time>2021-04-25T08:45:14Z</time>
      </trkpt>
      <trkpt lat="43.41061" lon="5.44568">
        <ele>403.41</ele>
        <time>2021-04-25T08:45:26Z</time>
      </trkpt>
      <trkpt lat="43.41054" lon="5.44565">
        <ele>402.93</ele>
        <time>2021-04-25T08:45:38Z</time>
      </trkpt>
      <trkpt lat="43.41045" lon="5.44561">
        <ele>401.97</ele>
        <time>2021-04-25T08:45:51Z</time>
      </trkpt>
      <trkpt lat="43.41038" lon="5.44558">
        <ele>403.89</ele>
        <time>2021-04-25T08:46:02Z</time>
      </trkpt>
      <trkpt lat="43.41032" lon="5.44555">
        <ele>405.81</ele>
        <time>2021-04-25T08:46:17Z</time>
      </trkpt>
      <trkpt lat="43.41025" lon="5.44549">
        <ele>409.18</ele>
        <time>2021-04-25T08:46:28Z</time>
      </trkpt>
      <trkpt lat="43.4102" lon="5.44541">
        <ele>411.58</ele>
        <time>2021-04-25T08:46:43Z</time>
      </trkpt>
      <trkpt lat="43.41016" lon="5.44534">
        <ele>413.5</ele>
        <time>2021-04-25T08:46:56Z</time>
      </trkpt>
      <trkpt lat="43.41012" lon="5.44527">
        <ele>415.91</ele>
        <time>2021-04-25T08:47:08Z</time>
      </trkpt>
      <trkpt lat="43.41008" lon="5.44522">
        <ele>418.31</ele>
        <time>2021-04-25T08:47:19Z</time>
      </trkpt>
      <trkpt lat="43.41001" lon="5.44516">
        <ele>418.79</ele>
        <time>2021-04-25T08:47:31Z</time>
      </trkpt>
      <trkpt lat="43.40992" lon="5.4451">
        <ele>417.35</ele>
        <time>2021-04-25T08:47:45Z</time>
      </trkpt>
      <trkpt lat="43.40989" lon="5.44506">
        <ele>420.23</ele>
        <time>2021-04-25T08:47:59Z</time>
      </trkpt>
      <trkpt lat="43.40984" lon="5.44506">
        <ele>419.75</ele>
        <time>2021-04-25T08:48:14Z</time>
      </trkpt>
      <trkpt lat="43.40982" lon="5.44498">
        <ele>420.23</ele>
        <time>2021-04-25T08:48:26Z</time>
      </trkpt>
      <trkpt lat="43.4098" lon="5.44494">
        <ele>421.19</ele>
        <time>2021-04-25T08:48:39Z</time>
      </trkpt>
      <trkpt lat="43.40978" lon="5.4449">
        <ele>427.44</ele>
        <time>2021-04-25T08:48:52Z</time>
      </trkpt>
      <trkpt lat="43.40976" lon="5.4448">
        <ele>431.29</ele>
        <time>2021-04-25T08:49:05Z</time>
      </trkpt>
      <trkpt lat="43.40971" lon="5.44466">
        <ele>434.65</ele>
        <time>2021-04-25T08:49:21Z</time>
      </trkpt>
      <trkpt lat="43.4097" lon="5.4446">
        <ele>435.61</ele>
        <time>2021-04-25T08:49:32Z</time>
      </trkpt>
      <trkpt lat="43.40968" lon="5.44452">
        <ele>438.02</ele>
        <time>2021-04-25T08:49:43Z</time>
      </trkpt>
      <trkpt lat="43.40968" lon="5.44446">
        <ele>440.9</ele>
        <time>2021-04-25T08:49:54Z</time>
      </trkpt>
      <trkpt lat="43.40966" lon="5.44442">
        <ele>442.82</ele>
        <time>2021-04-25T08:50:07Z</time>
      </trkpt>
      <trkpt lat="43.40961" lon="5.44433">
        <ele>446.19</ele>
        <time>2021-04-25T08:50:20Z</time>
      </trkpt>
      <trkpt lat="43.40959" lon="5.44427">
        <ele>447.15</ele>
        <time>2021-04-25T08:50:29Z</time>
      </trkpt>
      <trkpt lat="43.40956" lon="5.44418">
        <ele>449.55</ele>
        <time>2021-04-25T08:50:41Z</time>
      </trkpt>
      <trkpt lat="43.40957" lon="5.4441">
        <ele>451.96</ele>
        <time>2021-04-25T08:50:52Z</time>
      </trkpt>
      <trkpt lat="43.40955" lon="5.44407">
        <ele>452.44</ele>
        <time>2021-04-25T08:50:57Z</time>
      </trkpt>
      <trkpt lat="43.40951" lon="5.44395">
        <ele>454.36</ele>
        <time>2021-04-25T08:51:09Z</time>
      </trkpt>
      <trkpt lat="43.40942" lon="5.44387">
        <ele>454.36</ele>
        <time>2021-04-25T08:51:23Z</time>
      </trkpt>
      <trkpt lat="43.40932" lon="5.44379">
        <ele>455.8</ele>
        <time>2021-04-25T08:51:36Z</time>
      </trkpt>
      <trkpt lat="43.40924" lon="5.44378">
        <ele>456.76</ele>
        <time>2021-04-25T08:51:46Z</time>
      </trkpt>
      <trkpt lat="43.4092" lon="5.44377">
        <ele>455.8</ele>
        <time>2021-04-25T08:51:57Z</time>
      </trkpt>
      <trkpt lat="43.40918" lon="5.44374">
        <ele>453.88</ele>
        <time>2021-04-25T08:52:10Z</time>
      </trkpt>
      <trkpt lat="43.40915" lon="5.44372">
        <ele>453.4</ele>
        <time>2021-04-25T08:52:13Z</time>
      </trkpt>
      <trkpt lat="43.40906" lon="5.44368">
        <ele>449.55</ele>
        <time>2021-04-25T08:52:26Z</time>
      </trkpt>
      <trkpt lat="43.40903" lon="5.4436">
        <ele>446.19</ele>
        <time>2021-04-25T08:52:38Z</time>
      </trkpt>
      <trkpt lat="43.40898" lon="5.44355">
        <ele>444.27</ele>
        <time>2021-04-25T08:53:01Z</time>
      </trkpt>
      <trkpt lat="43.40903" lon="5.44351">
        <ele>443.79</ele>
        <time>2021-04-25T08:53:28Z</time>
      </trkpt>
      <trkpt lat="43.40896" lon="5.44349">
        <ele>448.11</ele>
        <time>2021-04-25T08:53:49Z</time>
      </trkpt>
      <trkpt lat="43.40885" lon="5.44355">
        <ele>443.79</ele>
        <time>2021-04-25T08:54:08Z</time>
      </trkpt>
      <trkpt lat="43.40877" lon="5.44355">
        <ele>442.34</ele>
        <time>2021-04-25T08:54:24Z</time>
      </trkpt>
      <trkpt lat="43.40874" lon="5.44358">
        <ele>439.46</ele>
        <time>2021-04-25T08:54:37Z</time>
      </trkpt>
      <trkpt lat="43.40874" lon="5.44362">
        <ele>437.54</ele>
        <time>2021-04-25T08:54:59Z</time>
      </trkpt>
      <trkpt lat="43.40868" lon="5.44365">
        <ele>434.65</ele>
        <time>2021-04-25T08:55:13Z</time>
      </trkpt>
      <trkpt lat="43.40864" lon="5.44366">
        <ele>432.25</ele>
        <time>2021-04-25T08:55:26Z</time>
      </trkpt>
      <trkpt lat="43.40862" lon="5.4437">
        <ele>430.33</ele>
        <time>2021-04-25T08:55:49Z</time>
      </trkpt>
      <trkpt lat="43.40862" lon="5.44373">
        <ele>427.44</ele>
        <time>2021-04-25T08:56:29Z</time>
      </trkpt>
      <trkpt lat="43.40853" lon="5.44377">
        <ele>426</ele>
        <time>2021-04-25T08:56:40Z</time>
      </trkpt>
      <trkpt lat="43.40844" lon="5.44384">
        <ele>424.56</ele>
        <time>2021-04-25T08:56:53Z</time>
      </trkpt>
      <trkpt lat="43.40837" lon="5.44388">
        <ele>422.64</ele>
        <time>2021-04-25T08:57:04Z</time>
      </trkpt>
      <trkpt lat="43.40826" lon="5.44388">
        <ele>416.87</ele>
        <time>2021-04-25T08:57:19Z</time>
      </trkpt>
      <trkpt lat="43.40818" lon="5.44393">
        <ele>416.39</ele>
        <time>2021-04-25T08:57:43Z</time>
      </trkpt>
      <trkpt lat="43.4081" lon="5.44399">
        <ele>414.47</ele>
        <time>2021-04-25T08:57:53Z</time>
      </trkpt>
      <trkpt lat="43.40802" lon="5.44398">
        <ele>411.1</ele>
        <time>2021-04-25T08:58:04Z</time>
      </trkpt>
      <trkpt lat="43.40795" lon="5.44398">
        <ele>411.58</ele>
        <time>2021-04-25T08:58:24Z</time>
      </trkpt>
      <trkpt lat="43.40792" lon="5.44396">
        <ele>411.58</ele>
        <time>2021-04-25T08:58:27Z</time>
      </trkpt>
      <trkpt lat="43.40783" lon="5.44398">
        <ele>409.66</ele>
        <time>2021-04-25T08:58:41Z</time>
      </trkpt>
      <trkpt lat="43.40782" lon="5.44402">
        <ele>405.81</ele>
        <time>2021-04-25T08:58:59Z</time>
      </trkpt>
      <trkpt lat="43.40778" lon="5.44402">
        <ele>403.89</ele>
        <time>2021-04-25T08:59:12Z</time>
      </trkpt>
      <trkpt lat="43.40771" lon="5.44406">
        <ele>403.41</ele>
        <time>2021-04-25T08:59:26Z</time>
      </trkpt>
      <trkpt lat="43.40763" lon="5.44404">
        <ele>403.89</ele>
        <time>2021-04-25T08:59:38Z</time>
      </trkpt>
      <trkpt lat="43.40762" lon="5.44402">
        <ele>404.37</ele>
        <time>2021-04-25T08:59:40Z</time>
      </trkpt>
      <trkpt lat="43.40751" lon="5.44399">
        <ele>405.33</ele>
        <time>2021-04-25T08:59:52Z</time>
      </trkpt>
      <trkpt lat="43.40745" lon="5.44397">
        <ele>407.74</ele>
        <time>2021-04-25T09:00:03Z</time>
      </trkpt>
      <trkpt lat="43.40738" lon="5.44393">
        <ele>413.5</ele>
        <time>2021-04-25T09:00:19Z</time>
      </trkpt>
      <trkpt lat="43.40738" lon="5.44392">
        <ele>413.98</ele>
        <time>2021-04-25T09:00:20Z</time>
      </trkpt>
      <trkpt lat="43.40735" lon="5.44388">
        <ele>414.47</ele>
        <time>2021-04-25T09:00:25Z</time>
      </trkpt>
      <trkpt lat="43.40728" lon="5.44384">
        <ele>412.54</ele>
        <time>2021-04-25T09:00:36Z</time>
      </trkpt>
      <trkpt lat="43.40726" lon="5.44379">
        <ele>411.1</ele>
        <time>2021-04-25T09:00:50Z</time>
      </trkpt>
      <trkpt lat="43.40726" lon="5.44378">
        <ele>410.62</ele>
        <time>2021-04-25T09:00:52Z</time>
      </trkpt>
      <trkpt lat="43.40723" lon="5.44374">
        <ele>410.14</ele>
        <time>2021-04-25T09:00:55Z</time>
      </trkpt>
      <trkpt lat="43.40722" lon="5.44372">
        <ele>410.14</ele>
        <time>2021-04-25T09:00:57Z</time>
      </trkpt>
      <trkpt lat="43.40717" lon="5.44368">
        <ele>410.14</ele>
        <time>2021-04-25T09:01:02Z</time>
      </trkpt>
      <trkpt lat="43.40714" lon="5.44359">
        <ele>410.14</ele>
        <time>2021-04-25T09:01:11Z</time>
      </trkpt>
      <trkpt lat="43.40713" lon="5.44354">
        <ele>407.26</ele>
        <time>2021-04-25T09:01:23Z</time>
      </trkpt>
      <trkpt lat="43.40711" lon="5.44353">
        <ele>407.26</ele>
        <time>2021-04-25T09:01:25Z</time>
      </trkpt>
      <trkpt lat="43.40703" lon="5.44342">
        <ele>405.81</ele>
        <time>2021-04-25T09:01:35Z</time>
      </trkpt>
      <trkpt lat="43.407" lon="5.44341">
        <ele>405.33</ele>
        <time>2021-04-25T09:01:38Z</time>
      </trkpt>
      <trkpt lat="43.40694" lon="5.44334">
        <ele>404.85</ele>
        <time>2021-04-25T09:01:48Z</time>
      </trkpt>
      <trkpt lat="43.40691" lon="5.4433">
        <ele>401.01</ele>
        <time>2021-04-25T09:01:59Z</time>
      </trkpt>
      <trkpt lat="43.40684" lon="5.44325">
        <ele>396.68</ele>
        <time>2021-04-25T09:02:09Z</time>
      </trkpt>
      <trkpt lat="43.40683" lon="5.44324">
        <ele>395.72</ele>
        <time>2021-04-25T09:02:11Z</time>
      </trkpt>
      <trkpt lat="43.40673" lon="5.44315">
        <ele>387.07</ele>
        <time>2021-04-25T09:02:24Z</time>
      </trkpt>
      <trkpt lat="43.40668" lon="5.44311">
        <ele>384.18</ele>
        <time>2021-04-25T09:02:35Z</time>
      </trkpt>
      <trkpt lat="43.40663" lon="5.44313">
        <ele>383.22</ele>
        <time>2021-04-25T09:02:40Z</time>
      </trkpt>
      <trkpt lat="43.40658" lon="5.44316">
        <ele>385.63</ele>
        <time>2021-04-25T09:02:48Z</time>
      </trkpt>
      <trkpt lat="43.40653" lon="5.4432">
        <ele>390.43</ele>
        <time>2021-04-25T09:02:59Z</time>
      </trkpt>
      <trkpt lat="43.40646" lon="5.44328">
        <ele>395.24</ele>
        <time>2021-04-25T09:03:11Z</time>
      </trkpt>
      <trkpt lat="43.40638" lon="5.44344">
        <ele>398.6</ele>
        <time>2021-04-25T09:03:24Z</time>
      </trkpt>
      <trkpt lat="43.40637" lon="5.44355">
        <ele>401.01</ele>
        <time>2021-04-25T09:03:34Z</time>
      </trkpt>
      <trkpt lat="43.40636" lon="5.44362">
        <ele>404.85</ele>
        <time>2021-04-25T09:03:45Z</time>
      </trkpt>
      <trkpt lat="43.40632" lon="5.44379">
        <ele>407.74</ele>
        <time>2021-04-25T09:03:58Z</time>
      </trkpt>
      <trkpt lat="43.40635" lon="5.44387">
        <ele>410.62</ele>
        <time>2021-04-25T09:04:06Z</time>
      </trkpt>
      <trkpt lat="43.40636" lon="5.44401">
        <ele>410.14</ele>
        <time>2021-04-25T09:04:16Z</time>
      </trkpt>
      <trkpt lat="43.40635" lon="5.44404">
        <ele>409.18</ele>
        <time>2021-04-25T09:04:17Z</time>
      </trkpt>
      <trkpt lat="43.4063" lon="5.44424">
        <ele>406.29</ele>
        <time>2021-04-25T09:04:30Z</time>
      </trkpt>
      <trkpt lat="43.40628" lon="5.44432">
        <ele>404.85</ele>
        <time>2021-04-25T09:04:36Z</time>
      </trkpt>
      <trkpt lat="43.40627" lon="5.44435">
        <ele>404.85</ele>
        <time>2021-04-25T09:04:38Z</time>
      </trkpt>
      <trkpt lat="43.40626" lon="5.44459">
        <ele>401.01</ele>
        <time>2021-04-25T09:04:54Z</time>
      </trkpt>
      <trkpt lat="43.40629" lon="5.44466">
        <ele>401.49</ele>
        <time>2021-04-25T09:05:08Z</time>
      </trkpt>
      <trkpt lat="43.40628" lon="5.4447">
        <ele>400.53</ele>
        <time>2021-04-25T09:05:12Z</time>
      </trkpt>
      <trkpt lat="43.40625" lon="5.44495">
        <ele>395.24</ele>
        <time>2021-04-25T09:05:25Z</time>
      </trkpt>
      <trkpt lat="43.40625" lon="5.44501">
        <ele>394.28</ele>
        <time>2021-04-25T09:05:29Z</time>
      </trkpt>
      <trkpt lat="43.40626" lon="5.4451">
        <ele>392.36</ele>
        <time>2021-04-25T09:05:34Z</time>
      </trkpt>
      <trkpt lat="43.40624" lon="5.4453">
        <ele>393.8</ele>
        <time>2021-04-25T09:05:47Z</time>
      </trkpt>
      <trkpt lat="43.40623" lon="5.44532">
        <ele>394.76</ele>
        <time>2021-04-25T09:05:49Z</time>
      </trkpt>
      <trkpt lat="43.40624" lon="5.44547">
        <ele>397.16</ele>
        <time>2021-04-25T09:06:00Z</time>
      </trkpt>
      <trkpt lat="43.40624" lon="5.44551">
        <ele>397.16</ele>
        <time>2021-04-25T09:06:02Z</time>
      </trkpt>
      <trkpt lat="43.40624" lon="5.44556">
        <ele>396.68</ele>
        <time>2021-04-25T09:06:05Z</time>
      </trkpt>
      <trkpt lat="43.40626" lon="5.44563">
        <ele>394.76</ele>
        <time>2021-04-25T09:06:10Z</time>
      </trkpt>
      <trkpt lat="43.40626" lon="5.44565">
        <ele>394.76</ele>
        <time>2021-04-25T09:06:12Z</time>
      </trkpt>
      <trkpt lat="43.40625" lon="5.4457">
        <ele>394.28</ele>
        <time>2021-04-25T09:06:16Z</time>
      </trkpt>
      <trkpt lat="43.40624" lon="5.44574">
        <ele>394.28</ele>
        <time>2021-04-25T09:06:19Z</time>
      </trkpt>
      <trkpt lat="43.40624" lon="5.44578">
        <ele>394.76</ele>
        <time>2021-04-25T09:06:21Z</time>
      </trkpt>
      <trkpt lat="43.40621" lon="5.44583">
        <ele>395.24</ele>
        <time>2021-04-25T09:06:26Z</time>
      </trkpt>
      <trkpt lat="43.40617" lon="5.44598">
        <ele>393.32</ele>
        <time>2021-04-25T09:06:37Z</time>
      </trkpt>
      <trkpt lat="43.40611" lon="5.44609">
        <ele>392.84</ele>
        <time>2021-04-25T09:06:46Z</time>
      </trkpt>
      <trkpt lat="43.40609" lon="5.44612">
        <ele>393.32</ele>
        <time>2021-04-25T09:06:49Z</time>
      </trkpt>
      <trkpt lat="43.40606" lon="5.44625">
        <ele>396.68</ele>
        <time>2021-04-25T09:06:59Z</time>
      </trkpt>
      <trkpt lat="43.40602" lon="5.44635">
        <ele>401.49</ele>
        <time>2021-04-25T09:07:10Z</time>
      </trkpt>
      <trkpt lat="43.40601" lon="5.44637">
        <ele>401.97</ele>
        <time>2021-04-25T09:07:12Z</time>
      </trkpt>
      <trkpt lat="43.40597" lon="5.44643">
        <ele>405.81</ele>
        <time>2021-04-25T09:07:19Z</time>
      </trkpt>
      <trkpt lat="43.40588" lon="5.44648">
        <ele>411.1</ele>
        <time>2021-04-25T09:07:32Z</time>
      </trkpt>
      <trkpt lat="43.40586" lon="5.44652">
        <ele>414.47</ele>
        <time>2021-04-25T09:07:41Z</time>
      </trkpt>
      <trkpt lat="43.40578" lon="5.44656">
        <ele>417.35</ele>
        <time>2021-04-25T09:07:50Z</time>
      </trkpt>
      <trkpt lat="43.40577" lon="5.44661">
        <ele>417.35</ele>
        <time>2021-04-25T09:07:57Z</time>
      </trkpt>
      <trkpt lat="43.40572" lon="5.44674">
        <ele>418.31</ele>
        <time>2021-04-25T09:08:09Z</time>
      </trkpt>
      <trkpt lat="43.40571" lon="5.44675">
        <ele>418.31</ele>
        <time>2021-04-25T09:08:11Z</time>
      </trkpt>
      <trkpt lat="43.40571" lon="5.44678">
        <ele>418.31</ele>
        <time>2021-04-25T09:08:13Z</time>
      </trkpt>
      <trkpt lat="43.40567" lon="5.44691">
        <ele>418.31</ele>
        <time>2021-04-25T09:08:24Z</time>
      </trkpt>
      <trkpt lat="43.40562" lon="5.44703">
        <ele>418.79</ele>
        <time>2021-04-25T09:08:35Z</time>
      </trkpt>
      <trkpt lat="43.40561" lon="5.44714">
        <ele>418.79</ele>
        <time>2021-04-25T09:08:44Z</time>
      </trkpt>
      <trkpt lat="43.4056" lon="5.44716">
        <ele>418.79</ele>
        <time>2021-04-25T09:08:46Z</time>
      </trkpt>
      <trkpt lat="43.40551" lon="5.44733">
        <ele>414.95</ele>
        <time>2021-04-25T09:08:51Z</time>
      </trkpt>
      <trkpt lat="43.40547" lon="5.44738">
        <ele>413.5</ele>
        <time>2021-04-25T09:08:55Z</time>
      </trkpt>
      <trkpt lat="43.40542" lon="5.44758">
        <ele>409.18</ele>
        <time>2021-04-25T09:09:06Z</time>
      </trkpt>
      <trkpt lat="43.40541" lon="5.44764">
        <ele>407.74</ele>
        <time>2021-04-25T09:09:10Z</time>
      </trkpt>
      <trkpt lat="43.40538" lon="5.4477">
        <ele>406.77</ele>
        <time>2021-04-25T09:09:15Z</time>
      </trkpt>
      <trkpt lat="43.40532" lon="5.44782">
        <ele>404.85</ele>
        <time>2021-04-25T09:09:26Z</time>
      </trkpt>
      <trkpt lat="43.40532" lon="5.44788">
        <ele>407.74</ele>
        <time>2021-04-25T09:09:35Z</time>
      </trkpt>
      <trkpt lat="43.40527" lon="5.44795">
        <ele>412.06</ele>
        <time>2021-04-25T09:09:46Z</time>
      </trkpt>
      <trkpt lat="43.40519" lon="5.44799">
        <ele>416.39</ele>
        <time>2021-04-25T09:09:57Z</time>
      </trkpt>
      <trkpt lat="43.40511" lon="5.44805">
        <ele>421.19</ele>
        <time>2021-04-25T09:10:08Z</time>
      </trkpt>
      <trkpt lat="43.4051" lon="5.44808">
        <ele>422.16</ele>
        <time>2021-04-25T09:10:12Z</time>
      </trkpt>
      <trkpt lat="43.40501" lon="5.44816">
        <ele>418.79</ele>
        <time>2021-04-25T09:10:21Z</time>
      </trkpt>
      <trkpt lat="43.4049" lon="5.4482">
        <ele>419.27</ele>
        <time>2021-04-25T09:10:32Z</time>
      </trkpt>
      <trkpt lat="43.40482" lon="5.44824">
        <ele>421.19</ele>
        <time>2021-04-25T09:10:43Z</time>
      </trkpt>
      <trkpt lat="43.4047" lon="5.44826">
        <ele>421.68</ele>
        <time>2021-04-25T09:10:54Z</time>
      </trkpt>
      <trkpt lat="43.40456" lon="5.44829">
        <ele>420.71</ele>
        <time>2021-04-25T09:11:06Z</time>
      </trkpt>
      <trkpt lat="43.40454" lon="5.44829">
        <ele>420.71</ele>
        <time>2021-04-25T09:11:08Z</time>
      </trkpt>
      <trkpt lat="43.40451" lon="5.44829">
        <ele>420.71</ele>
        <time>2021-04-25T09:11:10Z</time>
      </trkpt>
      <trkpt lat="43.40446" lon="5.4483">
        <ele>423.12</ele>
        <time>2021-04-25T09:11:20Z</time>
      </trkpt>
      <trkpt lat="43.4044" lon="5.44832">
        <ele>424.56</ele>
        <time>2021-04-25T09:11:29Z</time>
      </trkpt>
      <trkpt lat="43.4043" lon="5.44836">
        <ele>426.96</ele>
        <time>2021-04-25T09:11:39Z</time>
      </trkpt>
      <trkpt lat="43.40422" lon="5.4484">
        <ele>430.33</ele>
        <time>2021-04-25T09:11:49Z</time>
      </trkpt>
      <trkpt lat="43.40419" lon="5.44841">
        <ele>435.13</ele>
        <time>2021-04-25T09:11:59Z</time>
      </trkpt>
      <trkpt lat="43.40421" lon="5.44839">
        <ele>440.42</ele>
        <time>2021-04-25T09:12:13Z</time>
      </trkpt>
      <trkpt lat="43.40416" lon="5.4484">
        <ele>436.58</ele>
        <time>2021-04-25T09:12:34Z</time>
      </trkpt>
      <trkpt lat="43.40415" lon="5.44845">
        <ele>432.73</ele>
        <time>2021-04-25T09:12:50Z</time>
      </trkpt>
      <trkpt lat="43.4041" lon="5.44846">
        <ele>426</ele>
        <time>2021-04-25T09:13:03Z</time>
      </trkpt>
      <trkpt lat="43.40401" lon="5.44852">
        <ele>424.56</ele>
        <time>2021-04-25T09:13:12Z</time>
      </trkpt>
      <trkpt lat="43.40395" lon="5.44859">
        <ele>424.56</ele>
        <time>2021-04-25T09:13:21Z</time>
      </trkpt>
      <trkpt lat="43.4039" lon="5.44863">
        <ele>428.89</ele>
        <time>2021-04-25T09:13:31Z</time>
      </trkpt>
      <trkpt lat="43.4038" lon="5.44874">
        <ele>426.48</ele>
        <time>2021-04-25T09:13:45Z</time>
      </trkpt>
      <trkpt lat="43.40365" lon="5.44882">
        <ele>422.16</ele>
        <time>2021-04-25T09:13:55Z</time>
      </trkpt>
      <trkpt lat="43.40357" lon="5.44888">
        <ele>419.75</ele>
        <time>2021-04-25T09:14:07Z</time>
      </trkpt>
      <trkpt lat="43.40354" lon="5.44889">
        <ele>420.23</ele>
        <time>2021-04-25T09:14:11Z</time>
      </trkpt>
      <trkpt lat="43.40339" lon="5.449">
        <ele>421.68</ele>
        <time>2021-04-25T09:14:24Z</time>
      </trkpt>
      <trkpt lat="43.40332" lon="5.44908">
        <ele>422.64</ele>
        <time>2021-04-25T09:14:34Z</time>
      </trkpt>
      <trkpt lat="43.40323" lon="5.44924">
        <ele>419.27</ele>
        <time>2021-04-25T09:14:47Z</time>
      </trkpt>
      <trkpt lat="43.40323" lon="5.44928">
        <ele>418.31</ele>
        <time>2021-04-25T09:14:50Z</time>
      </trkpt>
      <trkpt lat="43.40321" lon="5.44939">
        <ele>416.39</ele>
        <time>2021-04-25T09:14:57Z</time>
      </trkpt>
      <trkpt lat="43.40322" lon="5.44952">
        <ele>415.91</ele>
        <time>2021-04-25T09:15:08Z</time>
      </trkpt>
      <trkpt lat="43.40321" lon="5.44969">
        <ele>416.39</ele>
        <time>2021-04-25T09:15:21Z</time>
      </trkpt>
      <trkpt lat="43.40317" lon="5.44977">
        <ele>417.35</ele>
        <time>2021-04-25T09:15:32Z</time>
      </trkpt>
      <trkpt lat="43.40315" lon="5.44978">
        <ele>413.98</ele>
        <time>2021-04-25T09:15:49Z</time>
      </trkpt>
      <trkpt lat="43.40313" lon="5.44993">
        <ele>417.35</ele>
        <time>2021-04-25T09:16:02Z</time>
      </trkpt>
      <trkpt lat="43.40317" lon="5.45009">
        <ele>418.31</ele>
        <time>2021-04-25T09:16:18Z</time>
      </trkpt>
      <trkpt lat="43.40321" lon="5.45021">
        <ele>420.71</ele>
        <time>2021-04-25T09:16:33Z</time>
      </trkpt>
      <trkpt lat="43.40327" lon="5.45035">
        <ele>421.68</ele>
        <time>2021-04-25T09:16:49Z</time>
      </trkpt>
      <trkpt lat="43.4033" lon="5.45047">
        <ele>424.08</ele>
        <time>2021-04-25T09:17:04Z</time>
      </trkpt>
      <trkpt lat="43.40334" lon="5.45058">
        <ele>426</ele>
        <time>2021-04-25T09:17:19Z</time>
      </trkpt>
      <trkpt lat="43.40338" lon="5.45071">
        <ele>428.4</ele>
        <time>2021-04-25T09:17:34Z</time>
      </trkpt>
      <trkpt lat="43.40341" lon="5.45086">
        <ele>432.25</ele>
        <time>2021-04-25T09:17:47Z</time>
      </trkpt>
      <trkpt lat="43.40348" lon="5.451">
        <ele>435.61</ele>
        <time>2021-04-25T09:18:01Z</time>
      </trkpt>
      <trkpt lat="43.40352" lon="5.45109">
        <ele>436.1</ele>
        <time>2021-04-25T09:18:13Z</time>
      </trkpt>
      <trkpt lat="43.40356" lon="5.4512">
        <ele>438.02</ele>
        <time>2021-04-25T09:18:27Z</time>
      </trkpt>
      <trkpt lat="43.4036" lon="5.45132">
        <ele>439.46</ele>
        <time>2021-04-25T09:18:42Z</time>
      </trkpt>
      <trkpt lat="43.40365" lon="5.45142">
        <ele>441.86</ele>
        <time>2021-04-25T09:18:58Z</time>
      </trkpt>
      <trkpt lat="43.40367" lon="5.45145">
        <ele>442.34</ele>
        <time>2021-04-25T09:19:14Z</time>
      </trkpt>
      <trkpt lat="43.40371" lon="5.45156">
        <ele>444.75</ele>
        <time>2021-04-25T09:19:29Z</time>
      </trkpt>
      <trkpt lat="43.40373" lon="5.4517">
        <ele>446.19</ele>
        <time>2021-04-25T09:19:46Z</time>
      </trkpt>
      <trkpt lat="43.40368" lon="5.45178">
        <ele>448.59</ele>
        <time>2021-04-25T09:20:00Z</time>
      </trkpt>
      <trkpt lat="43.40363" lon="5.45183">
        <ele>446.67</ele>
        <time>2021-04-25T09:20:13Z</time>
      </trkpt>
      <trkpt lat="43.40362" lon="5.45183">
        <ele>446.19</ele>
        <time>2021-04-25T09:20:27Z</time>
      </trkpt>
      <trkpt lat="43.40361" lon="5.45184">
        <ele>445.71</ele>
        <time>2021-04-25T09:20:42Z</time>
      </trkpt>
      <trkpt lat="43.40354" lon="5.45187">
        <ele>444.27</ele>
        <time>2021-04-25T09:21:01Z</time>
      </trkpt>
      <trkpt lat="43.40346" lon="5.45192">
        <ele>443.79</ele>
        <time>2021-04-25T09:21:15Z</time>
      </trkpt>
      <trkpt lat="43.40339" lon="5.45194">
        <ele>444.27</ele>
        <time>2021-04-25T09:21:26Z</time>
      </trkpt>
      <trkpt lat="43.40332" lon="5.45195">
        <ele>440.9</ele>
        <time>2021-04-25T09:21:38Z</time>
      </trkpt>
      <trkpt lat="43.40329" lon="5.45195">
        <ele>439.46</ele>
        <time>2021-04-25T09:21:43Z</time>
      </trkpt>
      <trkpt lat="43.40326" lon="5.45197">
        <ele>437.06</ele>
        <time>2021-04-25T09:21:58Z</time>
      </trkpt>
      <trkpt lat="43.40326" lon="5.45198">
        <ele>437.54</ele>
        <time>2021-04-25T09:22:22Z</time>
      </trkpt>
      <trkpt lat="43.40327" lon="5.45201">
        <ele>441.86</ele>
        <time>2021-04-25T09:22:58Z</time>
      </trkpt>
      <trkpt lat="43.40323" lon="5.452">
        <ele>444.27</ele>
        <time>2021-04-25T09:23:21Z</time>
      </trkpt>
      <trkpt lat="43.40325" lon="5.45196">
        <ele>442.34</ele>
        <time>2021-04-25T09:23:37Z</time>
      </trkpt>
      <trkpt lat="43.40325" lon="5.45198">
        <ele>442.34</ele>
        <time>2021-04-25T09:24:02Z</time>
      </trkpt>
      <trkpt lat="43.40323" lon="5.45196">
        <ele>441.38</ele>
        <time>2021-04-25T09:24:20Z</time>
      </trkpt>
      <trkpt lat="43.40321" lon="5.45195">
        <ele>438.02</ele>
        <time>2021-04-25T09:24:38Z</time>
      </trkpt>
      <trkpt lat="43.40316" lon="5.45193">
        <ele>433.69</ele>
        <time>2021-04-25T09:24:51Z</time>
      </trkpt>
      <trkpt lat="43.40309" lon="5.45192">
        <ele>430.81</ele>
        <time>2021-04-25T09:25:04Z</time>
      </trkpt>
      <trkpt lat="43.40299" lon="5.45193">
        <ele>429.85</ele>
        <time>2021-04-25T09:25:16Z</time>
      </trkpt>
      <trkpt lat="43.40296" lon="5.45194">
        <ele>428.89</ele>
        <time>2021-04-25T09:25:20Z</time>
      </trkpt>
      <trkpt lat="43.40286" lon="5.45198">
        <ele>428.4</ele>
        <time>2021-04-25T09:25:32Z</time>
      </trkpt>
      <trkpt lat="43.40285" lon="5.45198">
        <ele>428.4</ele>
        <time>2021-04-25T09:25:33Z</time>
      </trkpt>
      <trkpt lat="43.40276" lon="5.45199">
        <ele>428.89</ele>
        <time>2021-04-25T09:25:44Z</time>
      </trkpt>
      <trkpt lat="43.4027" lon="5.45195">
        <ele>425.52</ele>
        <time>2021-04-25T09:25:54Z</time>
      </trkpt>
      <trkpt lat="43.40263" lon="5.45185">
        <ele>423.6</ele>
        <time>2021-04-25T09:26:06Z</time>
      </trkpt>
      <trkpt lat="43.40254" lon="5.45181">
        <ele>424.56</ele>
        <time>2021-04-25T09:26:17Z</time>
      </trkpt>
      <trkpt lat="43.40251" lon="5.45175">
        <ele>421.19</ele>
        <time>2021-04-25T09:26:30Z</time>
      </trkpt>
      <trkpt lat="43.4025" lon="5.45172">
        <ele>420.71</ele>
        <time>2021-04-25T09:26:33Z</time>
      </trkpt>
      <trkpt lat="43.40241" lon="5.45157">
        <ele>420.71</ele>
        <time>2021-04-25T09:26:46Z</time>
      </trkpt>
      <trkpt lat="43.40231" lon="5.45154">
        <ele>423.12</ele>
        <time>2021-04-25T09:26:58Z</time>
      </trkpt>
      <trkpt lat="43.40213" lon="5.45165">
        <ele>425.52</ele>
        <time>2021-04-25T09:27:12Z</time>
      </trkpt>
      <trkpt lat="43.4021" lon="5.45171">
        <ele>426.96</ele>
        <time>2021-04-25T09:27:17Z</time>
      </trkpt>
      <trkpt lat="43.402" lon="5.45184">
        <ele>431.77</ele>
        <time>2021-04-25T09:27:31Z</time>
      </trkpt>
      <trkpt lat="43.40194" lon="5.45194">
        <ele>433.21</ele>
        <time>2021-04-25T09:27:42Z</time>
      </trkpt>
      <trkpt lat="43.40184" lon="5.45201">
        <ele>435.13</ele>
        <time>2021-04-25T09:27:55Z</time>
      </trkpt>
      <trkpt lat="43.40176" lon="5.45202">
        <ele>434.17</ele>
        <time>2021-04-25T09:28:10Z</time>
      </trkpt>
      <trkpt lat="43.4017" lon="5.45206">
        <ele>433.69</ele>
        <time>2021-04-25T09:28:15Z</time>
      </trkpt>
      <trkpt lat="43.40163" lon="5.45217">
        <ele>435.13</ele>
        <time>2021-04-25T09:28:26Z</time>
      </trkpt>
      <trkpt lat="43.40154" lon="5.45225">
        <ele>433.21</ele>
        <time>2021-04-25T09:28:38Z</time>
      </trkpt>
      <trkpt lat="43.40147" lon="5.45234">
        <ele>433.69</ele>
        <time>2021-04-25T09:28:48Z</time>
      </trkpt>
      <trkpt lat="43.40144" lon="5.45241">
        <ele>433.21</ele>
        <time>2021-04-25T09:28:53Z</time>
      </trkpt>
      <trkpt lat="43.4014" lon="5.4526">
        <ele>431.77</ele>
        <time>2021-04-25T09:29:08Z</time>
      </trkpt>
      <trkpt lat="43.40136" lon="5.45271">
        <ele>435.13</ele>
        <time>2021-04-25T09:29:19Z</time>
      </trkpt>
      <trkpt lat="43.40129" lon="5.45285">
        <ele>437.54</ele>
        <time>2021-04-25T09:29:31Z</time>
      </trkpt>
      <trkpt lat="43.40124" lon="5.45296">
        <ele>438.02</ele>
        <time>2021-04-25T09:29:43Z</time>
      </trkpt>
      <trkpt lat="43.40122" lon="5.453">
        <ele>437.54</ele>
        <time>2021-04-25T09:29:47Z</time>
      </trkpt>
      <trkpt lat="43.40121" lon="5.45314">
        <ele>437.54</ele>
        <time>2021-04-25T09:29:58Z</time>
      </trkpt>
      <trkpt lat="43.4012" lon="5.45326">
        <ele>438.5</ele>
        <time>2021-04-25T09:30:08Z</time>
      </trkpt>
      <trkpt lat="43.40118" lon="5.45328">
        <ele>438.02</ele>
        <time>2021-04-25T09:30:11Z</time>
      </trkpt>
      <trkpt lat="43.40112" lon="5.45339">
        <ele>437.06</ele>
        <time>2021-04-25T09:30:23Z</time>
      </trkpt>
      <trkpt lat="43.40109" lon="5.45349">
        <ele>439.46</ele>
        <time>2021-04-25T09:30:33Z</time>
      </trkpt>
      <trkpt lat="43.40102" lon="5.45358">
        <ele>443.31</ele>
        <time>2021-04-25T09:30:48Z</time>
      </trkpt>
      <trkpt lat="43.40096" lon="5.4537">
        <ele>444.75</ele>
        <time>2021-04-25T09:31:01Z</time>
      </trkpt>
      <trkpt lat="43.40093" lon="5.45376">
        <ele>445.23</ele>
        <time>2021-04-25T09:31:07Z</time>
      </trkpt>
      <trkpt lat="43.40089" lon="5.45384">
        <ele>445.23</ele>
        <time>2021-04-25T09:31:16Z</time>
      </trkpt>
      <trkpt lat="43.40086" lon="5.45387">
        <ele>445.23</ele>
        <time>2021-04-25T09:31:20Z</time>
      </trkpt>
      <trkpt lat="43.40083" lon="5.45391">
        <ele>445.23</ele>
        <time>2021-04-25T09:31:24Z</time>
      </trkpt>
      <trkpt lat="43.40076" lon="5.45406">
        <ele>444.27</ele>
        <time>2021-04-25T09:31:40Z</time>
      </trkpt>
      <trkpt lat="43.40071" lon="5.45417">
        <ele>446.67</ele>
        <time>2021-04-25T09:31:52Z</time>
      </trkpt>
      <trkpt lat="43.40065" lon="5.45428">
        <ele>448.59</ele>
        <time>2021-04-25T09:32:03Z</time>
      </trkpt>
      <trkpt lat="43.40067" lon="5.45445">
        <ele>448.11</ele>
        <time>2021-04-25T09:32:15Z</time>
      </trkpt>
      <trkpt lat="43.40065" lon="5.45456">
        <ele>447.63</ele>
        <time>2021-04-25T09:32:28Z</time>
      </trkpt>
      <trkpt lat="43.40057" lon="5.4546">
        <ele>449.07</ele>
        <time>2021-04-25T09:32:42Z</time>
      </trkpt>
      <trkpt lat="43.40052" lon="5.45462">
        <ele>450.03</ele>
        <time>2021-04-25T09:32:50Z</time>
      </trkpt>
      <trkpt lat="43.40049" lon="5.45463">
        <ele>453.4</ele>
        <time>2021-04-25T09:33:01Z</time>
      </trkpt>
      <trkpt lat="43.4004" lon="5.45467">
        <ele>456.76</ele>
        <time>2021-04-25T09:33:15Z</time>
      </trkpt>
      <trkpt lat="43.40031" lon="5.45471">
        <ele>459.65</ele>
        <time>2021-04-25T09:33:31Z</time>
      </trkpt>
      <trkpt lat="43.40024" lon="5.45478">
        <ele>460.61</ele>
        <time>2021-04-25T09:33:44Z</time>
      </trkpt>
      <trkpt lat="43.4002" lon="5.45488">
        <ele>458.69</ele>
        <time>2021-04-25T09:33:59Z</time>
      </trkpt>
      <trkpt lat="43.40016" lon="5.45498">
        <ele>458.21</ele>
        <time>2021-04-25T09:34:12Z</time>
      </trkpt>
      <trkpt lat="43.40012" lon="5.45506">
        <ele>457.72</ele>
        <time>2021-04-25T09:34:25Z</time>
      </trkpt>
      <trkpt lat="43.40008" lon="5.45507">
        <ele>459.17</ele>
        <time>2021-04-25T09:34:33Z</time>
      </trkpt>
      <trkpt lat="43.40003" lon="5.455">
        <ele>459.17</ele>
        <time>2021-04-25T09:34:47Z</time>
      </trkpt>
      <trkpt lat="43.4" lon="5.45491">
        <ele>460.61</ele>
        <time>2021-04-25T09:35:01Z</time>
      </trkpt>
      <trkpt lat="43.39994" lon="5.45481">
        <ele>462.05</ele>
        <time>2021-04-25T09:35:18Z</time>
      </trkpt>
      <trkpt lat="43.39992" lon="5.45473">
        <ele>464.45</ele>
        <time>2021-04-25T09:35:32Z</time>
      </trkpt>
      <trkpt lat="43.39987" lon="5.45464">
        <ele>466.38</ele>
        <time>2021-04-25T09:35:46Z</time>
      </trkpt>
      <trkpt lat="43.39984" lon="5.45464">
        <ele>468.78</ele>
        <time>2021-04-25T09:35:58Z</time>
      </trkpt>
      <trkpt lat="43.39982" lon="5.45466">
        <ele>469.26</ele>
        <time>2021-04-25T09:36:03Z</time>
      </trkpt>
      <trkpt lat="43.3998" lon="5.45469">
        <ele>468.78</ele>
        <time>2021-04-25T09:36:18Z</time>
      </trkpt>
      <trkpt lat="43.3998" lon="5.4547">
        <ele>468.78</ele>
        <time>2021-04-25T09:36:33Z</time>
      </trkpt>
      <trkpt lat="43.3997" lon="5.45474">
        <ele>474.07</ele>
        <time>2021-04-25T09:36:45Z</time>
      </trkpt>
      <trkpt lat="43.39962" lon="5.45482">
        <ele>475.51</ele>
        <time>2021-04-25T09:37:01Z</time>
      </trkpt>
      <trkpt lat="43.39958" lon="5.4549">
        <ele>475.99</ele>
        <time>2021-04-25T09:37:16Z</time>
      </trkpt>
      <trkpt lat="43.39954" lon="5.45497">
        <ele>476.95</ele>
        <time>2021-04-25T09:37:29Z</time>
      </trkpt>
      <trkpt lat="43.39949" lon="5.45505">
        <ele>478.87</ele>
        <time>2021-04-25T09:37:44Z</time>
      </trkpt>
      <trkpt lat="43.39946" lon="5.45509">
        <ele>480.32</ele>
        <time>2021-04-25T09:37:55Z</time>
      </trkpt>
      <trkpt lat="43.39942" lon="5.45514">
        <ele>483.2</ele>
        <time>2021-04-25T09:38:10Z</time>
      </trkpt>
      <trkpt lat="43.39938" lon="5.4552">
        <ele>484.64</ele>
        <time>2021-04-25T09:38:20Z</time>
      </trkpt>
      <trkpt lat="43.39936" lon="5.45531">
        <ele>486.08</ele>
        <time>2021-04-25T09:38:32Z</time>
      </trkpt>
      <trkpt lat="43.39935" lon="5.45541">
        <ele>487.05</ele>
        <time>2021-04-25T09:38:46Z</time>
      </trkpt>
      <trkpt lat="43.39937" lon="5.4556">
        <ele>488.01</ele>
        <time>2021-04-25T09:39:07Z</time>
      </trkpt>
      <trkpt lat="43.39935" lon="5.45567">
        <ele>488.01</ele>
        <time>2021-04-25T09:39:18Z</time>
      </trkpt>
      <trkpt lat="43.39936" lon="5.45578">
        <ele>488.97</ele>
        <time>2021-04-25T09:39:28Z</time>
      </trkpt>
      <trkpt lat="43.39937" lon="5.45591">
        <ele>490.41</ele>
        <time>2021-04-25T09:39:41Z</time>
      </trkpt>
      <trkpt lat="43.39941" lon="5.45608">
        <ele>492.81</ele>
        <time>2021-04-25T09:39:59Z</time>
      </trkpt>
      <trkpt lat="43.3994" lon="5.45611">
        <ele>493.29</ele>
        <time>2021-04-25T09:40:03Z</time>
      </trkpt>
      <trkpt lat="43.3994" lon="5.45625">
        <ele>493.29</ele>
        <time>2021-04-25T09:40:16Z</time>
      </trkpt>
      <trkpt lat="43.39941" lon="5.4564">
        <ele>494.74</ele>
        <time>2021-04-25T09:40:33Z</time>
      </trkpt>
      <trkpt lat="43.39943" lon="5.45654">
        <ele>497.14</ele>
        <time>2021-04-25T09:40:47Z</time>
      </trkpt>
      <trkpt lat="43.39945" lon="5.45666">
        <ele>499.06</ele>
        <time>2021-04-25T09:40:59Z</time>
      </trkpt>
      <trkpt lat="43.39946" lon="5.4568">
        <ele>501.46</ele>
        <time>2021-04-25T09:41:12Z</time>
      </trkpt>
      <trkpt lat="43.39947" lon="5.45683">
        <ele>501.95</ele>
        <time>2021-04-25T09:41:14Z</time>
      </trkpt>
      <trkpt lat="43.39947" lon="5.45695">
        <ele>502.43</ele>
        <time>2021-04-25T09:41:27Z</time>
      </trkpt>
      <trkpt lat="43.39945" lon="5.45705">
        <ele>501.46</ele>
        <time>2021-04-25T09:41:38Z</time>
      </trkpt>
      <trkpt lat="43.39944" lon="5.45707">
        <ele>500.98</ele>
        <time>2021-04-25T09:41:40Z</time>
      </trkpt>
      <trkpt lat="43.39943" lon="5.45719">
        <ele>500.5</ele>
        <time>2021-04-25T09:41:53Z</time>
      </trkpt>
      <trkpt lat="43.39943" lon="5.45719">
        <ele>500.5</ele>
        <time>2021-04-25T09:41:54Z</time>
      </trkpt>
      <trkpt lat="43.39943" lon="5.45724">
        <ele>500.98</ele>
        <time>2021-04-25T09:41:58Z</time>
      </trkpt>
      <trkpt lat="43.39947" lon="5.45738">
        <ele>501.46</ele>
        <time>2021-04-25T09:42:09Z</time>
      </trkpt>
      <trkpt lat="43.39951" lon="5.4575">
        <ele>500.98</ele>
        <time>2021-04-25T09:42:21Z</time>
      </trkpt>
      <trkpt lat="43.39954" lon="5.45765">
        <ele>503.39</ele>
        <time>2021-04-25T09:42:36Z</time>
      </trkpt>
      <trkpt lat="43.39956" lon="5.45776">
        <ele>503.87</ele>
        <time>2021-04-25T09:42:48Z</time>
      </trkpt>
      <trkpt lat="43.39961" lon="5.45787">
        <ele>507.23</ele>
        <time>2021-04-25T09:43:06Z</time>
      </trkpt>
      <trkpt lat="43.39968" lon="5.45797">
        <ele>507.71</ele>
        <time>2021-04-25T09:43:23Z</time>
      </trkpt>
      <trkpt lat="43.39973" lon="5.45809">
        <ele>507.71</ele>
        <time>2021-04-25T09:43:36Z</time>
      </trkpt>
      <trkpt lat="43.39974" lon="5.4581">
        <ele>507.71</ele>
        <time>2021-04-25T09:43:37Z</time>
      </trkpt>
      <trkpt lat="43.39978" lon="5.45821">
        <ele>511.08</ele>
        <time>2021-04-25T09:43:51Z</time>
      </trkpt>
      <trkpt lat="43.39982" lon="5.45827">
        <ele>513.48</ele>
        <time>2021-04-25T09:44:06Z</time>
      </trkpt>
      <trkpt lat="43.39989" lon="5.45834">
        <ele>514.44</ele>
        <time>2021-04-25T09:44:19Z</time>
      </trkpt>
      <trkpt lat="43.39991" lon="5.45836">
        <ele>516.37</ele>
        <time>2021-04-25T09:44:34Z</time>
      </trkpt>
      <trkpt lat="43.3999" lon="5.45835">
        <ele>514.92</ele>
        <time>2021-04-25T09:44:59Z</time>
      </trkpt>
      <trkpt lat="43.39995" lon="5.45839">
        <ele>516.37</ele>
        <time>2021-04-25T09:45:12Z</time>
      </trkpt>
      <trkpt lat="43.39996" lon="5.45839">
        <ele>516.37</ele>
        <time>2021-04-25T09:45:13Z</time>
      </trkpt>
      <trkpt lat="43.40003" lon="5.45848">
        <ele>517.33</ele>
        <time>2021-04-25T09:45:27Z</time>
      </trkpt>
      <trkpt lat="43.4001" lon="5.45859">
        <ele>517.81</ele>
        <time>2021-04-25T09:45:42Z</time>
      </trkpt>
      <trkpt lat="43.40016" lon="5.45864">
        <ele>521.65</ele>
        <time>2021-04-25T09:45:55Z</time>
      </trkpt>
      <trkpt lat="43.40022" lon="5.45874">
        <ele>522.13</ele>
        <time>2021-04-25T09:46:11Z</time>
      </trkpt>
      <trkpt lat="43.40017" lon="5.45878">
        <ele>522.61</ele>
        <time>2021-04-25T09:46:23Z</time>
      </trkpt>
      <trkpt lat="43.4001" lon="5.45881">
        <ele>524.54</ele>
        <time>2021-04-25T09:46:37Z</time>
      </trkpt>
      <trkpt lat="43.40005" lon="5.45882">
        <ele>525.98</ele>
        <time>2021-04-25T09:46:49Z</time>
      </trkpt>
      <trkpt lat="43.40002" lon="5.45881">
        <ele>528.38</ele>
        <time>2021-04-25T09:46:59Z</time>
      </trkpt>
      <trkpt lat="43.39994" lon="5.45875">
        <ele>530.3</ele>
        <time>2021-04-25T09:47:13Z</time>
      </trkpt>
      <trkpt lat="43.39987" lon="5.45874">
        <ele>531.75</ele>
        <time>2021-04-25T09:47:23Z</time>
      </trkpt>
      <trkpt lat="43.39987" lon="5.45882">
        <ele>531.75</ele>
        <time>2021-04-25T09:47:37Z</time>
      </trkpt>
      <trkpt lat="43.39991" lon="5.45891">
        <ele>535.11</ele>
        <time>2021-04-25T09:47:51Z</time>
      </trkpt>
      <trkpt lat="43.39994" lon="5.45898">
        <ele>537.99</ele>
        <time>2021-04-25T09:48:04Z</time>
      </trkpt>
      <trkpt lat="43.39998" lon="5.45906">
        <ele>541.84</ele>
        <time>2021-04-25T09:48:19Z</time>
      </trkpt>
      <trkpt lat="43.40004" lon="5.45912">
        <ele>545.69</ele>
        <time>2021-04-25T09:48:34Z</time>
      </trkpt>
      <trkpt lat="43.40011" lon="5.4592">
        <ele>547.61</ele>
        <time>2021-04-25T09:48:51Z</time>
      </trkpt>
      <trkpt lat="43.40016" lon="5.45926">
        <ele>549.05</ele>
        <time>2021-04-25T09:49:05Z</time>
      </trkpt>
      <trkpt lat="43.40018" lon="5.45931">
        <ele>545.69</ele>
        <time>2021-04-25T09:49:18Z</time>
      </trkpt>
      <trkpt lat="43.40019" lon="5.45939">
        <ele>548.57</ele>
        <time>2021-04-25T09:49:33Z</time>
      </trkpt>
      <trkpt lat="43.40021" lon="5.45946">
        <ele>548.09</ele>
        <time>2021-04-25T09:49:54Z</time>
      </trkpt>
      <trkpt lat="43.40024" lon="5.45955">
        <ele>551.45</ele>
        <time>2021-04-25T09:50:09Z</time>
      </trkpt>
      <trkpt lat="43.40029" lon="5.4597">
        <ele>553.86</ele>
        <time>2021-04-25T09:50:27Z</time>
      </trkpt>
      <trkpt lat="43.40032" lon="5.4598">
        <ele>552.9</ele>
        <time>2021-04-25T09:50:41Z</time>
      </trkpt>
      <trkpt lat="43.40032" lon="5.45981">
        <ele>553.38</ele>
        <time>2021-04-25T09:50:42Z</time>
      </trkpt>
      <trkpt lat="43.40032" lon="5.45988">
        <ele>554.82</ele>
        <time>2021-04-25T09:50:54Z</time>
      </trkpt>
      <trkpt lat="43.40031" lon="5.45989">
        <ele>552.9</ele>
        <time>2021-04-25T09:51:17Z</time>
      </trkpt>
      <trkpt lat="43.40033" lon="5.45989">
        <ele>554.82</ele>
        <time>2021-04-25T09:51:36Z</time>
      </trkpt>
      <trkpt lat="43.40033" lon="5.4599">
        <ele>554.82</ele>
        <time>2021-04-25T09:51:58Z</time>
      </trkpt>
      <trkpt lat="43.40033" lon="5.4599">
        <ele>555.3</ele>
        <time>2021-04-25T09:52:18Z</time>
      </trkpt>
      <trkpt lat="43.40032" lon="5.4599">
        <ele>556.26</ele>
        <time>2021-04-25T09:52:36Z</time>
      </trkpt>
      <trkpt lat="43.40032" lon="5.4599">
        <ele>557.7</ele>
        <time>2021-04-25T09:53:02Z</time>
      </trkpt>
      <trkpt lat="43.40034" lon="5.45988">
        <ele>556.26</ele>
        <time>2021-04-25T09:53:27Z</time>
      </trkpt>
      <trkpt lat="43.40032" lon="5.45997">
        <ele>556.74</ele>
        <time>2021-04-25T09:53:38Z</time>
      </trkpt>
      <trkpt lat="43.40031" lon="5.45999">
        <ele>557.22</ele>
        <time>2021-04-25T09:53:42Z</time>
      </trkpt>
      <trkpt lat="43.40023" lon="5.46">
        <ele>559.14</ele>
        <time>2021-04-25T09:53:56Z</time>
      </trkpt>
      <trkpt lat="43.40017" lon="5.45998">
        <ele>561.07</ele>
        <time>2021-04-25T09:54:08Z</time>
      </trkpt>
      <trkpt lat="43.40012" lon="5.45994">
        <ele>562.51</ele>
        <time>2021-04-25T09:54:23Z</time>
      </trkpt>
      <trkpt lat="43.40009" lon="5.45983">
        <ele>564.91</ele>
        <time>2021-04-25T09:54:39Z</time>
      </trkpt>
      <trkpt lat="43.40005" lon="5.4598">
        <ele>565.87</ele>
        <time>2021-04-25T09:54:56Z</time>
      </trkpt>
      <trkpt lat="43.40002" lon="5.45977">
        <ele>565.39</ele>
        <time>2021-04-25T09:55:08Z</time>
      </trkpt>
      <trkpt lat="43.40002" lon="5.45975">
        <ele>564.91</ele>
        <time>2021-04-25T09:55:12Z</time>
      </trkpt>
      <trkpt lat="43.39998" lon="5.45964">
        <ele>564.91</ele>
        <time>2021-04-25T09:55:24Z</time>
      </trkpt>
      <trkpt lat="43.39998" lon="5.45958">
        <ele>567.32</ele>
        <time>2021-04-25T09:55:36Z</time>
      </trkpt>
      <trkpt lat="43.39996" lon="5.45959">
        <ele>568.76</ele>
        <time>2021-04-25T09:55:53Z</time>
      </trkpt>
      <trkpt lat="43.39991" lon="5.45956">
        <ele>568.76</ele>
        <time>2021-04-25T09:56:07Z</time>
      </trkpt>
      <trkpt lat="43.39987" lon="5.45955">
        <ele>567.8</ele>
        <time>2021-04-25T09:56:20Z</time>
      </trkpt>
      <trkpt lat="43.39986" lon="5.45957">
        <ele>568.28</ele>
        <time>2021-04-25T09:56:26Z</time>
      </trkpt>
      <trkpt lat="43.39983" lon="5.45958">
        <ele>569.72</ele>
        <time>2021-04-25T09:56:38Z</time>
      </trkpt>
      <trkpt lat="43.39982" lon="5.45957">
        <ele>568.76</ele>
        <time>2021-04-25T09:56:51Z</time>
      </trkpt>
      <trkpt lat="43.39977" lon="5.45952">
        <ele>565.39</ele>
        <time>2021-04-25T09:57:05Z</time>
      </trkpt>
      <trkpt lat="43.39974" lon="5.45949">
        <ele>564.91</ele>
        <time>2021-04-25T09:57:11Z</time>
      </trkpt>
      <trkpt lat="43.39969" lon="5.45945">
        <ele>563.95</ele>
        <time>2021-04-25T09:57:19Z</time>
      </trkpt>
      <trkpt lat="43.3996" lon="5.45936">
        <ele>562.51</ele>
        <time>2021-04-25T09:57:32Z</time>
      </trkpt>
      <trkpt lat="43.39954" lon="5.45933">
        <ele>563.95</ele>
        <time>2021-04-25T09:57:43Z</time>
      </trkpt>
      <trkpt lat="43.39949" lon="5.45928">
        <ele>565.39</ele>
        <time>2021-04-25T09:57:54Z</time>
      </trkpt>
      <trkpt lat="43.39947" lon="5.45922">
        <ele>567.8</ele>
        <time>2021-04-25T09:58:10Z</time>
      </trkpt>
      <trkpt lat="43.39945" lon="5.45916">
        <ele>570.68</ele>
        <time>2021-04-25T09:58:22Z</time>
      </trkpt>
      <trkpt lat="43.39939" lon="5.45912">
        <ele>574.04</ele>
        <time>2021-04-25T09:58:37Z</time>
      </trkpt>
      <trkpt lat="43.39933" lon="5.45907">
        <ele>575.49</ele>
        <time>2021-04-25T09:58:49Z</time>
      </trkpt>
      <trkpt lat="43.39926" lon="5.45904">
        <ele>574.04</ele>
        <time>2021-04-25T09:59:05Z</time>
      </trkpt>
      <trkpt lat="43.3992" lon="5.45904">
        <ele>576.45</ele>
        <time>2021-04-25T09:59:14Z</time>
      </trkpt>
      <trkpt lat="43.39914" lon="5.45908">
        <ele>578.37</ele>
        <time>2021-04-25T09:59:25Z</time>
      </trkpt>
      <trkpt lat="43.39908" lon="5.4591">
        <ele>579.81</ele>
        <time>2021-04-25T09:59:36Z</time>
      </trkpt>
      <trkpt lat="43.39903" lon="5.45912">
        <ele>579.81</ele>
        <time>2021-04-25T09:59:56Z</time>
      </trkpt>
      <trkpt lat="43.39898" lon="5.45907">
        <ele>582.7</ele>
        <time>2021-04-25T10:00:08Z</time>
      </trkpt>
      <trkpt lat="43.39893" lon="5.45905">
        <ele>584.14</ele>
        <time>2021-04-25T10:00:24Z</time>
      </trkpt>
      <trkpt lat="43.39892" lon="5.45905">
        <ele>584.14</ele>
        <time>2021-04-25T10:00:41Z</time>
      </trkpt>
      <trkpt lat="43.39892" lon="5.45904">
        <ele>585.58</ele>
        <time>2021-04-25T10:00:53Z</time>
      </trkpt>
      <trkpt lat="43.39893" lon="5.45907">
        <ele>583.66</ele>
        <time>2021-04-25T10:01:19Z</time>
      </trkpt>
      <trkpt lat="43.3989" lon="5.45905">
        <ele>582.7</ele>
        <time>2021-04-25T10:01:34Z</time>
      </trkpt>
      <trkpt lat="43.39874" lon="5.45892">
        <ele>580.77</ele>
        <time>2021-04-25T10:01:47Z</time>
      </trkpt>
      <trkpt lat="43.3987" lon="5.45888">
        <ele>580.77</ele>
        <time>2021-04-25T10:01:50Z</time>
      </trkpt>
      <trkpt lat="43.39863" lon="5.45887">
        <ele>580.77</ele>
        <time>2021-04-25T10:01:55Z</time>
      </trkpt>
      <trkpt lat="43.39855" lon="5.45876">
        <ele>582.7</ele>
        <time>2021-04-25T10:02:04Z</time>
      </trkpt>
      <trkpt lat="43.39853" lon="5.45872">
        <ele>582.7</ele>
        <time>2021-04-25T10:02:07Z</time>
      </trkpt>
      <trkpt lat="43.39846" lon="5.45869">
        <ele>584.14</ele>
        <time>2021-04-25T10:02:14Z</time>
      </trkpt>
      <trkpt lat="43.39843" lon="5.45866">
        <ele>585.58</ele>
        <time>2021-04-25T10:02:18Z</time>
      </trkpt>
      <trkpt lat="43.39841" lon="5.45857">
        <ele>587.98</ele>
        <time>2021-04-25T10:02:24Z</time>
      </trkpt>
      <trkpt lat="43.39841" lon="5.45845">
        <ele>590.87</ele>
        <time>2021-04-25T10:02:38Z</time>
      </trkpt>
      <trkpt lat="43.39838" lon="5.45845">
        <ele>590.87</ele>
        <time>2021-04-25T10:03:08Z</time>
      </trkpt>
      <trkpt lat="43.39838" lon="5.45843">
        <ele>589.43</ele>
        <time>2021-04-25T10:03:32Z</time>
      </trkpt>
      <trkpt lat="43.39835" lon="5.45842">
        <ele>587.02</ele>
        <time>2021-04-25T10:03:52Z</time>
      </trkpt>
      <trkpt lat="43.39832" lon="5.45836">
        <ele>586.54</ele>
        <time>2021-04-25T10:04:04Z</time>
      </trkpt>
      <trkpt lat="43.39832" lon="5.45827">
        <ele>585.1</ele>
        <time>2021-04-25T10:04:15Z</time>
      </trkpt>
      <trkpt lat="43.39829" lon="5.45817">
        <ele>584.62</ele>
        <time>2021-04-25T10:04:26Z</time>
      </trkpt>
      <trkpt lat="43.39827" lon="5.45812">
        <ele>584.62</ele>
        <time>2021-04-25T10:04:30Z</time>
      </trkpt>
      <trkpt lat="43.39824" lon="5.45801">
        <ele>585.58</ele>
        <time>2021-04-25T10:04:42Z</time>
      </trkpt>
      <trkpt lat="43.39816" lon="5.45793">
        <ele>582.7</ele>
        <time>2021-04-25T10:04:52Z</time>
      </trkpt>
      <trkpt lat="43.39813" lon="5.45783">
        <ele>583.18</ele>
        <time>2021-04-25T10:05:05Z</time>
      </trkpt>
      <trkpt lat="43.39811" lon="5.45777">
        <ele>587.02</ele>
        <time>2021-04-25T10:05:16Z</time>
      </trkpt>
      <trkpt lat="43.39811" lon="5.45777">
        <ele>588.95</ele>
        <time>2021-04-25T10:05:33Z</time>
      </trkpt>
      <trkpt lat="43.39812" lon="5.45768">
        <ele>590.39</ele>
        <time>2021-04-25T10:05:43Z</time>
      </trkpt>
      <trkpt lat="43.39813" lon="5.45761">
        <ele>589.91</ele>
        <time>2021-04-25T10:05:47Z</time>
      </trkpt>
      <trkpt lat="43.39815" lon="5.45754">
        <ele>589.91</ele>
        <time>2021-04-25T10:05:52Z</time>
      </trkpt>
      <trkpt lat="43.39808" lon="5.45734">
        <ele>587.98</ele>
        <time>2021-04-25T10:06:05Z</time>
      </trkpt>
      <trkpt lat="43.39797" lon="5.45722">
        <ele>587.02</ele>
        <time>2021-04-25T10:06:18Z</time>
      </trkpt>
      <trkpt lat="43.39793" lon="5.45721">
        <ele>585.58</ele>
        <time>2021-04-25T10:06:40Z</time>
      </trkpt>
      <trkpt lat="43.39791" lon="5.45719">
        <ele>584.14</ele>
        <time>2021-04-25T10:06:58Z</time>
      </trkpt>
      <trkpt lat="43.39788" lon="5.45716">
        <ele>582.7</ele>
        <time>2021-04-25T10:07:14Z</time>
      </trkpt>
      <trkpt lat="43.39788" lon="5.45715">
        <ele>582.22</ele>
        <time>2021-04-25T10:07:22Z</time>
      </trkpt>
      <trkpt lat="43.39788" lon="5.4571">
        <ele>581.25</ele>
        <time>2021-04-25T10:07:27Z</time>
      </trkpt>
      <trkpt lat="43.39785" lon="5.45705">
        <ele>581.25</ele>
        <time>2021-04-25T10:07:38Z</time>
      </trkpt>
      <trkpt lat="43.39785" lon="5.45705">
        <ele>580.29</ele>
        <time>2021-04-25T10:07:52Z</time>
      </trkpt>
      <trkpt lat="43.39778" lon="5.45696">
        <ele>580.29</ele>
        <time>2021-04-25T10:08:08Z</time>
      </trkpt>
      <trkpt lat="43.39779" lon="5.45694">
        <ele>579.33</ele>
        <time>2021-04-25T10:08:40Z</time>
      </trkpt>
      <trkpt lat="43.39778" lon="5.45695">
        <ele>579.81</ele>
        <time>2021-04-25T10:09:01Z</time>
      </trkpt>
      <trkpt lat="43.39778" lon="5.45697">
        <ele>579.81</ele>
        <time>2021-04-25T10:09:31Z</time>
      </trkpt>
      <trkpt lat="43.39774" lon="5.45698">
        <ele>579.81</ele>
        <time>2021-04-25T10:09:49Z</time>
      </trkpt>
      <trkpt lat="43.39773" lon="5.45696">
        <ele>577.89</ele>
        <time>2021-04-25T10:10:18Z</time>
      </trkpt>
      <trkpt lat="43.39773" lon="5.45695">
        <ele>575.49</ele>
        <time>2021-04-25T10:10:50Z</time>
      </trkpt>
      <trkpt lat="43.39774" lon="5.45696">
        <ele>576.93</ele>
        <time>2021-04-25T10:11:36Z</time>
      </trkpt>
      <trkpt lat="43.39776" lon="5.45699">
        <ele>578.37</ele>
        <time>2021-04-25T10:11:58Z</time>
      </trkpt>
      <trkpt lat="43.39779" lon="5.457">
        <ele>579.33</ele>
        <time>2021-04-25T10:12:14Z</time>
      </trkpt>
      <trkpt lat="43.39782" lon="5.45697">
        <ele>579.33</ele>
        <time>2021-04-25T10:12:20Z</time>
      </trkpt>
      <trkpt lat="43.39785" lon="5.45686">
        <ele>581.25</ele>
        <time>2021-04-25T10:12:32Z</time>
      </trkpt>
      <trkpt lat="43.39785" lon="5.45685">
        <ele>581.73</ele>
        <time>2021-04-25T10:12:34Z</time>
      </trkpt>
      <trkpt lat="43.3979" lon="5.45674">
        <ele>582.22</ele>
        <time>2021-04-25T10:12:46Z</time>
      </trkpt>
      <trkpt lat="43.39789" lon="5.45672">
        <ele>582.22</ele>
        <time>2021-04-25T10:12:47Z</time>
      </trkpt>
      <trkpt lat="43.39791" lon="5.45662">
        <ele>585.58</ele>
        <time>2021-04-25T10:12:59Z</time>
      </trkpt>
      <trkpt lat="43.39787" lon="5.4565">
        <ele>585.1</ele>
        <time>2021-04-25T10:13:16Z</time>
      </trkpt>
      <trkpt lat="43.3978" lon="5.45646">
        <ele>587.5</ele>
        <time>2021-04-25T10:13:31Z</time>
      </trkpt>
      <trkpt lat="43.39781" lon="5.45638">
        <ele>589.43</ele>
        <time>2021-04-25T10:13:43Z</time>
      </trkpt>
      <trkpt lat="43.39782" lon="5.45632">
        <ele>591.83</ele>
        <time>2021-04-25T10:13:56Z</time>
      </trkpt>
      <trkpt lat="43.39782" lon="5.4563">
        <ele>592.79</ele>
        <time>2021-04-25T10:14:09Z</time>
      </trkpt>
      <trkpt lat="43.39782" lon="5.45623">
        <ele>593.75</ele>
        <time>2021-04-25T10:14:22Z</time>
      </trkpt>
      <trkpt lat="43.39781" lon="5.45612">
        <ele>596.15</ele>
        <time>2021-04-25T10:14:34Z</time>
      </trkpt>
      <trkpt lat="43.39779" lon="5.45605">
        <ele>594.71</ele>
        <time>2021-04-25T10:14:50Z</time>
      </trkpt>
      <trkpt lat="43.39779" lon="5.45597">
        <ele>596.15</ele>
        <time>2021-04-25T10:15:03Z</time>
      </trkpt>
      <trkpt lat="43.39777" lon="5.45585">
        <ele>596.64</ele>
        <time>2021-04-25T10:15:14Z</time>
      </trkpt>
      <trkpt lat="43.39775" lon="5.45574">
        <ele>598.08</ele>
        <time>2021-04-25T10:15:25Z</time>
      </trkpt>
      <trkpt lat="43.3977" lon="5.45567">
        <ele>597.12</ele>
        <time>2021-04-25T10:15:39Z</time>
      </trkpt>
      <trkpt lat="43.39765" lon="5.45561">
        <ele>597.6</ele>
        <time>2021-04-25T10:15:49Z</time>
      </trkpt>
      <trkpt lat="43.39765" lon="5.4556">
        <ele>597.6</ele>
        <time>2021-04-25T10:15:50Z</time>
      </trkpt>
      <trkpt lat="43.39758" lon="5.45552">
        <ele>597.6</ele>
        <time>2021-04-25T10:16:02Z</time>
      </trkpt>
      <trkpt lat="43.39751" lon="5.45541">
        <ele>598.56</ele>
        <time>2021-04-25T10:16:14Z</time>
      </trkpt>
      <trkpt lat="43.3975" lon="5.4554">
        <ele>598.08</ele>
        <time>2021-04-25T10:16:15Z</time>
      </trkpt>
      <trkpt lat="43.39749" lon="5.45536">
        <ele>599.04</ele>
        <time>2021-04-25T10:16:19Z</time>
      </trkpt>
      <trkpt lat="43.39747" lon="5.45534">
        <ele>598.08</ele>
        <time>2021-04-25T10:16:36Z</time>
      </trkpt>
      <trkpt lat="43.39748" lon="5.45533">
        <ele>597.6</ele>
        <time>2021-04-25T10:16:41Z</time>
      </trkpt>
      <trkpt lat="43.39748" lon="5.45529">
        <ele>597.12</ele>
        <time>2021-04-25T10:16:44Z</time>
      </trkpt>
      <trkpt lat="43.39745" lon="5.45517">
        <ele>600.48</ele>
        <time>2021-04-25T10:16:56Z</time>
      </trkpt>
      <trkpt lat="43.39743" lon="5.45507">
        <ele>601.92</ele>
        <time>2021-04-25T10:17:06Z</time>
      </trkpt>
      <trkpt lat="43.39743" lon="5.4549">
        <ele>602.88</ele>
        <time>2021-04-25T10:17:21Z</time>
      </trkpt>
      <trkpt lat="43.39743" lon="5.45476">
        <ele>603.85</ele>
        <time>2021-04-25T10:17:34Z</time>
      </trkpt>
      <trkpt lat="43.39743" lon="5.45464">
        <ele>605.29</ele>
        <time>2021-04-25T10:17:46Z</time>
      </trkpt>
      <trkpt lat="43.39744" lon="5.45452">
        <ele>606.73</ele>
        <time>2021-04-25T10:17:58Z</time>
      </trkpt>
      <trkpt lat="43.39745" lon="5.45439">
        <ele>609.13</ele>
        <time>2021-04-25T10:18:10Z</time>
      </trkpt>
      <trkpt lat="43.39744" lon="5.45431">
        <ele>608.65</ele>
        <time>2021-04-25T10:18:25Z</time>
      </trkpt>
      <trkpt lat="43.39744" lon="5.4542">
        <ele>611.06</ele>
        <time>2021-04-25T10:18:36Z</time>
      </trkpt>
      <trkpt lat="43.39744" lon="5.45413">
        <ele>612.02</ele>
        <time>2021-04-25T10:18:42Z</time>
      </trkpt>
      <trkpt lat="43.39744" lon="5.454">
        <ele>613.94</ele>
        <time>2021-04-25T10:18:55Z</time>
      </trkpt>
      <trkpt lat="43.39741" lon="5.45398">
        <ele>612.5</ele>
        <time>2021-04-25T10:19:11Z</time>
      </trkpt>
      <trkpt lat="43.39742" lon="5.45395">
        <ele>610.57</ele>
        <time>2021-04-25T10:19:40Z</time>
      </trkpt>
      <trkpt lat="43.39744" lon="5.45399">
        <ele>608.17</ele>
        <time>2021-04-25T10:20:12Z</time>
      </trkpt>
      <trkpt lat="43.39745" lon="5.45391">
        <ele>609.61</ele>
        <time>2021-04-25T10:20:28Z</time>
      </trkpt>
      <trkpt lat="43.3975" lon="5.4538">
        <ele>611.54</ele>
        <time>2021-04-25T10:20:39Z</time>
      </trkpt>
      <trkpt lat="43.3975" lon="5.45379">
        <ele>611.54</ele>
        <time>2021-04-25T10:20:40Z</time>
      </trkpt>
      <trkpt lat="43.39754" lon="5.45371">
        <ele>612.02</ele>
        <time>2021-04-25T10:20:52Z</time>
      </trkpt>
      <trkpt lat="43.39757" lon="5.4536">
        <ele>611.54</ele>
        <time>2021-04-25T10:21:01Z</time>
      </trkpt>
      <trkpt lat="43.39759" lon="5.45348">
        <ele>611.06</ele>
        <time>2021-04-25T10:21:12Z</time>
      </trkpt>
      <trkpt lat="43.39761" lon="5.4534">
        <ele>610.57</ele>
        <time>2021-04-25T10:21:21Z</time>
      </trkpt>
      <trkpt lat="43.39762" lon="5.45324">
        <ele>612.5</ele>
        <time>2021-04-25T10:21:34Z</time>
      </trkpt>
      <trkpt lat="43.3976" lon="5.45311">
        <ele>613.94</ele>
        <time>2021-04-25T10:21:46Z</time>
      </trkpt>
      <trkpt lat="43.39757" lon="5.453">
        <ele>612.02</ele>
        <time>2021-04-25T10:21:57Z</time>
      </trkpt>
      <trkpt lat="43.39756" lon="5.453">
        <ele>608.65</ele>
        <time>2021-04-25T10:22:19Z</time>
      </trkpt>
      <trkpt lat="43.39754" lon="5.4529">
        <ele>607.69</ele>
        <time>2021-04-25T10:22:28Z</time>
      </trkpt>
      <trkpt lat="43.39751" lon="5.45279">
        <ele>608.17</ele>
        <time>2021-04-25T10:22:40Z</time>
      </trkpt>
      <trkpt lat="43.39748" lon="5.45267">
        <ele>607.21</ele>
        <time>2021-04-25T10:22:50Z</time>
      </trkpt>
      <trkpt lat="43.39747" lon="5.45262">
        <ele>605.29</ele>
        <time>2021-04-25T10:23:04Z</time>
      </trkpt>
      <trkpt lat="43.39746" lon="5.45257">
        <ele>604.81</ele>
        <time>2021-04-25T10:23:20Z</time>
      </trkpt>
      <trkpt lat="43.39744" lon="5.45256">
        <ele>603.36</ele>
        <time>2021-04-25T10:23:40Z</time>
      </trkpt>
      <trkpt lat="43.39745" lon="5.45256">
        <ele>602.88</ele>
        <time>2021-04-25T10:24:11Z</time>
      </trkpt>
      <trkpt lat="43.39746" lon="5.45256">
        <ele>602.4</ele>
        <time>2021-04-25T10:24:33Z</time>
      </trkpt>
      <trkpt lat="43.39745" lon="5.45255">
        <ele>602.88</ele>
        <time>2021-04-25T10:25:06Z</time>
      </trkpt>
      <trkpt lat="43.39742" lon="5.45246">
        <ele>600.96</ele>
        <time>2021-04-25T10:25:20Z</time>
      </trkpt>
      <trkpt lat="43.39744" lon="5.45242">
        <ele>599.52</ele>
        <time>2021-04-25T10:25:33Z</time>
      </trkpt>
      <trkpt lat="43.39744" lon="5.45242">
        <ele>600.96</ele>
        <time>2021-04-25T10:25:51Z</time>
      </trkpt>
      <trkpt lat="43.39742" lon="5.45243">
        <ele>600.96</ele>
        <time>2021-04-25T10:26:14Z</time>
      </trkpt>
      <trkpt lat="43.39745" lon="5.45242">
        <ele>601.44</ele>
        <time>2021-04-25T10:26:40Z</time>
      </trkpt>
      <trkpt lat="43.39745" lon="5.45242">
        <ele>601.92</ele>
        <time>2021-04-25T10:27:05Z</time>
      </trkpt>
      <trkpt lat="43.39746" lon="5.45241">
        <ele>600.96</ele>
        <time>2021-04-25T10:27:20Z</time>
      </trkpt>
      <trkpt lat="43.39753" lon="5.45235">
        <ele>597.12</ele>
        <time>2021-04-25T10:27:28Z</time>
      </trkpt>
      <trkpt lat="43.39759" lon="5.45229">
        <ele>594.71</ele>
        <time>2021-04-25T10:27:35Z</time>
      </trkpt>
      <trkpt lat="43.39763" lon="5.45213">
        <ele>593.27</ele>
        <time>2021-04-25T10:27:45Z</time>
      </trkpt>
      <trkpt lat="43.39765" lon="5.45205">
        <ele>592.31</ele>
        <time>2021-04-25T10:27:49Z</time>
      </trkpt>
      <trkpt lat="43.39766" lon="5.45192">
        <ele>589.43</ele>
        <time>2021-04-25T10:27:57Z</time>
      </trkpt>
      <trkpt lat="43.39767" lon="5.45179">
        <ele>585.1</ele>
        <time>2021-04-25T10:28:08Z</time>
      </trkpt>
      <trkpt lat="43.39773" lon="5.45153">
        <ele>582.22</ele>
        <time>2021-04-25T10:28:22Z</time>
      </trkpt>
      <trkpt lat="43.39777" lon="5.45147">
        <ele>581.25</ele>
        <time>2021-04-25T10:28:28Z</time>
      </trkpt>
      <trkpt lat="43.39779" lon="5.45151">
        <ele>581.25</ele>
        <time>2021-04-25T10:28:32Z</time>
      </trkpt>
      <trkpt lat="43.39778" lon="5.45157">
        <ele>584.62</ele>
        <time>2021-04-25T10:28:44Z</time>
      </trkpt>
      <trkpt lat="43.39778" lon="5.45156">
        <ele>584.14</ele>
        <time>2021-04-25T10:29:10Z</time>
      </trkpt>
      <trkpt lat="43.39777" lon="5.45159">
        <ele>582.7</ele>
        <time>2021-04-25T10:29:26Z</time>
      </trkpt>
      <trkpt lat="43.39776" lon="5.45159">
        <ele>583.66</ele>
        <time>2021-04-25T10:29:41Z</time>
      </trkpt>
      <trkpt lat="43.39776" lon="5.45159">
        <ele>583.18</ele>
        <time>2021-04-25T10:29:57Z</time>
      </trkpt>
      <trkpt lat="43.39776" lon="5.45161">
        <ele>582.7</ele>
        <time>2021-04-25T10:30:13Z</time>
      </trkpt>
      <trkpt lat="43.39779" lon="5.45162">
        <ele>583.18</ele>
        <time>2021-04-25T10:30:45Z</time>
      </trkpt>
      <trkpt lat="43.39779" lon="5.45163">
        <ele>583.66</ele>
        <time>2021-04-25T10:31:10Z</time>
      </trkpt>
      <trkpt lat="43.39778" lon="5.45164">
        <ele>584.14</ele>
        <time>2021-04-25T10:31:33Z</time>
      </trkpt>
      <trkpt lat="43.39779" lon="5.45164">
        <ele>583.18</ele>
        <time>2021-04-25T10:32:08Z</time>
      </trkpt>
      <trkpt lat="43.39777" lon="5.45164">
        <ele>581.25</ele>
        <time>2021-04-25T10:32:41Z</time>
      </trkpt>
      <trkpt lat="43.39777" lon="5.45164">
        <ele>582.7</ele>
        <time>2021-04-25T10:33:10Z</time>
      </trkpt>
      <trkpt lat="43.39776" lon="5.45163">
        <ele>580.29</ele>
        <time>2021-04-25T10:33:53Z</time>
      </trkpt>
      <trkpt lat="43.39777" lon="5.45163">
        <ele>582.7</ele>
        <time>2021-04-25T10:34:30Z</time>
      </trkpt>
      <trkpt lat="43.39776" lon="5.45161">
        <ele>584.62</ele>
        <time>2021-04-25T10:35:17Z</time>
      </trkpt>
      <trkpt lat="43.39778" lon="5.45161">
        <ele>583.66</ele>
        <time>2021-04-25T10:35:57Z</time>
      </trkpt>
      <trkpt lat="43.39777" lon="5.45161">
        <ele>581.73</ele>
        <time>2021-04-25T10:36:40Z</time>
      </trkpt>
      <trkpt lat="43.39778" lon="5.45161">
        <ele>582.7</ele>
        <time>2021-04-25T10:37:24Z</time>
      </trkpt>
      <trkpt lat="43.39777" lon="5.45161">
        <ele>584.14</ele>
        <time>2021-04-25T10:37:55Z</time>
      </trkpt>
      <trkpt lat="43.39777" lon="5.45162">
        <ele>585.58</ele>
        <time>2021-04-25T10:38:27Z</time>
      </trkpt>
      <trkpt lat="43.39778" lon="5.45162">
        <ele>587.02</ele>
        <time>2021-04-25T10:39:05Z</time>
      </trkpt>
      <trkpt lat="43.39778" lon="5.45162">
        <ele>586.54</ele>
        <time>2021-04-25T10:39:38Z</time>
      </trkpt>
      <trkpt lat="43.39777" lon="5.45163">
        <ele>587.5</ele>
        <time>2021-04-25T10:40:09Z</time>
      </trkpt>
      <trkpt lat="43.39778" lon="5.45161">
        <ele>586.54</ele>
        <time>2021-04-25T10:40:33Z</time>
      </trkpt>
      <trkpt lat="43.39778" lon="5.45162">
        <ele>586.06</ele>
        <time>2021-04-25T10:41:02Z</time>
      </trkpt>
      <trkpt lat="43.39778" lon="5.45163">
        <ele>585.1</ele>
        <time>2021-04-25T10:41:35Z</time>
      </trkpt>
      <trkpt lat="43.39778" lon="5.45162">
        <ele>587.02</ele>
        <time>2021-04-25T10:42:09Z</time>
      </trkpt>
      <trkpt lat="43.39778" lon="5.45162">
        <ele>587.98</ele>
        <time>2021-04-25T10:42:38Z</time>
      </trkpt>
      <trkpt lat="43.39778" lon="5.45163">
        <ele>587.02</ele>
        <time>2021-04-25T10:43:15Z</time>
      </trkpt>
      <trkpt lat="43.39778" lon="5.45163">
        <ele>587.02</ele>
        <time>2021-04-25T10:43:52Z</time>
      </trkpt>
      <trkpt lat="43.39779" lon="5.45162">
        <ele>586.54</ele>
        <time>2021-04-25T10:44:20Z</time>
      </trkpt>
      <trkpt lat="43.39778" lon="5.45162">
        <ele>587.5</ele>
        <time>2021-04-25T10:44:52Z</time>
      </trkpt>
      <trkpt lat="43.39779" lon="5.45162">
        <ele>587.02</ele>
        <time>2021-04-25T10:45:26Z</time>
      </trkpt>
      <trkpt lat="43.39779" lon="5.45162">
        <ele>587.98</ele>
        <time>2021-04-25T10:46:00Z</time>
      </trkpt>
      <trkpt lat="43.39779" lon="5.45163">
        <ele>587.98</ele>
        <time>2021-04-25T10:46:35Z</time>
      </trkpt>
      <trkpt lat="43.39779" lon="5.45162">
        <ele>586.54</ele>
        <time>2021-04-25T10:47:12Z</time>
      </trkpt>
      <trkpt lat="43.39779" lon="5.45162">
        <ele>585.58</ele>
        <time>2021-04-25T10:47:49Z</time>
      </trkpt>
      <trkpt lat="43.39779" lon="5.45162">
        <ele>586.06</ele>
        <time>2021-04-25T10:48:26Z</time>
      </trkpt>
      <trkpt lat="43.39779" lon="5.45162">
        <ele>586.54</ele>
        <time>2021-04-25T10:48:53Z</time>
      </trkpt>
      <trkpt lat="43.39778" lon="5.45161">
        <ele>585.58</ele>
        <time>2021-04-25T10:49:27Z</time>
      </trkpt>
      <trkpt lat="43.39778" lon="5.45162">
        <ele>585.58</ele>
        <time>2021-04-25T10:49:52Z</time>
      </trkpt>
      <trkpt lat="43.39779" lon="5.45162">
        <ele>585.1</ele>
        <time>2021-04-25T10:50:29Z</time>
      </trkpt>
      <trkpt lat="43.39779" lon="5.45161">
        <ele>585.1</ele>
        <time>2021-04-25T10:51:00Z</time>
      </trkpt>
      <trkpt lat="43.3978" lon="5.45162">
        <ele>586.54</ele>
        <time>2021-04-25T10:51:32Z</time>
      </trkpt>
      <trkpt lat="43.39779" lon="5.45162">
        <ele>587.02</ele>
        <time>2021-04-25T10:52:07Z</time>
      </trkpt>
      <trkpt lat="43.39779" lon="5.45163">
        <ele>587.98</ele>
        <time>2021-04-25T10:52:33Z</time>
      </trkpt>
      <trkpt lat="43.39779" lon="5.45163">
        <ele>587.98</ele>
        <time>2021-04-25T10:53:06Z</time>
      </trkpt>
      <trkpt lat="43.39779" lon="5.45163">
        <ele>587.5</ele>
        <time>2021-04-25T10:53:40Z</time>
      </trkpt>
      <trkpt lat="43.3978" lon="5.45163">
        <ele>587.02</ele>
        <time>2021-04-25T10:54:09Z</time>
      </trkpt>
      <trkpt lat="43.39779" lon="5.45162">
        <ele>587.5</ele>
        <time>2021-04-25T10:54:41Z</time>
      </trkpt>
      <trkpt lat="43.39779" lon="5.45163">
        <ele>586.54</ele>
        <time>2021-04-25T10:55:16Z</time>
      </trkpt>
      <trkpt lat="43.39778" lon="5.45162">
        <ele>586.54</ele>
        <time>2021-04-25T10:55:46Z</time>
      </trkpt>
      <trkpt lat="43.39778" lon="5.45161">
        <ele>585.58</ele>
        <time>2021-04-25T10:56:29Z</time>
      </trkpt>
      <trkpt lat="43.39777" lon="5.45161">
        <ele>585.58</ele>
        <time>2021-04-25T10:57:07Z</time>
      </trkpt>
      <trkpt lat="43.39778" lon="5.45161">
        <ele>585.1</ele>
        <time>2021-04-25T10:57:38Z</time>
      </trkpt>
      <trkpt lat="43.39778" lon="5.45161">
        <ele>586.06</ele>
        <time>2021-04-25T10:58:24Z</time>
      </trkpt>
      <trkpt lat="43.39778" lon="5.45162">
        <ele>587.02</ele>
        <time>2021-04-25T10:58:54Z</time>
      </trkpt>
      <trkpt lat="43.39778" lon="5.45161">
        <ele>587.02</ele>
        <time>2021-04-25T10:59:29Z</time>
      </trkpt>
      <trkpt lat="43.39778" lon="5.45161">
        <ele>586.06</ele>
        <time>2021-04-25T11:00:01Z</time>
      </trkpt>
      <trkpt lat="43.39779" lon="5.45161">
        <ele>586.54</ele>
        <time>2021-04-25T11:00:45Z</time>
      </trkpt>
      <trkpt lat="43.39778" lon="5.4516">
        <ele>586.54</ele>
        <time>2021-04-25T11:01:22Z</time>
      </trkpt>
      <trkpt lat="43.39777" lon="5.4516">
        <ele>586.54</ele>
        <time>2021-04-25T11:01:59Z</time>
      </trkpt>
      <trkpt lat="43.39777" lon="5.4516">
        <ele>585.58</ele>
        <time>2021-04-25T11:02:35Z</time>
      </trkpt>
      <trkpt lat="43.39777" lon="5.4516">
        <ele>587.02</ele>
        <time>2021-04-25T11:03:17Z</time>
      </trkpt>
      <trkpt lat="43.39777" lon="5.4516">
        <ele>586.54</ele>
        <time>2021-04-25T11:03:49Z</time>
      </trkpt>
      <trkpt lat="43.39778" lon="5.4516">
        <ele>585.58</ele>
        <time>2021-04-25T11:04:28Z</time>
      </trkpt>
      <trkpt lat="43.39779" lon="5.45161">
        <ele>586.06</ele>
        <time>2021-04-25T11:04:59Z</time>
      </trkpt>
      <trkpt lat="43.39779" lon="5.45161">
        <ele>587.02</ele>
        <time>2021-04-25T11:05:37Z</time>
      </trkpt>
      <trkpt lat="43.39779" lon="5.45161">
        <ele>585.58</ele>
        <time>2021-04-25T11:06:11Z</time>
      </trkpt>
      <trkpt lat="43.39779" lon="5.45161">
        <ele>585.58</ele>
        <time>2021-04-25T11:06:47Z</time>
      </trkpt>
      <trkpt lat="43.39779" lon="5.45161">
        <ele>585.58</ele>
        <time>2021-04-25T11:07:16Z</time>
      </trkpt>
      <trkpt lat="43.39779" lon="5.45161">
        <ele>586.06</ele>
        <time>2021-04-25T11:07:47Z</time>
      </trkpt>
      <trkpt lat="43.39779" lon="5.45161">
        <ele>587.5</ele>
        <time>2021-04-25T11:08:23Z</time>
      </trkpt>
      <trkpt lat="43.39779" lon="5.45161">
        <ele>586.54</ele>
        <time>2021-04-25T11:08:57Z</time>
      </trkpt>
      <trkpt lat="43.39778" lon="5.45162">
        <ele>586.06</ele>
        <time>2021-04-25T11:09:29Z</time>
      </trkpt>
      <trkpt lat="43.39778" lon="5.45162">
        <ele>586.06</ele>
        <time>2021-04-25T11:09:57Z</time>
      </trkpt>
      <trkpt lat="43.39778" lon="5.45163">
        <ele>586.06</ele>
        <time>2021-04-25T11:10:34Z</time>
      </trkpt>
      <trkpt lat="43.39779" lon="5.45162">
        <ele>586.06</ele>
        <time>2021-04-25T11:11:18Z</time>
      </trkpt>
      <trkpt lat="43.39778" lon="5.45162">
        <ele>585.58</ele>
        <time>2021-04-25T11:11:52Z</time>
      </trkpt>
      <trkpt lat="43.39777" lon="5.45161">
        <ele>585.1</ele>
        <time>2021-04-25T11:12:20Z</time>
      </trkpt>
      <trkpt lat="43.39777" lon="5.45161">
        <ele>586.54</ele>
        <time>2021-04-25T11:12:49Z</time>
      </trkpt>
      <trkpt lat="43.39778" lon="5.45165">
        <ele>584.14</ele>
        <time>2021-04-25T11:13:31Z</time>
      </trkpt>
      <trkpt lat="43.39778" lon="5.45161">
        <ele>584.14</ele>
        <time>2021-04-25T11:13:49Z</time>
      </trkpt>
      <trkpt lat="43.39779" lon="5.45161">
        <ele>585.58</ele>
        <time>2021-04-25T11:14:16Z</time>
      </trkpt>
      <trkpt lat="43.39778" lon="5.45162">
        <ele>585.1</ele>
        <time>2021-04-25T11:14:24Z</time>
      </trkpt>
      <trkpt lat="43.39777" lon="5.45163">
        <ele>586.54</ele>
        <time>2021-04-25T11:14:38Z</time>
      </trkpt>
      <trkpt lat="43.39778" lon="5.45163">
        <ele>586.06</ele>
        <time>2021-04-25T11:15:04Z</time>
      </trkpt>
      <trkpt lat="43.39777" lon="5.45163">
        <ele>588.46</ele>
        <time>2021-04-25T11:15:19Z</time>
      </trkpt>
      <trkpt lat="43.39777" lon="5.45162">
        <ele>587.02</ele>
        <time>2021-04-25T11:15:47Z</time>
      </trkpt>
      <trkpt lat="43.39778" lon="5.45163">
        <ele>588.46</ele>
        <time>2021-04-25T11:16:12Z</time>
      </trkpt>
      <trkpt lat="43.39778" lon="5.45163">
        <ele>587.98</ele>
        <time>2021-04-25T11:16:38Z</time>
      </trkpt>
      <trkpt lat="43.39777" lon="5.45161">
        <ele>586.54</ele>
        <time>2021-04-25T11:17:03Z</time>
      </trkpt>
      <trkpt lat="43.39779" lon="5.45159">
        <ele>583.66</ele>
        <time>2021-04-25T11:17:26Z</time>
      </trkpt>
      <trkpt lat="43.3978" lon="5.45161">
        <ele>584.14</ele>
        <time>2021-04-25T11:17:56Z</time>
      </trkpt>
      <trkpt lat="43.3978" lon="5.4516">
        <ele>585.1</ele>
        <time>2021-04-25T11:18:22Z</time>
      </trkpt>
      <trkpt lat="43.39779" lon="5.4516">
        <ele>588.95</ele>
        <time>2021-04-25T11:19:00Z</time>
      </trkpt>
      <trkpt lat="43.39778" lon="5.4516">
        <ele>587.02</ele>
        <time>2021-04-25T11:19:23Z</time>
      </trkpt>
      <trkpt lat="43.3978" lon="5.45157">
        <ele>585.58</ele>
        <time>2021-04-25T11:19:39Z</time>
      </trkpt>
      <trkpt lat="43.39779" lon="5.45148">
        <ele>585.1</ele>
        <time>2021-04-25T11:19:49Z</time>
      </trkpt>
      <trkpt lat="43.39776" lon="5.45134">
        <ele>584.14</ele>
        <time>2021-04-25T11:20:02Z</time>
      </trkpt>
      <trkpt lat="43.39775" lon="5.45122">
        <ele>582.22</ele>
        <time>2021-04-25T11:20:12Z</time>
      </trkpt>
      <trkpt lat="43.39772" lon="5.45103">
        <ele>579.81</ele>
        <time>2021-04-25T11:20:28Z</time>
      </trkpt>
      <trkpt lat="43.39772" lon="5.4508">
        <ele>577.41</ele>
        <time>2021-04-25T11:20:44Z</time>
      </trkpt>
      <trkpt lat="43.39773" lon="5.4506">
        <ele>577.41</ele>
        <time>2021-04-25T11:20:59Z</time>
      </trkpt>
      <trkpt lat="43.3977" lon="5.4504">
        <ele>578.85</ele>
        <time>2021-04-25T11:21:12Z</time>
      </trkpt>
      <trkpt lat="43.39768" lon="5.45029">
        <ele>579.81</ele>
        <time>2021-04-25T11:21:20Z</time>
      </trkpt>
      <trkpt lat="43.39764" lon="5.45007">
        <ele>581.25</ele>
        <time>2021-04-25T11:21:36Z</time>
      </trkpt>
      <trkpt lat="43.3976" lon="5.44988">
        <ele>582.7</ele>
        <time>2021-04-25T11:21:52Z</time>
      </trkpt>
      <trkpt lat="43.39757" lon="5.44973">
        <ele>585.1</ele>
        <time>2021-04-25T11:22:06Z</time>
      </trkpt>
      <trkpt lat="43.39755" lon="5.44962">
        <ele>586.06</ele>
        <time>2021-04-25T11:22:17Z</time>
      </trkpt>
      <trkpt lat="43.39754" lon="5.44944">
        <ele>587.98</ele>
        <time>2021-04-25T11:22:31Z</time>
      </trkpt>
      <trkpt lat="43.39755" lon="5.44935">
        <ele>587.5</ele>
        <time>2021-04-25T11:22:38Z</time>
      </trkpt>
      <trkpt lat="43.39755" lon="5.44919">
        <ele>589.43</ele>
        <time>2021-04-25T11:22:51Z</time>
      </trkpt>
      <trkpt lat="43.39758" lon="5.44896">
        <ele>588.95</ele>
        <time>2021-04-25T11:23:08Z</time>
      </trkpt>
      <trkpt lat="43.39759" lon="5.44886">
        <ele>588.46</ele>
        <time>2021-04-25T11:23:22Z</time>
      </trkpt>
      <trkpt lat="43.39758" lon="5.44884">
        <ele>586.54</ele>
        <time>2021-04-25T11:23:38Z</time>
      </trkpt>
      <trkpt lat="43.39759" lon="5.44884">
        <ele>587.98</ele>
        <time>2021-04-25T11:23:57Z</time>
      </trkpt>
      <trkpt lat="43.39759" lon="5.44884">
        <ele>588.46</ele>
        <time>2021-04-25T11:24:20Z</time>
      </trkpt>
      <trkpt lat="43.39761" lon="5.44884">
        <ele>587.5</ele>
        <time>2021-04-25T11:24:52Z</time>
      </trkpt>
      <trkpt lat="43.39763" lon="5.44873">
        <ele>585.58</ele>
        <time>2021-04-25T11:25:06Z</time>
      </trkpt>
      <trkpt lat="43.39771" lon="5.44852">
        <ele>585.58</ele>
        <time>2021-04-25T11:25:22Z</time>
      </trkpt>
      <trkpt lat="43.39774" lon="5.44842">
        <ele>585.58</ele>
        <time>2021-04-25T11:25:29Z</time>
      </trkpt>
      <trkpt lat="43.39779" lon="5.4482">
        <ele>584.62</ele>
        <time>2021-04-25T11:25:45Z</time>
      </trkpt>
      <trkpt lat="43.3979" lon="5.44802">
        <ele>586.54</ele>
        <time>2021-04-25T11:26:01Z</time>
      </trkpt>
      <trkpt lat="43.39792" lon="5.44797">
        <ele>587.02</ele>
        <time>2021-04-25T11:26:05Z</time>
      </trkpt>
      <trkpt lat="43.39793" lon="5.44794">
        <ele>586.54</ele>
        <time>2021-04-25T11:26:07Z</time>
      </trkpt>
      <trkpt lat="43.39795" lon="5.44771">
        <ele>584.62</ele>
        <time>2021-04-25T11:26:22Z</time>
      </trkpt>
      <trkpt lat="43.398" lon="5.44746">
        <ele>583.18</ele>
        <time>2021-04-25T11:26:39Z</time>
      </trkpt>
      <trkpt lat="43.398" lon="5.44724">
        <ele>582.7</ele>
        <time>2021-04-25T11:26:52Z</time>
      </trkpt>
      <trkpt lat="43.39798" lon="5.44696">
        <ele>582.22</ele>
        <time>2021-04-25T11:27:09Z</time>
      </trkpt>
      <trkpt lat="43.39797" lon="5.44678">
        <ele>582.7</ele>
        <time>2021-04-25T11:27:25Z</time>
      </trkpt>
      <trkpt lat="43.39796" lon="5.44674">
        <ele>583.18</ele>
        <time>2021-04-25T11:27:28Z</time>
      </trkpt>
      <trkpt lat="43.39788" lon="5.44655">
        <ele>584.62</ele>
        <time>2021-04-25T11:27:44Z</time>
      </trkpt>
      <trkpt lat="43.39783" lon="5.44636">
        <ele>585.58</ele>
        <time>2021-04-25T11:28:00Z</time>
      </trkpt>
      <trkpt lat="43.39778" lon="5.44621">
        <ele>586.54</ele>
        <time>2021-04-25T11:28:15Z</time>
      </trkpt>
      <trkpt lat="43.39774" lon="5.4462">
        <ele>586.54</ele>
        <time>2021-04-25T11:28:22Z</time>
      </trkpt>
      <trkpt lat="43.39771" lon="5.44612">
        <ele>588.46</ele>
        <time>2021-04-25T11:28:35Z</time>
      </trkpt>
      <trkpt lat="43.39769" lon="5.44603">
        <ele>588.95</ele>
        <time>2021-04-25T11:28:49Z</time>
      </trkpt>
      <trkpt lat="43.3976" lon="5.44593">
        <ele>590.39</ele>
        <time>2021-04-25T11:29:06Z</time>
      </trkpt>
      <trkpt lat="43.39759" lon="5.44583">
        <ele>591.83</ele>
        <time>2021-04-25T11:29:15Z</time>
      </trkpt>
      <trkpt lat="43.39753" lon="5.44571">
        <ele>594.71</ele>
        <time>2021-04-25T11:29:30Z</time>
      </trkpt>
      <trkpt lat="43.39748" lon="5.44559">
        <ele>597.12</ele>
        <time>2021-04-25T11:29:45Z</time>
      </trkpt>
      <trkpt lat="43.39742" lon="5.44549">
        <ele>597.12</ele>
        <time>2021-04-25T11:30:00Z</time>
      </trkpt>
      <trkpt lat="43.39737" lon="5.44536">
        <ele>597.6</ele>
        <time>2021-04-25T11:30:13Z</time>
      </trkpt>
      <trkpt lat="43.39727" lon="5.44527">
        <ele>599.04</ele>
        <time>2021-04-25T11:30:27Z</time>
      </trkpt>
      <trkpt lat="43.39717" lon="5.4452">
        <ele>600</ele>
        <time>2021-04-25T11:30:41Z</time>
      </trkpt>
      <trkpt lat="43.39712" lon="5.44508">
        <ele>600.96</ele>
        <time>2021-04-25T11:30:54Z</time>
      </trkpt>
      <trkpt lat="43.39707" lon="5.44493">
        <ele>602.4</ele>
        <time>2021-04-25T11:31:10Z</time>
      </trkpt>
      <trkpt lat="43.39705" lon="5.44485">
        <ele>602.4</ele>
        <time>2021-04-25T11:31:17Z</time>
      </trkpt>
      <trkpt lat="43.39699" lon="5.44463">
        <ele>601.44</ele>
        <time>2021-04-25T11:31:34Z</time>
      </trkpt>
      <trkpt lat="43.39693" lon="5.44443">
        <ele>599.04</ele>
        <time>2021-04-25T11:31:51Z</time>
      </trkpt>
      <trkpt lat="43.39693" lon="5.44439">
        <ele>598.56</ele>
        <time>2021-04-25T11:31:54Z</time>
      </trkpt>
      <trkpt lat="43.39689" lon="5.44431">
        <ele>597.12</ele>
        <time>2021-04-25T11:32:01Z</time>
      </trkpt>
      <trkpt lat="43.39684" lon="5.44411">
        <ele>595.67</ele>
        <time>2021-04-25T11:32:17Z</time>
      </trkpt>
      <trkpt lat="43.39681" lon="5.44409">
        <ele>596.64</ele>
        <time>2021-04-25T11:32:41Z</time>
      </trkpt>
      <trkpt lat="43.39681" lon="5.44408">
        <ele>596.15</ele>
        <time>2021-04-25T11:33:00Z</time>
      </trkpt>
      <trkpt lat="43.39679" lon="5.44403">
        <ele>594.71</ele>
        <time>2021-04-25T11:33:20Z</time>
      </trkpt>
      <trkpt lat="43.39679" lon="5.44392">
        <ele>592.79</ele>
        <time>2021-04-25T11:33:25Z</time>
      </trkpt>
      <trkpt lat="43.39678" lon="5.44388">
        <ele>591.83</ele>
        <time>2021-04-25T11:33:27Z</time>
      </trkpt>
      <trkpt lat="43.39679" lon="5.44384">
        <ele>590.87</ele>
        <time>2021-04-25T11:33:29Z</time>
      </trkpt>
      <trkpt lat="43.39677" lon="5.44376">
        <ele>589.43</ele>
        <time>2021-04-25T11:33:34Z</time>
      </trkpt>
      <trkpt lat="43.39675" lon="5.44358">
        <ele>588.95</ele>
        <time>2021-04-25T11:33:44Z</time>
      </trkpt>
      <trkpt lat="43.39673" lon="5.44348">
        <ele>588.95</ele>
        <time>2021-04-25T11:33:48Z</time>
      </trkpt>
      <trkpt lat="43.3967" lon="5.44335">
        <ele>587.98</ele>
        <time>2021-04-25T11:33:54Z</time>
      </trkpt>
      <trkpt lat="43.39667" lon="5.44322">
        <ele>588.46</ele>
        <time>2021-04-25T11:34:08Z</time>
      </trkpt>
      <trkpt lat="43.39661" lon="5.4432">
        <ele>589.43</ele>
        <time>2021-04-25T11:34:20Z</time>
      </trkpt>
      <trkpt lat="43.39659" lon="5.44311">
        <ele>590.87</ele>
        <time>2021-04-25T11:34:30Z</time>
      </trkpt>
      <trkpt lat="43.39657" lon="5.44299">
        <ele>589.43</ele>
        <time>2021-04-25T11:34:42Z</time>
      </trkpt>
      <trkpt lat="43.39656" lon="5.44294">
        <ele>588.95</ele>
        <time>2021-04-25T11:34:46Z</time>
      </trkpt>
      <trkpt lat="43.39656" lon="5.44286">
        <ele>588.46</ele>
        <time>2021-04-25T11:34:53Z</time>
      </trkpt>
      <trkpt lat="43.39655" lon="5.44276">
        <ele>587.5</ele>
        <time>2021-04-25T11:35:07Z</time>
      </trkpt>
      <trkpt lat="43.39651" lon="5.44266">
        <ele>587.02</ele>
        <time>2021-04-25T11:35:21Z</time>
      </trkpt>
      <trkpt lat="43.39651" lon="5.44262">
        <ele>586.54</ele>
        <time>2021-04-25T11:35:52Z</time>
      </trkpt>
      <trkpt lat="43.39649" lon="5.44252">
        <ele>584.62</ele>
        <time>2021-04-25T11:36:06Z</time>
      </trkpt>
      <trkpt lat="43.39648" lon="5.44243">
        <ele>585.58</ele>
        <time>2021-04-25T11:36:13Z</time>
      </trkpt>
      <trkpt lat="43.39646" lon="5.44223">
        <ele>586.54</ele>
        <time>2021-04-25T11:36:27Z</time>
      </trkpt>
      <trkpt lat="43.39645" lon="5.44209">
        <ele>587.02</ele>
        <time>2021-04-25T11:36:40Z</time>
      </trkpt>
      <trkpt lat="43.39642" lon="5.44201">
        <ele>586.54</ele>
        <time>2021-04-25T11:36:46Z</time>
      </trkpt>
      <trkpt lat="43.3964" lon="5.44183">
        <ele>586.54</ele>
        <time>2021-04-25T11:37:00Z</time>
      </trkpt>
      <trkpt lat="43.39636" lon="5.44171">
        <ele>587.02</ele>
        <time>2021-04-25T11:37:10Z</time>
      </trkpt>
      <trkpt lat="43.39636" lon="5.44146">
        <ele>587.98</ele>
        <time>2021-04-25T11:37:28Z</time>
      </trkpt>
      <trkpt lat="43.39631" lon="5.4413">
        <ele>590.39</ele>
        <time>2021-04-25T11:37:46Z</time>
      </trkpt>
      <trkpt lat="43.39627" lon="5.44121">
        <ele>591.83</ele>
        <time>2021-04-25T11:37:59Z</time>
      </trkpt>
      <trkpt lat="43.39625" lon="5.44111">
        <ele>592.79</ele>
        <time>2021-04-25T11:38:13Z</time>
      </trkpt>
      <trkpt lat="43.3962" lon="5.44099">
        <ele>595.19</ele>
        <time>2021-04-25T11:38:27Z</time>
      </trkpt>
      <trkpt lat="43.39619" lon="5.4409">
        <ele>595.67</ele>
        <time>2021-04-25T11:38:44Z</time>
      </trkpt>
      <trkpt lat="43.39618" lon="5.44079">
        <ele>598.08</ele>
        <time>2021-04-25T11:38:57Z</time>
      </trkpt>
      <trkpt lat="43.39612" lon="5.44073">
        <ele>600.96</ele>
        <time>2021-04-25T11:39:12Z</time>
      </trkpt>
      <trkpt lat="43.39612" lon="5.44071">
        <ele>602.4</ele>
        <time>2021-04-25T11:39:28Z</time>
      </trkpt>
      <trkpt lat="43.39611" lon="5.44059">
        <ele>603.36</ele>
        <time>2021-04-25T11:39:43Z</time>
      </trkpt>
      <trkpt lat="43.39611" lon="5.44046">
        <ele>604.33</ele>
        <time>2021-04-25T11:39:59Z</time>
      </trkpt>
      <trkpt lat="43.39609" lon="5.44041">
        <ele>606.73</ele>
        <time>2021-04-25T11:40:16Z</time>
      </trkpt>
      <trkpt lat="43.39608" lon="5.44037">
        <ele>607.69</ele>
        <time>2021-04-25T11:40:28Z</time>
      </trkpt>
      <trkpt lat="43.39603" lon="5.44027">
        <ele>610.09</ele>
        <time>2021-04-25T11:40:43Z</time>
      </trkpt>
      <trkpt lat="43.39603" lon="5.44019">
        <ele>612.5</ele>
        <time>2021-04-25T11:40:58Z</time>
      </trkpt>
      <trkpt lat="43.39602" lon="5.44012">
        <ele>613.94</ele>
        <time>2021-04-25T11:41:16Z</time>
      </trkpt>
      <trkpt lat="43.39597" lon="5.44002">
        <ele>616.34</ele>
        <time>2021-04-25T11:41:31Z</time>
      </trkpt>
      <trkpt lat="43.396" lon="5.43994">
        <ele>618.26</ele>
        <time>2021-04-25T11:41:45Z</time>
      </trkpt>
      <trkpt lat="43.396" lon="5.43983">
        <ele>620.67</ele>
        <time>2021-04-25T11:41:58Z</time>
      </trkpt>
      <trkpt lat="43.396" lon="5.43969">
        <ele>623.07</ele>
        <time>2021-04-25T11:42:15Z</time>
      </trkpt>
      <trkpt lat="43.39599" lon="5.43962">
        <ele>625.96</ele>
        <time>2021-04-25T11:42:28Z</time>
      </trkpt>
      <trkpt lat="43.39599" lon="5.43957">
        <ele>626.92</ele>
        <time>2021-04-25T11:42:44Z</time>
      </trkpt>
      <trkpt lat="43.39595" lon="5.43942">
        <ele>628.84</ele>
        <time>2021-04-25T11:43:01Z</time>
      </trkpt>
      <trkpt lat="43.39588" lon="5.43926">
        <ele>630.28</ele>
        <time>2021-04-25T11:43:19Z</time>
      </trkpt>
      <trkpt lat="43.39586" lon="5.43922">
        <ele>631.24</ele>
        <time>2021-04-25T11:43:34Z</time>
      </trkpt>
      <trkpt lat="43.39586" lon="5.43922">
        <ele>630.76</ele>
        <time>2021-04-25T11:43:51Z</time>
      </trkpt>
      <trkpt lat="43.39589" lon="5.43917">
        <ele>630.76</ele>
        <time>2021-04-25T11:44:03Z</time>
      </trkpt>
      <trkpt lat="43.3959" lon="5.43917">
        <ele>630.76</ele>
        <time>2021-04-25T11:44:31Z</time>
      </trkpt>
      <trkpt lat="43.3959" lon="5.43916">
        <ele>631.24</ele>
        <time>2021-04-25T11:45:01Z</time>
      </trkpt>
      <trkpt lat="43.39591" lon="5.43918">
        <ele>629.32</ele>
        <time>2021-04-25T11:45:34Z</time>
      </trkpt>
      <trkpt lat="43.39591" lon="5.43918">
        <ele>628.84</ele>
        <time>2021-04-25T11:45:52Z</time>
      </trkpt>
      <trkpt lat="43.3959" lon="5.43917">
        <ele>629.32</ele>
        <time>2021-04-25T11:46:21Z</time>
      </trkpt>
      <trkpt lat="43.39589" lon="5.43918">
        <ele>628.84</ele>
        <time>2021-04-25T11:46:35Z</time>
      </trkpt>
      <trkpt lat="43.39586" lon="5.43917">
        <ele>628.36</ele>
        <time>2021-04-25T11:46:49Z</time>
      </trkpt>
      <trkpt lat="43.39583" lon="5.43917">
        <ele>627.88</ele>
        <time>2021-04-25T11:47:07Z</time>
      </trkpt>
      <trkpt lat="43.3957" lon="5.43907">
        <ele>627.4</ele>
        <time>2021-04-25T11:47:22Z</time>
      </trkpt>
      <trkpt lat="43.3956" lon="5.43891">
        <ele>626.92</ele>
        <time>2021-04-25T11:47:36Z</time>
      </trkpt>
      <trkpt lat="43.39554" lon="5.43879">
        <ele>626.44</ele>
        <time>2021-04-25T11:47:47Z</time>
      </trkpt>
      <trkpt lat="43.39546" lon="5.43873">
        <ele>625.96</ele>
        <time>2021-04-25T11:47:56Z</time>
      </trkpt>
      <trkpt lat="43.39535" lon="5.4386">
        <ele>624.99</ele>
        <time>2021-04-25T11:48:11Z</time>
      </trkpt>
      <trkpt lat="43.39534" lon="5.43859">
        <ele>624.99</ele>
        <time>2021-04-25T11:48:12Z</time>
      </trkpt>
      <trkpt lat="43.39528" lon="5.43848">
        <ele>624.03</ele>
        <time>2021-04-25T11:48:20Z</time>
      </trkpt>
      <trkpt lat="43.39526" lon="5.43847">
        <ele>624.03</ele>
        <time>2021-04-25T11:48:23Z</time>
      </trkpt>
      <trkpt lat="43.39523" lon="5.43842">
        <ele>623.07</ele>
        <time>2021-04-25T11:48:27Z</time>
      </trkpt>
      <trkpt lat="43.39509" lon="5.43833">
        <ele>620.67</ele>
        <time>2021-04-25T11:48:43Z</time>
      </trkpt>
      <trkpt lat="43.39498" lon="5.43825">
        <ele>618.26</ele>
        <time>2021-04-25T11:48:58Z</time>
      </trkpt>
      <trkpt lat="43.3949" lon="5.43819">
        <ele>615.86</ele>
        <time>2021-04-25T11:49:12Z</time>
      </trkpt>
      <trkpt lat="43.39489" lon="5.43818">
        <ele>614.9</ele>
        <time>2021-04-25T11:49:28Z</time>
      </trkpt>
      <trkpt lat="43.3948" lon="5.43814">
        <ele>612.98</ele>
        <time>2021-04-25T11:49:44Z</time>
      </trkpt>
      <trkpt lat="43.3947" lon="5.4381">
        <ele>610.09</ele>
        <time>2021-04-25T11:49:59Z</time>
      </trkpt>
      <trkpt lat="43.39458" lon="5.43803">
        <ele>605.77</ele>
        <time>2021-04-25T11:50:18Z</time>
      </trkpt>
      <trkpt lat="43.39447" lon="5.43796">
        <ele>603.36</ele>
        <time>2021-04-25T11:50:35Z</time>
      </trkpt>
      <trkpt lat="43.3944" lon="5.43793">
        <ele>600.96</ele>
        <time>2021-04-25T11:50:49Z</time>
      </trkpt>
      <trkpt lat="43.39432" lon="5.4379">
        <ele>598.08</ele>
        <time>2021-04-25T11:51:04Z</time>
      </trkpt>
      <trkpt lat="43.39422" lon="5.43788">
        <ele>596.15</ele>
        <time>2021-04-25T11:51:20Z</time>
      </trkpt>
      <trkpt lat="43.39412" lon="5.43788">
        <ele>594.23</ele>
        <time>2021-04-25T11:51:34Z</time>
      </trkpt>
      <trkpt lat="43.39404" lon="5.43781">
        <ele>591.83</ele>
        <time>2021-04-25T11:51:48Z</time>
      </trkpt>
      <trkpt lat="43.39398" lon="5.43779">
        <ele>590.39</ele>
        <time>2021-04-25T11:52:04Z</time>
      </trkpt>
      <trkpt lat="43.39384" lon="5.43784">
        <ele>589.91</ele>
        <time>2021-04-25T11:52:23Z</time>
      </trkpt>
      <trkpt lat="43.39365" lon="5.43777">
        <ele>587.98</ele>
        <time>2021-04-25T11:52:40Z</time>
      </trkpt>
      <trkpt lat="43.3935" lon="5.43774">
        <ele>587.5</ele>
        <time>2021-04-25T11:52:55Z</time>
      </trkpt>
      <trkpt lat="43.39348" lon="5.4377">
        <ele>587.98</ele>
        <time>2021-04-25T11:53:07Z</time>
      </trkpt>
      <trkpt lat="43.39345" lon="5.43772">
        <ele>587.5</ele>
        <time>2021-04-25T11:53:24Z</time>
      </trkpt>
      <trkpt lat="43.39342" lon="5.43767">
        <ele>587.5</ele>
        <time>2021-04-25T11:53:35Z</time>
      </trkpt>
      <trkpt lat="43.39342" lon="5.43766">
        <ele>585.58</ele>
        <time>2021-04-25T11:54:07Z</time>
      </trkpt>
      <trkpt lat="43.39342" lon="5.43766">
        <ele>585.58</ele>
        <time>2021-04-25T11:54:10Z</time>
      </trkpt>
      <trkpt lat="43.39344" lon="5.43769">
        <ele>585.1</ele>
        <time>2021-04-25T11:54:24Z</time>
      </trkpt>
      <trkpt lat="43.39345" lon="5.43771">
        <ele>585.1</ele>
        <time>2021-04-25T11:54:43Z</time>
      </trkpt>
      <trkpt lat="43.39346" lon="5.43775">
        <ele>584.14</ele>
        <time>2021-04-25T11:54:54Z</time>
      </trkpt>
      <trkpt lat="43.39346" lon="5.43776">
        <ele>585.1</ele>
        <time>2021-04-25T11:55:09Z</time>
      </trkpt>
      <trkpt lat="43.39345" lon="5.43776">
        <ele>585.58</ele>
        <time>2021-04-25T11:55:34Z</time>
      </trkpt>
      <trkpt lat="43.39344" lon="5.43777">
        <ele>584.62</ele>
        <time>2021-04-25T11:55:59Z</time>
      </trkpt>
      <trkpt lat="43.39332" lon="5.43777">
        <ele>584.62</ele>
        <time>2021-04-25T11:56:14Z</time>
      </trkpt>
      <trkpt lat="43.39327" lon="5.43777">
        <ele>585.58</ele>
        <time>2021-04-25T11:56:23Z</time>
      </trkpt>
      <trkpt lat="43.39316" lon="5.43772">
        <ele>587.98</ele>
        <time>2021-04-25T11:56:39Z</time>
      </trkpt>
      <trkpt lat="43.39308" lon="5.43763">
        <ele>589.91</ele>
        <time>2021-04-25T11:56:55Z</time>
      </trkpt>
      <trkpt lat="43.39301" lon="5.43761">
        <ele>591.35</ele>
        <time>2021-04-25T11:57:10Z</time>
      </trkpt>
      <trkpt lat="43.39294" lon="5.43758">
        <ele>593.27</ele>
        <time>2021-04-25T11:57:25Z</time>
      </trkpt>
      <trkpt lat="43.39289" lon="5.43755">
        <ele>594.71</ele>
        <time>2021-04-25T11:57:40Z</time>
      </trkpt>
      <trkpt lat="43.39283" lon="5.43757">
        <ele>599.04</ele>
        <time>2021-04-25T11:57:55Z</time>
      </trkpt>
      <trkpt lat="43.39279" lon="5.4376">
        <ele>601.44</ele>
        <time>2021-04-25T11:58:10Z</time>
      </trkpt>
      <trkpt lat="43.39274" lon="5.43752">
        <ele>603.85</ele>
        <time>2021-04-25T11:58:24Z</time>
      </trkpt>
      <trkpt lat="43.3927" lon="5.43751">
        <ele>607.21</ele>
        <time>2021-04-25T11:58:37Z</time>
      </trkpt>
      <trkpt lat="43.39262" lon="5.43752">
        <ele>608.65</ele>
        <time>2021-04-25T11:58:51Z</time>
      </trkpt>
      <trkpt lat="43.39255" lon="5.43754">
        <ele>609.61</ele>
        <time>2021-04-25T11:59:05Z</time>
      </trkpt>
      <trkpt lat="43.39249" lon="5.43754">
        <ele>611.54</ele>
        <time>2021-04-25T11:59:18Z</time>
      </trkpt>
      <trkpt lat="43.39243" lon="5.43752">
        <ele>614.9</ele>
        <time>2021-04-25T11:59:32Z</time>
      </trkpt>
      <trkpt lat="43.39241" lon="5.43753">
        <ele>617.3</ele>
        <time>2021-04-25T11:59:54Z</time>
      </trkpt>
      <trkpt lat="43.39241" lon="5.43754">
        <ele>618.26</ele>
        <time>2021-04-25T12:00:26Z</time>
      </trkpt>
      <trkpt lat="43.39237" lon="5.43745">
        <ele>617.78</ele>
        <time>2021-04-25T12:00:40Z</time>
      </trkpt>
      <trkpt lat="43.39234" lon="5.43746">
        <ele>619.71</ele>
        <time>2021-04-25T12:00:55Z</time>
      </trkpt>
      <trkpt lat="43.39228" lon="5.43744">
        <ele>622.59</ele>
        <time>2021-04-25T12:01:09Z</time>
      </trkpt>
      <trkpt lat="43.39223" lon="5.43743">
        <ele>624.51</ele>
        <time>2021-04-25T12:01:23Z</time>
      </trkpt>
      <trkpt lat="43.39218" lon="5.43739">
        <ele>625.47</ele>
        <time>2021-04-25T12:01:43Z</time>
      </trkpt>
      <trkpt lat="43.39212" lon="5.43736">
        <ele>627.88</ele>
        <time>2021-04-25T12:01:55Z</time>
      </trkpt>
      <trkpt lat="43.39204" lon="5.43732">
        <ele>629.8</ele>
        <time>2021-04-25T12:02:07Z</time>
      </trkpt>
      <trkpt lat="43.39196" lon="5.43723">
        <ele>631.72</ele>
        <time>2021-04-25T12:02:21Z</time>
      </trkpt>
      <trkpt lat="43.39194" lon="5.4372">
        <ele>633.17</ele>
        <time>2021-04-25T12:02:46Z</time>
      </trkpt>
      <trkpt lat="43.39192" lon="5.43713">
        <ele>632.68</ele>
        <time>2021-04-25T12:03:12Z</time>
      </trkpt>
      <trkpt lat="43.3919" lon="5.43699">
        <ele>633.17</ele>
        <time>2021-04-25T12:03:26Z</time>
      </trkpt>
      <trkpt lat="43.39189" lon="5.43681">
        <ele>634.13</ele>
        <time>2021-04-25T12:03:42Z</time>
      </trkpt>
      <trkpt lat="43.39186" lon="5.4366">
        <ele>636.53</ele>
        <time>2021-04-25T12:04:00Z</time>
      </trkpt>
      <trkpt lat="43.39188" lon="5.43645">
        <ele>636.05</ele>
        <time>2021-04-25T12:04:14Z</time>
      </trkpt>
      <trkpt lat="43.39189" lon="5.43635">
        <ele>634.61</ele>
        <time>2021-04-25T12:04:29Z</time>
      </trkpt>
      <trkpt lat="43.39192" lon="5.43622">
        <ele>631.24</ele>
        <time>2021-04-25T12:04:41Z</time>
      </trkpt>
      <trkpt lat="43.39193" lon="5.43619">
        <ele>627.88</ele>
        <time>2021-04-25T12:04:47Z</time>
      </trkpt>
      <trkpt lat="43.39194" lon="5.43599">
        <ele>623.07</ele>
        <time>2021-04-25T12:05:02Z</time>
      </trkpt>
      <trkpt lat="43.39192" lon="5.43582">
        <ele>618.26</ele>
        <time>2021-04-25T12:05:17Z</time>
      </trkpt>
      <trkpt lat="43.39189" lon="5.43571">
        <ele>617.3</ele>
        <time>2021-04-25T12:05:30Z</time>
      </trkpt>
      <trkpt lat="43.39186" lon="5.43559">
        <ele>615.86</ele>
        <time>2021-04-25T12:05:45Z</time>
      </trkpt>
      <trkpt lat="43.39185" lon="5.43557">
        <ele>612.5</ele>
        <time>2021-04-25T12:06:14Z</time>
      </trkpt>
      <trkpt lat="43.39187" lon="5.43552">
        <ele>612.02</ele>
        <time>2021-04-25T12:06:31Z</time>
      </trkpt>
      <trkpt lat="43.39187" lon="5.43531">
        <ele>608.65</ele>
        <time>2021-04-25T12:06:47Z</time>
      </trkpt>
      <trkpt lat="43.39186" lon="5.43521">
        <ele>607.21</ele>
        <time>2021-04-25T12:06:55Z</time>
      </trkpt>
      <trkpt lat="43.39187" lon="5.43497">
        <ele>604.81</ele>
        <time>2021-04-25T12:07:14Z</time>
      </trkpt>
      <trkpt lat="43.39192" lon="5.43486">
        <ele>603.85</ele>
        <time>2021-04-25T12:07:28Z</time>
      </trkpt>
      <trkpt lat="43.39189" lon="5.43468">
        <ele>601.44</ele>
        <time>2021-04-25T12:07:44Z</time>
      </trkpt>
      <trkpt lat="43.39189" lon="5.43446">
        <ele>599.52</ele>
        <time>2021-04-25T12:08:01Z</time>
      </trkpt>
      <trkpt lat="43.3919" lon="5.43426">
        <ele>597.6</ele>
        <time>2021-04-25T12:08:17Z</time>
      </trkpt>
      <trkpt lat="43.3919" lon="5.43407">
        <ele>594.23</ele>
        <time>2021-04-25T12:08:31Z</time>
      </trkpt>
      <trkpt lat="43.39192" lon="5.43385">
        <ele>592.79</ele>
        <time>2021-04-25T12:08:46Z</time>
      </trkpt>
      <trkpt lat="43.39191" lon="5.43365">
        <ele>592.31</ele>
        <time>2021-04-25T12:09:00Z</time>
      </trkpt>
      <trkpt lat="43.39192" lon="5.43346">
        <ele>591.35</ele>
        <time>2021-04-25T12:09:15Z</time>
      </trkpt>
      <trkpt lat="43.39192" lon="5.43337">
        <ele>589.43</ele>
        <time>2021-04-25T12:09:23Z</time>
      </trkpt>
      <trkpt lat="43.39194" lon="5.43331">
        <ele>588.95</ele>
        <time>2021-04-25T12:09:27Z</time>
      </trkpt>
      <trkpt lat="43.39201" lon="5.43315">
        <ele>587.5</ele>
        <time>2021-04-25T12:09:41Z</time>
      </trkpt>
      <trkpt lat="43.39202" lon="5.43305">
        <ele>586.54</ele>
        <time>2021-04-25T12:09:50Z</time>
      </trkpt>
      <trkpt lat="43.392" lon="5.43282">
        <ele>584.14</ele>
        <time>2021-04-25T12:10:07Z</time>
      </trkpt>
      <trkpt lat="43.39198" lon="5.43276">
        <ele>582.22</ele>
        <time>2021-04-25T12:10:12Z</time>
      </trkpt>
      <trkpt lat="43.39196" lon="5.43253">
        <ele>577.41</ele>
        <time>2021-04-25T12:10:31Z</time>
      </trkpt>
      <trkpt lat="43.39199" lon="5.43239">
        <ele>576.45</ele>
        <time>2021-04-25T12:10:45Z</time>
      </trkpt>
      <trkpt lat="43.39196" lon="5.43217">
        <ele>571.64</ele>
        <time>2021-04-25T12:10:59Z</time>
      </trkpt>
      <trkpt lat="43.39192" lon="5.43194">
        <ele>567.32</ele>
        <time>2021-04-25T12:11:14Z</time>
      </trkpt>
      <trkpt lat="43.39192" lon="5.43182">
        <ele>566.83</ele>
        <time>2021-04-25T12:11:21Z</time>
      </trkpt>
      <trkpt lat="43.39189" lon="5.43158">
        <ele>565.39</ele>
        <time>2021-04-25T12:11:36Z</time>
      </trkpt>
      <trkpt lat="43.39188" lon="5.43157">
        <ele>565.39</ele>
        <time>2021-04-25T12:11:37Z</time>
      </trkpt>
      <trkpt lat="43.39181" lon="5.43155">
        <ele>566.35</ele>
        <time>2021-04-25T12:11:44Z</time>
      </trkpt>
      <trkpt lat="43.39177" lon="5.4315">
        <ele>565.39</ele>
        <time>2021-04-25T12:11:48Z</time>
      </trkpt>
      <trkpt lat="43.39176" lon="5.43129">
        <ele>565.87</ele>
        <time>2021-04-25T12:12:02Z</time>
      </trkpt>
      <trkpt lat="43.39179" lon="5.43105">
        <ele>568.28</ele>
        <time>2021-04-25T12:12:19Z</time>
      </trkpt>
      <trkpt lat="43.39181" lon="5.43081">
        <ele>569.72</ele>
        <time>2021-04-25T12:12:36Z</time>
      </trkpt>
      <trkpt lat="43.39186" lon="5.43063">
        <ele>569.72</ele>
        <time>2021-04-25T12:12:50Z</time>
      </trkpt>
      <trkpt lat="43.39199" lon="5.43048">
        <ele>572.12</ele>
        <time>2021-04-25T12:13:08Z</time>
      </trkpt>
      <trkpt lat="43.39208" lon="5.43033">
        <ele>574.53</ele>
        <time>2021-04-25T12:13:23Z</time>
      </trkpt>
      <trkpt lat="43.39214" lon="5.4301">
        <ele>572.6</ele>
        <time>2021-04-25T12:13:38Z</time>
      </trkpt>
      <trkpt lat="43.39224" lon="5.42992">
        <ele>570.2</ele>
        <time>2021-04-25T12:13:52Z</time>
      </trkpt>
      <trkpt lat="43.39233" lon="5.4298">
        <ele>567.8</ele>
        <time>2021-04-25T12:14:05Z</time>
      </trkpt>
      <trkpt lat="43.39242" lon="5.42966">
        <ele>564.43</ele>
        <time>2021-04-25T12:14:21Z</time>
      </trkpt>
      <trkpt lat="43.39249" lon="5.42958">
        <ele>560.11</ele>
        <time>2021-04-25T12:14:36Z</time>
      </trkpt>
      <trkpt lat="43.39256" lon="5.42948">
        <ele>557.7</ele>
        <time>2021-04-25T12:14:49Z</time>
      </trkpt>
      <trkpt lat="43.39265" lon="5.42939">
        <ele>556.74</ele>
        <time>2021-04-25T12:15:03Z</time>
      </trkpt>
      <trkpt lat="43.39275" lon="5.4293">
        <ele>554.34</ele>
        <time>2021-04-25T12:15:17Z</time>
      </trkpt>
      <trkpt lat="43.3929" lon="5.42919">
        <ele>551.93</ele>
        <time>2021-04-25T12:15:33Z</time>
      </trkpt>
      <trkpt lat="43.39306" lon="5.42907">
        <ele>550.01</ele>
        <time>2021-04-25T12:15:48Z</time>
      </trkpt>
      <trkpt lat="43.39325" lon="5.42891">
        <ele>546.65</ele>
        <time>2021-04-25T12:16:04Z</time>
      </trkpt>
      <trkpt lat="43.39339" lon="5.4288">
        <ele>546.17</ele>
        <time>2021-04-25T12:16:18Z</time>
      </trkpt>
      <trkpt lat="43.39352" lon="5.42868">
        <ele>546.65</ele>
        <time>2021-04-25T12:16:30Z</time>
      </trkpt>
      <trkpt lat="43.3936" lon="5.42846">
        <ele>546.65</ele>
        <time>2021-04-25T12:16:47Z</time>
      </trkpt>
      <trkpt lat="43.39361" lon="5.42842">
        <ele>546.17</ele>
        <time>2021-04-25T12:16:50Z</time>
      </trkpt>
      <trkpt lat="43.39372" lon="5.42821">
        <ele>544.24</ele>
        <time>2021-04-25T12:17:08Z</time>
      </trkpt>
      <trkpt lat="43.39383" lon="5.42809">
        <ele>540.4</ele>
        <time>2021-04-25T12:17:24Z</time>
      </trkpt>
      <trkpt lat="43.39393" lon="5.42789">
        <ele>538.48</ele>
        <time>2021-04-25T12:17:42Z</time>
      </trkpt>
      <trkpt lat="43.39402" lon="5.42778">
        <ele>537.03</ele>
        <time>2021-04-25T12:17:52Z</time>
      </trkpt>
      <trkpt lat="43.39405" lon="5.42775">
        <ele>537.03</ele>
        <time>2021-04-25T12:17:55Z</time>
      </trkpt>
      <trkpt lat="43.39424" lon="5.42757">
        <ele>535.59</ele>
        <time>2021-04-25T12:18:13Z</time>
      </trkpt>
      <trkpt lat="43.39439" lon="5.42744">
        <ele>536.07</ele>
        <time>2021-04-25T12:18:28Z</time>
      </trkpt>
      <trkpt lat="43.39455" lon="5.42732">
        <ele>537.03</ele>
        <time>2021-04-25T12:18:43Z</time>
      </trkpt>
      <trkpt lat="43.39476" lon="5.42727">
        <ele>535.59</ele>
        <time>2021-04-25T12:19:00Z</time>
      </trkpt>
      <trkpt lat="43.39497" lon="5.42725">
        <ele>533.19</ele>
        <time>2021-04-25T12:19:18Z</time>
      </trkpt>
      <trkpt lat="43.39518" lon="5.42723">
        <ele>532.71</ele>
        <time>2021-04-25T12:19:34Z</time>
      </trkpt>
      <trkpt lat="43.39531" lon="5.4272">
        <ele>532.71</ele>
        <time>2021-04-25T12:19:45Z</time>
      </trkpt>
      <trkpt lat="43.39537" lon="5.42725">
        <ele>531.27</ele>
        <time>2021-04-25T12:19:52Z</time>
      </trkpt>
      <trkpt lat="43.3954" lon="5.42731">
        <ele>529.82</ele>
        <time>2021-04-25T12:20:08Z</time>
      </trkpt>
      <trkpt lat="43.39542" lon="5.42734">
        <ele>530.3</ele>
        <time>2021-04-25T12:20:12Z</time>
      </trkpt>
      <trkpt lat="43.3955" lon="5.42736">
        <ele>530.3</ele>
        <time>2021-04-25T12:20:19Z</time>
      </trkpt>
      <trkpt lat="43.39566" lon="5.42731">
        <ele>528.38</ele>
        <time>2021-04-25T12:20:34Z</time>
      </trkpt>
      <trkpt lat="43.39568" lon="5.42732">
        <ele>528.38</ele>
        <time>2021-04-25T12:20:36Z</time>
      </trkpt>
      <trkpt lat="43.39574" lon="5.42741">
        <ele>527.42</ele>
        <time>2021-04-25T12:20:44Z</time>
      </trkpt>
      <trkpt lat="43.39583" lon="5.42749">
        <ele>527.42</ele>
        <time>2021-04-25T12:20:53Z</time>
      </trkpt>
      <trkpt lat="43.39596" lon="5.42747">
        <ele>527.9</ele>
        <time>2021-04-25T12:21:04Z</time>
      </trkpt>
      <trkpt lat="43.39599" lon="5.4275">
        <ele>526.94</ele>
        <time>2021-04-25T12:21:08Z</time>
      </trkpt>
      <trkpt lat="43.39614" lon="5.42767">
        <ele>526.94</ele>
        <time>2021-04-25T12:21:24Z</time>
      </trkpt>
      <trkpt lat="43.3963" lon="5.42775">
        <ele>527.9</ele>
        <time>2021-04-25T12:21:41Z</time>
      </trkpt>
      <trkpt lat="43.39638" lon="5.42779">
        <ele>527.9</ele>
        <time>2021-04-25T12:21:55Z</time>
      </trkpt>
      <trkpt lat="43.39646" lon="5.4278">
        <ele>526.46</ele>
        <time>2021-04-25T12:22:14Z</time>
      </trkpt>
      <trkpt lat="43.39667" lon="5.42778">
        <ele>526.94</ele>
        <time>2021-04-25T12:22:31Z</time>
      </trkpt>
      <trkpt lat="43.39681" lon="5.42781">
        <ele>528.38</ele>
        <time>2021-04-25T12:22:43Z</time>
      </trkpt>
      <trkpt lat="43.39682" lon="5.4278">
        <ele>528.38</ele>
        <time>2021-04-25T12:22:44Z</time>
      </trkpt>
      <trkpt lat="43.39703" lon="5.42779">
        <ele>528.86</ele>
        <time>2021-04-25T12:23:00Z</time>
      </trkpt>
      <trkpt lat="43.39716" lon="5.42774">
        <ele>527.9</ele>
        <time>2021-04-25T12:23:14Z</time>
      </trkpt>
      <trkpt lat="43.39717" lon="5.42773">
        <ele>527.9</ele>
        <time>2021-04-25T12:23:15Z</time>
      </trkpt>
      <trkpt lat="43.39718" lon="5.42772">
        <ele>527.42</ele>
        <time>2021-04-25T12:23:16Z</time>
      </trkpt>
      <trkpt lat="43.39719" lon="5.42772">
        <ele>527.42</ele>
        <time>2021-04-25T12:23:17Z</time>
      </trkpt>
      <trkpt lat="43.39721" lon="5.42771">
        <ele>527.42</ele>
        <time>2021-04-25T12:23:18Z</time>
      </trkpt>
      <trkpt lat="43.39722" lon="5.4277">
        <ele>526.94</ele>
        <time>2021-04-25T12:23:20Z</time>
      </trkpt>
      <trkpt lat="43.39723" lon="5.42769">
        <ele>526.94</ele>
        <time>2021-04-25T12:23:21Z</time>
      </trkpt>
      <trkpt lat="43.39724" lon="5.42768">
        <ele>526.94</ele>
        <time>2021-04-25T12:23:22Z</time>
      </trkpt>
      <trkpt lat="43.39725" lon="5.42768">
        <ele>526.94</ele>
        <time>2021-04-25T12:23:23Z</time>
      </trkpt>
      <trkpt lat="43.39726" lon="5.42767">
        <ele>526.94</ele>
        <time>2021-04-25T12:23:24Z</time>
      </trkpt>
      <trkpt lat="43.39735" lon="5.42761">
        <ele>527.42</ele>
        <time>2021-04-25T12:23:37Z</time>
      </trkpt>
      <trkpt lat="43.39741" lon="5.42759">
        <ele>526.46</ele>
        <time>2021-04-25T12:23:50Z</time>
      </trkpt>
      <trkpt lat="43.39747" lon="5.42754">
        <ele>523.58</ele>
        <time>2021-04-25T12:24:01Z</time>
      </trkpt>
      <trkpt lat="43.39749" lon="5.42752">
        <ele>523.09</ele>
        <time>2021-04-25T12:24:08Z</time>
      </trkpt>
      <trkpt lat="43.39755" lon="5.42754">
        <ele>523.58</ele>
        <time>2021-04-25T12:24:17Z</time>
      </trkpt>
      <trkpt lat="43.39761" lon="5.42762">
        <ele>520.69</ele>
        <time>2021-04-25T12:24:31Z</time>
      </trkpt>
      <trkpt lat="43.39765" lon="5.42765">
        <ele>518.29</ele>
        <time>2021-04-25T12:24:41Z</time>
      </trkpt>
      <trkpt lat="43.39772" lon="5.42758">
        <ele>518.77</ele>
        <time>2021-04-25T12:24:53Z</time>
      </trkpt>
      <trkpt lat="43.39774" lon="5.42757">
        <ele>518.77</ele>
        <time>2021-04-25T12:24:55Z</time>
      </trkpt>
      <trkpt lat="43.39782" lon="5.42746">
        <ele>517.33</ele>
        <time>2021-04-25T12:25:11Z</time>
      </trkpt>
      <trkpt lat="43.39787" lon="5.42744">
        <ele>516.37</ele>
        <time>2021-04-25T12:25:17Z</time>
      </trkpt>
      <trkpt lat="43.39792" lon="5.42739">
        <ele>515.4</ele>
        <time>2021-04-25T12:25:23Z</time>
      </trkpt>
      <trkpt lat="43.39794" lon="5.42736">
        <ele>513.96</ele>
        <time>2021-04-25T12:25:26Z</time>
      </trkpt>
      <trkpt lat="43.39805" lon="5.42733">
        <ele>513.48</ele>
        <time>2021-04-25T12:25:40Z</time>
      </trkpt>
      <trkpt lat="43.39817" lon="5.42732">
        <ele>509.64</ele>
        <time>2021-04-25T12:25:55Z</time>
      </trkpt>
      <trkpt lat="43.39824" lon="5.42735">
        <ele>506.27</ele>
        <time>2021-04-25T12:26:10Z</time>
      </trkpt>
      <trkpt lat="43.39825" lon="5.42735">
        <ele>506.27</ele>
        <time>2021-04-25T12:26:11Z</time>
      </trkpt>
      <trkpt lat="43.39827" lon="5.42733">
        <ele>505.79</ele>
        <time>2021-04-25T12:26:13Z</time>
      </trkpt>
      <trkpt lat="43.39831" lon="5.42728">
        <ele>504.35</ele>
        <time>2021-04-25T12:26:21Z</time>
      </trkpt>
      <trkpt lat="43.39837" lon="5.42723">
        <ele>501.95</ele>
        <time>2021-04-25T12:26:33Z</time>
      </trkpt>
      <trkpt lat="43.39845" lon="5.42719">
        <ele>500.5</ele>
        <time>2021-04-25T12:26:47Z</time>
      </trkpt>
      <trkpt lat="43.39852" lon="5.42714">
        <ele>497.62</ele>
        <time>2021-04-25T12:27:02Z</time>
      </trkpt>
      <trkpt lat="43.39859" lon="5.42705">
        <ele>496.18</ele>
        <time>2021-04-25T12:27:15Z</time>
      </trkpt>
      <trkpt lat="43.39865" lon="5.42704">
        <ele>495.7</ele>
        <time>2021-04-25T12:27:21Z</time>
      </trkpt>
      <trkpt lat="43.39878" lon="5.42707">
        <ele>492.81</ele>
        <time>2021-04-25T12:27:34Z</time>
      </trkpt>
      <trkpt lat="43.39885" lon="5.42701">
        <ele>489.45</ele>
        <time>2021-04-25T12:27:47Z</time>
      </trkpt>
      <trkpt lat="43.39901" lon="5.42698">
        <ele>487.53</ele>
        <time>2021-04-25T12:28:02Z</time>
      </trkpt>
      <trkpt lat="43.39909" lon="5.42698">
        <ele>484.16</ele>
        <time>2021-04-25T12:28:16Z</time>
      </trkpt>
      <trkpt lat="43.39916" lon="5.42695">
        <ele>481.28</ele>
        <time>2021-04-25T12:28:30Z</time>
      </trkpt>
      <trkpt lat="43.39917" lon="5.42692">
        <ele>480.32</ele>
        <time>2021-04-25T12:28:34Z</time>
      </trkpt>
      <trkpt lat="43.39918" lon="5.4269">
        <ele>480.32</ele>
        <time>2021-04-25T12:28:35Z</time>
      </trkpt>
      <trkpt lat="43.39929" lon="5.4269">
        <ele>477.43</ele>
        <time>2021-04-25T12:28:46Z</time>
      </trkpt>
      <trkpt lat="43.39941" lon="5.42686">
        <ele>476.47</ele>
        <time>2021-04-25T12:29:00Z</time>
      </trkpt>
      <trkpt lat="43.39953" lon="5.42682">
        <ele>475.03</ele>
        <time>2021-04-25T12:29:15Z</time>
      </trkpt>
      <trkpt lat="43.39962" lon="5.42676">
        <ele>475.03</ele>
        <time>2021-04-25T12:29:29Z</time>
      </trkpt>
      <trkpt lat="43.39965" lon="5.42676">
        <ele>474.55</ele>
        <time>2021-04-25T12:29:32Z</time>
      </trkpt>
      <trkpt lat="43.39966" lon="5.42676">
        <ele>475.03</ele>
        <time>2021-04-25T12:29:33Z</time>
      </trkpt>
      <trkpt lat="43.39967" lon="5.42676">
        <ele>475.03</ele>
        <time>2021-04-25T12:29:34Z</time>
      </trkpt>
      <trkpt lat="43.39969" lon="5.42677">
        <ele>475.03</ele>
        <time>2021-04-25T12:29:35Z</time>
      </trkpt>
      <trkpt lat="43.3998" lon="5.42671">
        <ele>472.14</ele>
        <time>2021-04-25T12:29:47Z</time>
      </trkpt>
      <trkpt lat="43.39983" lon="5.42669">
        <ele>471.66</ele>
        <time>2021-04-25T12:29:50Z</time>
      </trkpt>
      <trkpt lat="43.39984" lon="5.42668">
        <ele>471.66</ele>
        <time>2021-04-25T12:29:51Z</time>
      </trkpt>
      <trkpt lat="43.39989" lon="5.42656">
        <ele>471.18</ele>
        <time>2021-04-25T12:30:02Z</time>
      </trkpt>
      <trkpt lat="43.3999" lon="5.42655">
        <ele>470.7</ele>
        <time>2021-04-25T12:30:03Z</time>
      </trkpt>
      <trkpt lat="43.39992" lon="5.42654">
        <ele>470.7</ele>
        <time>2021-04-25T12:30:04Z</time>
      </trkpt>
      <trkpt lat="43.40008" lon="5.42646">
        <ele>467.82</ele>
        <time>2021-04-25T12:30:18Z</time>
      </trkpt>
      <trkpt lat="43.40023" lon="5.42639">
        <ele>467.34</ele>
        <time>2021-04-25T12:30:32Z</time>
      </trkpt>
      <trkpt lat="43.40032" lon="5.42636">
        <ele>465.42</ele>
        <time>2021-04-25T12:30:42Z</time>
      </trkpt>
      <trkpt lat="43.40037" lon="5.42634">
        <ele>463.97</ele>
        <time>2021-04-25T12:30:52Z</time>
      </trkpt>
      <trkpt lat="43.40037" lon="5.42632">
        <ele>464.45</ele>
        <time>2021-04-25T12:30:53Z</time>
      </trkpt>
      <trkpt lat="43.40045" lon="5.4263">
        <ele>466.38</ele>
        <time>2021-04-25T12:31:05Z</time>
      </trkpt>
      <trkpt lat="43.40046" lon="5.42629">
        <ele>466.38</ele>
        <time>2021-04-25T12:31:06Z</time>
      </trkpt>
      <trkpt lat="43.4005" lon="5.42621">
        <ele>462.05</ele>
        <time>2021-04-25T12:31:18Z</time>
      </trkpt>
      <trkpt lat="43.40055" lon="5.42613">
        <ele>460.13</ele>
        <time>2021-04-25T12:31:28Z</time>
      </trkpt>
      <trkpt lat="43.40055" lon="5.42612">
        <ele>459.65</ele>
        <time>2021-04-25T12:31:29Z</time>
      </trkpt>
      <trkpt lat="43.40064" lon="5.42614">
        <ele>455.8</ele>
        <time>2021-04-25T12:31:41Z</time>
      </trkpt>
      <trkpt lat="43.40074" lon="5.42613">
        <ele>452.92</ele>
        <time>2021-04-25T12:31:54Z</time>
      </trkpt>
      <trkpt lat="43.40076" lon="5.42612">
        <ele>451.96</ele>
        <time>2021-04-25T12:31:56Z</time>
      </trkpt>
      <trkpt lat="43.40082" lon="5.42611">
        <ele>450.52</ele>
        <time>2021-04-25T12:32:03Z</time>
      </trkpt>
      <trkpt lat="43.40083" lon="5.4261">
        <ele>450.03</ele>
        <time>2021-04-25T12:32:04Z</time>
      </trkpt>
      <trkpt lat="43.40083" lon="5.42609">
        <ele>450.03</ele>
        <time>2021-04-25T12:32:05Z</time>
      </trkpt>
      <trkpt lat="43.40087" lon="5.42599">
        <ele>449.55</ele>
        <time>2021-04-25T12:32:13Z</time>
      </trkpt>
      <trkpt lat="43.40092" lon="5.4258">
        <ele>446.19</ele>
        <time>2021-04-25T12:32:30Z</time>
      </trkpt>
      <trkpt lat="43.40097" lon="5.42573">
        <ele>442.82</ele>
        <time>2021-04-25T12:32:38Z</time>
      </trkpt>
      <trkpt lat="43.40105" lon="5.42557">
        <ele>440.42</ele>
        <time>2021-04-25T12:32:53Z</time>
      </trkpt>
      <trkpt lat="43.40114" lon="5.42546">
        <ele>436.58</ele>
        <time>2021-04-25T12:33:06Z</time>
      </trkpt>
      <trkpt lat="43.40124" lon="5.42536">
        <ele>432.25</ele>
        <time>2021-04-25T12:33:21Z</time>
      </trkpt>
      <trkpt lat="43.40134" lon="5.42523">
        <ele>427.92</ele>
        <time>2021-04-25T12:33:36Z</time>
      </trkpt>
      <trkpt lat="43.40144" lon="5.425">
        <ele>424.08</ele>
        <time>2021-04-25T12:33:53Z</time>
      </trkpt>
      <trkpt lat="43.40145" lon="5.42499">
        <ele>424.08</ele>
        <time>2021-04-25T12:33:54Z</time>
      </trkpt>
      <trkpt lat="43.40148" lon="5.4249">
        <ele>423.12</ele>
        <time>2021-04-25T12:34:03Z</time>
      </trkpt>
      <trkpt lat="43.4016" lon="5.4248">
        <ele>419.75</ele>
        <time>2021-04-25T12:34:16Z</time>
      </trkpt>
      <trkpt lat="43.40164" lon="5.42474">
        <ele>418.79</ele>
        <time>2021-04-25T12:34:21Z</time>
      </trkpt>
      <trkpt lat="43.40165" lon="5.42473">
        <ele>418.79</ele>
        <time>2021-04-25T12:34:22Z</time>
      </trkpt>
      <trkpt lat="43.40166" lon="5.42472">
        <ele>418.31</ele>
        <time>2021-04-25T12:34:23Z</time>
      </trkpt>
      <trkpt lat="43.40171" lon="5.42472">
        <ele>412.06</ele>
        <time>2021-04-25T12:34:38Z</time>
      </trkpt>
      <trkpt lat="43.4017" lon="5.42475">
        <ele>410.62</ele>
        <time>2021-04-25T12:35:01Z</time>
      </trkpt>
      <trkpt lat="43.40173" lon="5.42473">
        <ele>409.18</ele>
        <time>2021-04-25T12:35:39Z</time>
      </trkpt>
      <trkpt lat="43.40171" lon="5.42475">
        <ele>410.14</ele>
        <time>2021-04-25T12:36:08Z</time>
      </trkpt>
      <trkpt lat="43.40173" lon="5.42477">
        <ele>411.1</ele>
        <time>2021-04-25T12:36:15Z</time>
      </trkpt>
      <trkpt lat="43.40177" lon="5.42482">
        <ele>409.18</ele>
        <time>2021-04-25T12:36:28Z</time>
      </trkpt>
      <trkpt lat="43.40183" lon="5.42486">
        <ele>406.29</ele>
        <time>2021-04-25T12:36:40Z</time>
      </trkpt>
      <trkpt lat="43.4019" lon="5.4249">
        <ele>403.41</ele>
        <time>2021-04-25T12:36:52Z</time>
      </trkpt>
      <trkpt lat="43.40198" lon="5.42498">
        <ele>399.57</ele>
        <time>2021-04-25T12:37:06Z</time>
      </trkpt>
      <trkpt lat="43.40206" lon="5.42509">
        <ele>398.6</ele>
        <time>2021-04-25T12:37:17Z</time>
      </trkpt>
      <trkpt lat="43.4021" lon="5.42519">
        <ele>400.05</ele>
        <time>2021-04-25T12:37:25Z</time>
      </trkpt>
      <trkpt lat="43.40214" lon="5.42529">
        <ele>400.05</ele>
        <time>2021-04-25T12:37:32Z</time>
      </trkpt>
      <trkpt lat="43.40226" lon="5.42543">
        <ele>399.08</ele>
        <time>2021-04-25T12:37:46Z</time>
      </trkpt>
      <trkpt lat="43.40227" lon="5.42544">
        <ele>398.6</ele>
        <time>2021-04-25T12:37:47Z</time>
      </trkpt>
      <trkpt lat="43.40243" lon="5.42559">
        <ele>397.64</ele>
        <time>2021-04-25T12:38:01Z</time>
      </trkpt>
      <trkpt lat="43.40254" lon="5.42566">
        <ele>398.6</ele>
        <time>2021-04-25T12:38:09Z</time>
      </trkpt>
      <trkpt lat="43.40256" lon="5.42568">
        <ele>398.12</ele>
        <time>2021-04-25T12:38:11Z</time>
      </trkpt>
      <trkpt lat="43.4026" lon="5.4258">
        <ele>399.57</ele>
        <time>2021-04-25T12:38:23Z</time>
      </trkpt>
      <trkpt lat="43.4026" lon="5.42586">
        <ele>400.05</ele>
        <time>2021-04-25T12:38:34Z</time>
      </trkpt>
      <trkpt lat="43.40259" lon="5.42589">
        <ele>400.53</ele>
        <time>2021-04-25T12:38:37Z</time>
      </trkpt>
      <trkpt lat="43.40258" lon="5.4259">
        <ele>400.53</ele>
        <time>2021-04-25T12:38:38Z</time>
      </trkpt>
      <trkpt lat="43.4025" lon="5.42605">
        <ele>401.49</ele>
        <time>2021-04-25T12:38:51Z</time>
      </trkpt>
      <trkpt lat="43.40248" lon="5.42612">
        <ele>401.49</ele>
        <time>2021-04-25T12:38:55Z</time>
      </trkpt>
      <trkpt lat="43.40245" lon="5.4263">
        <ele>403.89</ele>
        <time>2021-04-25T12:39:06Z</time>
      </trkpt>
      <trkpt lat="43.40234" lon="5.42644">
        <ele>411.1</ele>
        <time>2021-04-25T12:39:20Z</time>
      </trkpt>
      <trkpt lat="43.40233" lon="5.42645">
        <ele>411.58</ele>
        <time>2021-04-25T12:39:21Z</time>
      </trkpt>
      <trkpt lat="43.40222" lon="5.42658">
        <ele>415.91</ele>
        <time>2021-04-25T12:39:33Z</time>
      </trkpt>
      <trkpt lat="43.4022" lon="5.42659">
        <ele>416.39</ele>
        <time>2021-04-25T12:39:34Z</time>
      </trkpt>
      <trkpt lat="43.40217" lon="5.42662">
        <ele>418.79</ele>
        <time>2021-04-25T12:39:38Z</time>
      </trkpt>
      <trkpt lat="43.4021" lon="5.42677">
        <ele>419.27</ele>
        <time>2021-04-25T12:39:47Z</time>
      </trkpt>
      <trkpt lat="43.40209" lon="5.42679">
        <ele>419.75</ele>
        <time>2021-04-25T12:39:48Z</time>
      </trkpt>
      <trkpt lat="43.40205" lon="5.42705">
        <ele>420.23</ele>
        <time>2021-04-25T12:40:04Z</time>
      </trkpt>
      <trkpt lat="43.40203" lon="5.42713">
        <ele>420.23</ele>
        <time>2021-04-25T12:40:10Z</time>
      </trkpt>
      <trkpt lat="43.40196" lon="5.42726">
        <ele>419.27</ele>
        <time>2021-04-25T12:40:22Z</time>
      </trkpt>
      <trkpt lat="43.40195" lon="5.42728">
        <ele>418.79</ele>
        <time>2021-04-25T12:40:23Z</time>
      </trkpt>
      <trkpt lat="43.40186" lon="5.42744">
        <ele>417.83</ele>
        <time>2021-04-25T12:40:37Z</time>
      </trkpt>
      <trkpt lat="43.40176" lon="5.42753">
        <ele>418.31</ele>
        <time>2021-04-25T12:40:50Z</time>
      </trkpt>
      <trkpt lat="43.40165" lon="5.42764">
        <ele>425.04</ele>
        <time>2021-04-25T12:41:02Z</time>
      </trkpt>
      <trkpt lat="43.40162" lon="5.42767">
        <ele>426</ele>
        <time>2021-04-25T12:41:05Z</time>
      </trkpt>
      <trkpt lat="43.4016" lon="5.42771">
        <ele>424.56</ele>
        <time>2021-04-25T12:41:07Z</time>
      </trkpt>
      <trkpt lat="43.40159" lon="5.42774">
        <ele>424.56</ele>
        <time>2021-04-25T12:41:09Z</time>
      </trkpt>
      <trkpt lat="43.40148" lon="5.42794">
        <ele>425.04</ele>
        <time>2021-04-25T12:41:24Z</time>
      </trkpt>
      <trkpt lat="43.40144" lon="5.42798">
        <ele>426</ele>
        <time>2021-04-25T12:41:29Z</time>
      </trkpt>
      <trkpt lat="43.40135" lon="5.42804">
        <ele>432.73</ele>
        <time>2021-04-25T12:41:40Z</time>
      </trkpt>
      <trkpt lat="43.40131" lon="5.42807">
        <ele>434.17</ele>
        <time>2021-04-25T12:41:43Z</time>
      </trkpt>
      <trkpt lat="43.40129" lon="5.42811">
        <ele>436.1</ele>
        <time>2021-04-25T12:41:46Z</time>
      </trkpt>
      <trkpt lat="43.40128" lon="5.42813">
        <ele>436.58</ele>
        <time>2021-04-25T12:41:47Z</time>
      </trkpt>
      <trkpt lat="43.40124" lon="5.42824">
        <ele>443.31</ele>
        <time>2021-04-25T12:41:58Z</time>
      </trkpt>
      <trkpt lat="43.40123" lon="5.42846">
        <ele>432.73</ele>
        <time>2021-04-25T12:42:12Z</time>
      </trkpt>
      <trkpt lat="43.4012" lon="5.42853">
        <ele>427.44</ele>
        <time>2021-04-25T12:42:18Z</time>
      </trkpt>
      <trkpt lat="43.40117" lon="5.42869">
        <ele>421.68</ele>
        <time>2021-04-25T12:42:31Z</time>
      </trkpt>
      <trkpt lat="43.40118" lon="5.42872">
        <ele>420.23</ele>
        <time>2021-04-25T12:42:34Z</time>
      </trkpt>
      <trkpt lat="43.40128" lon="5.4288">
        <ele>420.23</ele>
        <time>2021-04-25T12:42:47Z</time>
      </trkpt>
      <trkpt lat="43.40131" lon="5.42889">
        <ele>412.06</ele>
        <time>2021-04-25T12:43:00Z</time>
      </trkpt>
      <trkpt lat="43.40131" lon="5.42897">
        <ele>399.08</ele>
        <time>2021-04-25T12:43:32Z</time>
      </trkpt>
      <trkpt lat="43.40134" lon="5.42895">
        <ele>384.66</ele>
        <time>2021-04-25T12:44:08Z</time>
      </trkpt>
      <trkpt lat="43.4014" lon="5.429">
        <ele>380.82</ele>
        <time>2021-04-25T12:44:44Z</time>
      </trkpt>
      <trkpt lat="43.40138" lon="5.42899">
        <ele>378.42</ele>
        <time>2021-04-25T12:45:08Z</time>
      </trkpt>
      <trkpt lat="43.40132" lon="5.42895">
        <ele>376.01</ele>
        <time>2021-04-25T12:45:39Z</time>
      </trkpt>
      <trkpt lat="43.40131" lon="5.42898">
        <ele>378.42</ele>
        <time>2021-04-25T12:45:57Z</time>
      </trkpt>
      <trkpt lat="43.4013" lon="5.429">
        <ele>378.9</ele>
        <time>2021-04-25T12:45:59Z</time>
      </trkpt>
      <trkpt lat="43.40122" lon="5.42913">
        <ele>381.78</ele>
        <time>2021-04-25T12:46:14Z</time>
      </trkpt>
      <trkpt lat="43.40115" lon="5.42928">
        <ele>383.7</ele>
        <time>2021-04-25T12:46:27Z</time>
      </trkpt>
      <trkpt lat="43.40116" lon="5.42944">
        <ele>382.74</ele>
        <time>2021-04-25T12:46:43Z</time>
      </trkpt>
      <trkpt lat="43.40121" lon="5.42958">
        <ele>383.22</ele>
        <time>2021-04-25T12:46:58Z</time>
      </trkpt>
      <trkpt lat="43.4013" lon="5.42968">
        <ele>385.15</ele>
        <time>2021-04-25T12:47:12Z</time>
      </trkpt>
      <trkpt lat="43.4014" lon="5.42979">
        <ele>386.11</ele>
        <time>2021-04-25T12:47:28Z</time>
      </trkpt>
      <trkpt lat="43.40144" lon="5.42987">
        <ele>387.07</ele>
        <time>2021-04-25T12:47:40Z</time>
      </trkpt>
      <trkpt lat="43.40151" lon="5.42998">
        <ele>391.87</ele>
        <time>2021-04-25T12:47:56Z</time>
      </trkpt>
      <trkpt lat="43.40156" lon="5.43007">
        <ele>399.08</ele>
        <time>2021-04-25T12:48:08Z</time>
      </trkpt>
      <trkpt lat="43.40162" lon="5.43023">
        <ele>408.7</ele>
        <time>2021-04-25T12:48:24Z</time>
      </trkpt>
      <trkpt lat="43.4017" lon="5.43034">
        <ele>413.02</ele>
        <time>2021-04-25T12:48:39Z</time>
      </trkpt>
      <trkpt lat="43.40177" lon="5.43044">
        <ele>413.98</ele>
        <time>2021-04-25T12:48:55Z</time>
      </trkpt>
      <trkpt lat="43.40178" lon="5.43057">
        <ele>423.12</ele>
        <time>2021-04-25T12:49:07Z</time>
      </trkpt>
      <trkpt lat="43.40174" lon="5.4307">
        <ele>431.29</ele>
        <time>2021-04-25T12:49:21Z</time>
      </trkpt>
      <trkpt lat="43.40172" lon="5.43084">
        <ele>427.92</ele>
        <time>2021-04-25T12:49:34Z</time>
      </trkpt>
      <trkpt lat="43.40168" lon="5.43096">
        <ele>426</ele>
        <time>2021-04-25T12:49:46Z</time>
      </trkpt>
      <trkpt lat="43.4012" lon="5.43115">
        <ele>417.83</ele>
        <time>2021-04-25T12:50:35Z</time>
      </trkpt>
      <trkpt lat="43.40117" lon="5.43118">
        <ele>417.35</ele>
        <time>2021-04-25T12:50:38Z</time>
      </trkpt>
      <trkpt lat="43.40113" lon="5.43121">
        <ele>417.83</ele>
        <time>2021-04-25T12:50:43Z</time>
      </trkpt>
      <trkpt lat="43.40113" lon="5.43122">
        <ele>418.31</ele>
        <time>2021-04-25T12:50:44Z</time>
      </trkpt>
      <trkpt lat="43.40109" lon="5.43128">
        <ele>418.79</ele>
        <time>2021-04-25T12:50:49Z</time>
      </trkpt>
      <trkpt lat="43.40109" lon="5.4313">
        <ele>418.79</ele>
        <time>2021-04-25T12:50:50Z</time>
      </trkpt>
      <trkpt lat="43.40107" lon="5.43143">
        <ele>421.68</ele>
        <time>2021-04-25T12:51:03Z</time>
      </trkpt>
      <trkpt lat="43.40109" lon="5.43149">
        <ele>423.6</ele>
        <time>2021-04-25T12:51:16Z</time>
      </trkpt>
      <trkpt lat="43.4011" lon="5.4316">
        <ele>420.71</ele>
        <time>2021-04-25T12:51:28Z</time>
      </trkpt>
      <trkpt lat="43.40113" lon="5.4317">
        <ele>419.75</ele>
        <time>2021-04-25T12:51:36Z</time>
      </trkpt>
      <trkpt lat="43.40113" lon="5.43172">
        <ele>419.75</ele>
        <time>2021-04-25T12:51:37Z</time>
      </trkpt>
      <trkpt lat="43.40114" lon="5.43178">
        <ele>420.23</ele>
        <time>2021-04-25T12:51:42Z</time>
      </trkpt>
      <trkpt lat="43.40115" lon="5.43194">
        <ele>421.68</ele>
        <time>2021-04-25T12:51:55Z</time>
      </trkpt>
      <trkpt lat="43.40108" lon="5.43212">
        <ele>420.23</ele>
        <time>2021-04-25T12:52:10Z</time>
      </trkpt>
      <trkpt lat="43.401" lon="5.43219">
        <ele>420.23</ele>
        <time>2021-04-25T12:52:23Z</time>
      </trkpt>
      <trkpt lat="43.40089" lon="5.43231">
        <ele>417.83</ele>
        <time>2021-04-25T12:52:37Z</time>
      </trkpt>
      <trkpt lat="43.40082" lon="5.43238">
        <ele>418.31</ele>
        <time>2021-04-25T12:52:45Z</time>
      </trkpt>
      <trkpt lat="43.40081" lon="5.4324">
        <ele>418.79</ele>
        <time>2021-04-25T12:52:46Z</time>
      </trkpt>
      <trkpt lat="43.40081" lon="5.43241">
        <ele>418.79</ele>
        <time>2021-04-25T12:52:47Z</time>
      </trkpt>
      <trkpt lat="43.4008" lon="5.43242">
        <ele>419.27</ele>
        <time>2021-04-25T12:52:48Z</time>
      </trkpt>
      <trkpt lat="43.4008" lon="5.43244">
        <ele>419.27</ele>
        <time>2021-04-25T12:52:49Z</time>
      </trkpt>
      <trkpt lat="43.4008" lon="5.43245">
        <ele>419.27</ele>
        <time>2021-04-25T12:52:50Z</time>
      </trkpt>
      <trkpt lat="43.40082" lon="5.4325">
        <ele>420.71</ele>
        <time>2021-04-25T12:52:56Z</time>
      </trkpt>
      <trkpt lat="43.40089" lon="5.43262">
        <ele>424.56</ele>
        <time>2021-04-25T12:53:12Z</time>
      </trkpt>
      <trkpt lat="43.40093" lon="5.43279">
        <ele>422.64</ele>
        <time>2021-04-25T12:53:27Z</time>
      </trkpt>
      <trkpt lat="43.40092" lon="5.43282">
        <ele>423.12</ele>
        <time>2021-04-25T12:53:29Z</time>
      </trkpt>
      <trkpt lat="43.40089" lon="5.43299">
        <ele>422.16</ele>
        <time>2021-04-25T12:53:44Z</time>
      </trkpt>
      <trkpt lat="43.40089" lon="5.43301">
        <ele>422.16</ele>
        <time>2021-04-25T12:53:45Z</time>
      </trkpt>
      <trkpt lat="43.4009" lon="5.43315">
        <ele>422.64</ele>
        <time>2021-04-25T12:53:58Z</time>
      </trkpt>
      <trkpt lat="43.40089" lon="5.43334">
        <ele>422.16</ele>
        <time>2021-04-25T12:54:15Z</time>
      </trkpt>
      <trkpt lat="43.40086" lon="5.43356">
        <ele>419.27</ele>
        <time>2021-04-25T12:54:31Z</time>
      </trkpt>
      <trkpt lat="43.40085" lon="5.43367">
        <ele>418.31</ele>
        <time>2021-04-25T12:54:39Z</time>
      </trkpt>
      <trkpt lat="43.40088" lon="5.43377">
        <ele>418.31</ele>
        <time>2021-04-25T12:54:54Z</time>
      </trkpt>
      <trkpt lat="43.40098" lon="5.43391">
        <ele>418.79</ele>
        <time>2021-04-25T12:55:08Z</time>
      </trkpt>
      <trkpt lat="43.40108" lon="5.43411">
        <ele>420.23</ele>
        <time>2021-04-25T12:55:25Z</time>
      </trkpt>
      <trkpt lat="43.40105" lon="5.43419">
        <ele>421.19</ele>
        <time>2021-04-25T12:55:38Z</time>
      </trkpt>
      <trkpt lat="43.401" lon="5.43424">
        <ele>424.08</ele>
        <time>2021-04-25T12:55:52Z</time>
      </trkpt>
      <trkpt lat="43.40091" lon="5.43426">
        <ele>427.44</ele>
        <time>2021-04-25T12:56:06Z</time>
      </trkpt>
      <trkpt lat="43.40084" lon="5.43433">
        <ele>430.81</ele>
        <time>2021-04-25T12:56:20Z</time>
      </trkpt>
      <trkpt lat="43.40083" lon="5.43447">
        <ele>433.21</ele>
        <time>2021-04-25T12:56:36Z</time>
      </trkpt>
      <trkpt lat="43.40083" lon="5.43456">
        <ele>435.13</ele>
        <time>2021-04-25T12:56:50Z</time>
      </trkpt>
      <trkpt lat="43.40079" lon="5.43465">
        <ele>436.1</ele>
        <time>2021-04-25T12:57:04Z</time>
      </trkpt>
      <trkpt lat="43.40073" lon="5.43474">
        <ele>436.58</ele>
        <time>2021-04-25T12:57:18Z</time>
      </trkpt>
      <trkpt lat="43.40075" lon="5.43487">
        <ele>437.54</ele>
        <time>2021-04-25T12:57:33Z</time>
      </trkpt>
      <trkpt lat="43.40088" lon="5.43501">
        <ele>439.46</ele>
        <time>2021-04-25T12:57:50Z</time>
      </trkpt>
      <trkpt lat="43.40092" lon="5.43502">
        <ele>438.98</ele>
        <time>2021-04-25T12:57:54Z</time>
      </trkpt>
      <trkpt lat="43.40103" lon="5.43503">
        <ele>438.98</ele>
        <time>2021-04-25T12:58:06Z</time>
      </trkpt>
      <trkpt lat="43.40111" lon="5.43501">
        <ele>439.94</ele>
        <time>2021-04-25T12:58:16Z</time>
      </trkpt>
      <trkpt lat="43.40121" lon="5.435">
        <ele>439.94</ele>
        <time>2021-04-25T12:58:28Z</time>
      </trkpt>
      <trkpt lat="43.40129" lon="5.43494">
        <ele>440.9</ele>
        <time>2021-04-25T12:58:42Z</time>
      </trkpt>
      <trkpt lat="43.40138" lon="5.43485">
        <ele>440.9</ele>
        <time>2021-04-25T12:58:55Z</time>
      </trkpt>
      <trkpt lat="43.40146" lon="5.43477">
        <ele>442.82</ele>
        <time>2021-04-25T12:59:07Z</time>
      </trkpt>
      <trkpt lat="43.4016" lon="5.43464">
        <ele>442.82</ele>
        <time>2021-04-25T12:59:21Z</time>
      </trkpt>
      <trkpt lat="43.40164" lon="5.43465">
        <ele>442.82</ele>
        <time>2021-04-25T12:59:26Z</time>
      </trkpt>
      <trkpt lat="43.40166" lon="5.43466">
        <ele>442.34</ele>
        <time>2021-04-25T12:59:28Z</time>
      </trkpt>
      <trkpt lat="43.40177" lon="5.43462">
        <ele>439.94</ele>
        <time>2021-04-25T12:59:38Z</time>
      </trkpt>
      <trkpt lat="43.4018" lon="5.4346">
        <ele>439.46</ele>
        <time>2021-04-25T12:59:41Z</time>
      </trkpt>
      <trkpt lat="43.40192" lon="5.43453">
        <ele>437.06</ele>
        <time>2021-04-25T12:59:54Z</time>
      </trkpt>
      <trkpt lat="43.402" lon="5.43449">
        <ele>438.02</ele>
        <time>2021-04-25T13:00:05Z</time>
      </trkpt>
      <trkpt lat="43.40207" lon="5.43448">
        <ele>438.5</ele>
        <time>2021-04-25T13:00:16Z</time>
      </trkpt>
      <trkpt lat="43.40214" lon="5.43453">
        <ele>439.46</ele>
        <time>2021-04-25T13:00:24Z</time>
      </trkpt>
      <trkpt lat="43.40222" lon="5.43457">
        <ele>437.54</ele>
        <time>2021-04-25T13:00:33Z</time>
      </trkpt>
      <trkpt lat="43.40223" lon="5.43457">
        <ele>437.06</ele>
        <time>2021-04-25T13:00:34Z</time>
      </trkpt>
      <trkpt lat="43.40225" lon="5.43457">
        <ele>437.06</ele>
        <time>2021-04-25T13:00:35Z</time>
      </trkpt>
      <trkpt lat="43.40226" lon="5.43457">
        <ele>437.06</ele>
        <time>2021-04-25T13:00:36Z</time>
      </trkpt>
      <trkpt lat="43.40227" lon="5.43457">
        <ele>437.06</ele>
        <time>2021-04-25T13:00:37Z</time>
      </trkpt>
      <trkpt lat="43.40229" lon="5.43456">
        <ele>437.06</ele>
        <time>2021-04-25T13:00:38Z</time>
      </trkpt>
      <trkpt lat="43.40238" lon="5.43453">
        <ele>435.13</ele>
        <time>2021-04-25T13:00:47Z</time>
      </trkpt>
      <trkpt lat="43.40243" lon="5.43453">
        <ele>434.65</ele>
        <time>2021-04-25T13:00:51Z</time>
      </trkpt>
      <trkpt lat="43.40247" lon="5.43454">
        <ele>434.17</ele>
        <time>2021-04-25T13:00:56Z</time>
      </trkpt>
      <trkpt lat="43.4026" lon="5.43458">
        <ele>433.69</ele>
        <time>2021-04-25T13:01:07Z</time>
      </trkpt>
      <trkpt lat="43.40269" lon="5.43451">
        <ele>432.25</ele>
        <time>2021-04-25T13:01:17Z</time>
      </trkpt>
      <trkpt lat="43.40277" lon="5.4344">
        <ele>432.25</ele>
        <time>2021-04-25T13:01:28Z</time>
      </trkpt>
      <trkpt lat="43.40284" lon="5.43429">
        <ele>430.81</ele>
        <time>2021-04-25T13:01:40Z</time>
      </trkpt>
      <trkpt lat="43.4029" lon="5.43412">
        <ele>428.4</ele>
        <time>2021-04-25T13:01:54Z</time>
      </trkpt>
      <trkpt lat="43.40296" lon="5.43397">
        <ele>424.56</ele>
        <time>2021-04-25T13:02:09Z</time>
      </trkpt>
      <trkpt lat="43.40296" lon="5.43394">
        <ele>424.56</ele>
        <time>2021-04-25T13:02:11Z</time>
      </trkpt>
      <trkpt lat="43.40302" lon="5.43381">
        <ele>422.64</ele>
        <time>2021-04-25T13:02:23Z</time>
      </trkpt>
      <trkpt lat="43.40309" lon="5.43376">
        <ele>421.68</ele>
        <time>2021-04-25T13:02:36Z</time>
      </trkpt>
      <trkpt lat="43.40316" lon="5.43362">
        <ele>420.71</ele>
        <time>2021-04-25T13:02:48Z</time>
      </trkpt>
      <trkpt lat="43.40321" lon="5.43358">
        <ele>420.71</ele>
        <time>2021-04-25T13:02:54Z</time>
      </trkpt>
      <trkpt lat="43.40329" lon="5.43345">
        <ele>417.83</ele>
        <time>2021-04-25T13:03:07Z</time>
      </trkpt>
      <trkpt lat="43.40335" lon="5.43334">
        <ele>415.91</ele>
        <time>2021-04-25T13:03:14Z</time>
      </trkpt>
      <trkpt lat="43.40337" lon="5.4333">
        <ele>414.95</ele>
        <time>2021-04-25T13:03:17Z</time>
      </trkpt>
      <trkpt lat="43.40339" lon="5.43313">
        <ele>413.02</ele>
        <time>2021-04-25T13:03:30Z</time>
      </trkpt>
      <trkpt lat="43.40339" lon="5.43298">
        <ele>411.58</ele>
        <time>2021-04-25T13:03:40Z</time>
      </trkpt>
      <trkpt lat="43.40335" lon="5.43284">
        <ele>412.06</ele>
        <time>2021-04-25T13:03:53Z</time>
      </trkpt>
      <trkpt lat="43.40337" lon="5.43273">
        <ele>409.66</ele>
        <time>2021-04-25T13:04:05Z</time>
      </trkpt>
      <trkpt lat="43.4034" lon="5.43261">
        <ele>406.29</ele>
        <time>2021-04-25T13:04:18Z</time>
      </trkpt>
      <trkpt lat="43.40346" lon="5.43248">
        <ele>401.97</ele>
        <time>2021-04-25T13:04:31Z</time>
      </trkpt>
      <trkpt lat="43.40347" lon="5.43247">
        <ele>401.49</ele>
        <time>2021-04-25T13:04:32Z</time>
      </trkpt>
      <trkpt lat="43.40349" lon="5.43242">
        <ele>400.05</ele>
        <time>2021-04-25T13:04:38Z</time>
      </trkpt>
      <trkpt lat="43.4035" lon="5.4324">
        <ele>400.05</ele>
        <time>2021-04-25T13:04:39Z</time>
      </trkpt>
      <trkpt lat="43.40352" lon="5.4324">
        <ele>399.57</ele>
        <time>2021-04-25T13:04:41Z</time>
      </trkpt>
      <trkpt lat="43.40353" lon="5.4324">
        <ele>400.05</ele>
        <time>2021-04-25T13:04:42Z</time>
      </trkpt>
      <trkpt lat="43.40356" lon="5.43245">
        <ele>399.57</ele>
        <time>2021-04-25T13:04:49Z</time>
      </trkpt>
      <trkpt lat="43.40357" lon="5.43247">
        <ele>400.05</ele>
        <time>2021-04-25T13:04:50Z</time>
      </trkpt>
      <trkpt lat="43.40357" lon="5.43248">
        <ele>400.05</ele>
        <time>2021-04-25T13:04:51Z</time>
      </trkpt>
      <trkpt lat="43.40361" lon="5.43258">
        <ele>400.53</ele>
        <time>2021-04-25T13:05:01Z</time>
      </trkpt>
      <trkpt lat="43.40368" lon="5.43275">
        <ele>399.08</ele>
        <time>2021-04-25T13:05:13Z</time>
      </trkpt>
      <trkpt lat="43.4037" lon="5.43279">
        <ele>398.6</ele>
        <time>2021-04-25T13:05:16Z</time>
      </trkpt>
      <trkpt lat="43.40372" lon="5.43287">
        <ele>399.08</ele>
        <time>2021-04-25T13:05:28Z</time>
      </trkpt>
      <trkpt lat="43.40374" lon="5.43289">
        <ele>398.6</ele>
        <time>2021-04-25T13:05:46Z</time>
      </trkpt>
      <trkpt lat="43.40372" lon="5.43286">
        <ele>397.16</ele>
        <time>2021-04-25T13:06:12Z</time>
      </trkpt>
      <trkpt lat="43.40372" lon="5.43287">
        <ele>397.16</ele>
        <time>2021-04-25T13:06:36Z</time>
      </trkpt>
      <trkpt lat="43.40374" lon="5.43285">
        <ele>397.64</ele>
        <time>2021-04-25T13:06:53Z</time>
      </trkpt>
      <trkpt lat="43.40373" lon="5.43285">
        <ele>397.16</ele>
        <time>2021-04-25T13:07:12Z</time>
      </trkpt>
      <trkpt lat="43.40376" lon="5.43295">
        <ele>397.16</ele>
        <time>2021-04-25T13:07:23Z</time>
      </trkpt>
      <trkpt lat="43.40378" lon="5.433">
        <ele>396.68</ele>
        <time>2021-04-25T13:07:28Z</time>
      </trkpt>
      <trkpt lat="43.40381" lon="5.43311">
        <ele>398.12</ele>
        <time>2021-04-25T13:07:39Z</time>
      </trkpt>
      <trkpt lat="43.40383" lon="5.43317">
        <ele>398.6</ele>
        <time>2021-04-25T13:07:44Z</time>
      </trkpt>
      <trkpt lat="43.40384" lon="5.43318">
        <ele>398.6</ele>
        <time>2021-04-25T13:07:45Z</time>
      </trkpt>
      <trkpt lat="43.40385" lon="5.43321">
        <ele>399.08</ele>
        <time>2021-04-25T13:07:47Z</time>
      </trkpt>
      <trkpt lat="43.40386" lon="5.43325">
        <ele>399.57</ele>
        <time>2021-04-25T13:07:50Z</time>
      </trkpt>
      <trkpt lat="43.40395" lon="5.43342">
        <ele>399.57</ele>
        <time>2021-04-25T13:08:05Z</time>
      </trkpt>
      <trkpt lat="43.40402" lon="5.43348">
        <ele>399.08</ele>
        <time>2021-04-25T13:08:12Z</time>
      </trkpt>
      <trkpt lat="43.40403" lon="5.43349">
        <ele>399.08</ele>
        <time>2021-04-25T13:08:13Z</time>
      </trkpt>
      <trkpt lat="43.40414" lon="5.4335">
        <ele>398.6</ele>
        <time>2021-04-25T13:08:25Z</time>
      </trkpt>
      <trkpt lat="43.40417" lon="5.4335">
        <ele>397.64</ele>
        <time>2021-04-25T13:08:28Z</time>
      </trkpt>
      <trkpt lat="43.40419" lon="5.4335">
        <ele>397.64</ele>
        <time>2021-04-25T13:08:30Z</time>
      </trkpt>
      <trkpt lat="43.40426" lon="5.43347">
        <ele>397.16</ele>
        <time>2021-04-25T13:08:41Z</time>
      </trkpt>
      <trkpt lat="43.40438" lon="5.43346">
        <ele>395.24</ele>
        <time>2021-04-25T13:08:55Z</time>
      </trkpt>
      <trkpt lat="43.40452" lon="5.43343">
        <ele>393.32</ele>
        <time>2021-04-25T13:09:11Z</time>
      </trkpt>
      <trkpt lat="43.40454" lon="5.43342">
        <ele>393.32</ele>
        <time>2021-04-25T13:09:13Z</time>
      </trkpt>
      <trkpt lat="43.40458" lon="5.4333">
        <ele>390.43</ele>
        <time>2021-04-25T13:09:25Z</time>
      </trkpt>
      <trkpt lat="43.40455" lon="5.43318">
        <ele>387.55</ele>
        <time>2021-04-25T13:09:39Z</time>
      </trkpt>
      <trkpt lat="43.4045" lon="5.43308">
        <ele>385.63</ele>
        <time>2021-04-25T13:09:51Z</time>
      </trkpt>
      <trkpt lat="43.40441" lon="5.43297">
        <ele>384.18</ele>
        <time>2021-04-25T13:10:05Z</time>
      </trkpt>
      <trkpt lat="43.40439" lon="5.43295">
        <ele>383.7</ele>
        <time>2021-04-25T13:10:09Z</time>
      </trkpt>
      <trkpt lat="43.40434" lon="5.43282">
        <ele>382.26</ele>
        <time>2021-04-25T13:10:23Z</time>
      </trkpt>
      <trkpt lat="43.40434" lon="5.43281">
        <ele>381.78</ele>
        <time>2021-04-25T13:10:24Z</time>
      </trkpt>
      <trkpt lat="43.40435" lon="5.43273">
        <ele>380.82</ele>
        <time>2021-04-25T13:10:34Z</time>
      </trkpt>
      <trkpt lat="43.40439" lon="5.43266">
        <ele>378.9</ele>
        <time>2021-04-25T13:10:47Z</time>
      </trkpt>
      <trkpt lat="43.40446" lon="5.4327">
        <ele>379.86</ele>
        <time>2021-04-25T13:11:00Z</time>
      </trkpt>
      <trkpt lat="43.40458" lon="5.43275">
        <ele>381.78</ele>
        <time>2021-04-25T13:11:14Z</time>
      </trkpt>
      <trkpt lat="43.40468" lon="5.43268">
        <ele>381.78</ele>
        <time>2021-04-25T13:11:26Z</time>
      </trkpt>
      <trkpt lat="43.40479" lon="5.43267">
        <ele>381.3</ele>
        <time>2021-04-25T13:11:39Z</time>
      </trkpt>
      <trkpt lat="43.40488" lon="5.43273">
        <ele>380.82</ele>
        <time>2021-04-25T13:11:51Z</time>
      </trkpt>
      <trkpt lat="43.40495" lon="5.43277">
        <ele>381.78</ele>
        <time>2021-04-25T13:12:01Z</time>
      </trkpt>
      <trkpt lat="43.40508" lon="5.43277">
        <ele>377.94</ele>
        <time>2021-04-25T13:12:16Z</time>
      </trkpt>
      <trkpt lat="43.40516" lon="5.43283">
        <ele>376.97</ele>
        <time>2021-04-25T13:12:27Z</time>
      </trkpt>
      <trkpt lat="43.40524" lon="5.43293">
        <ele>379.86</ele>
        <time>2021-04-25T13:12:40Z</time>
      </trkpt>
      <trkpt lat="43.40527" lon="5.43304">
        <ele>385.15</ele>
        <time>2021-04-25T13:12:52Z</time>
      </trkpt>
      <trkpt lat="43.4053" lon="5.43316">
        <ele>390.91</ele>
        <time>2021-04-25T13:13:03Z</time>
      </trkpt>
      <trkpt lat="43.40531" lon="5.43327">
        <ele>390.91</ele>
        <time>2021-04-25T13:13:11Z</time>
      </trkpt>
      <trkpt lat="43.40531" lon="5.43329">
        <ele>390.91</ele>
        <time>2021-04-25T13:13:12Z</time>
      </trkpt>
      <trkpt lat="43.40534" lon="5.43348">
        <ele>390.43</ele>
        <time>2021-04-25T13:13:23Z</time>
      </trkpt>
      <trkpt lat="43.40537" lon="5.43359">
        <ele>386.11</ele>
        <time>2021-04-25T13:13:32Z</time>
      </trkpt>
      <trkpt lat="43.40537" lon="5.43363">
        <ele>385.63</ele>
        <time>2021-04-25T13:13:35Z</time>
      </trkpt>
      <trkpt lat="43.40537" lon="5.43365">
        <ele>385.15</ele>
        <time>2021-04-25T13:13:37Z</time>
      </trkpt>
      <trkpt lat="43.40537" lon="5.43367">
        <ele>384.66</ele>
        <time>2021-04-25T13:13:38Z</time>
      </trkpt>
      <trkpt lat="43.40538" lon="5.43382">
        <ele>379.38</ele>
        <time>2021-04-25T13:13:49Z</time>
      </trkpt>
      <trkpt lat="43.40538" lon="5.43395">
        <ele>376.97</ele>
        <time>2021-04-25T13:13:59Z</time>
      </trkpt>
      <trkpt lat="43.40541" lon="5.43418">
        <ele>374.09</ele>
        <time>2021-04-25T13:14:12Z</time>
      </trkpt>
      <trkpt lat="43.4054" lon="5.43432">
        <ele>376.97</ele>
        <time>2021-04-25T13:14:25Z</time>
      </trkpt>
      <trkpt lat="43.40544" lon="5.43445">
        <ele>376.97</ele>
        <time>2021-04-25T13:14:37Z</time>
      </trkpt>
      <trkpt lat="43.40543" lon="5.43455">
        <ele>375.53</ele>
        <time>2021-04-25T13:14:46Z</time>
      </trkpt>
      <trkpt lat="43.40542" lon="5.43466">
        <ele>374.09</ele>
        <time>2021-04-25T13:14:51Z</time>
      </trkpt>
      <trkpt lat="43.40537" lon="5.43474">
        <ele>373.13</ele>
        <time>2021-04-25T13:14:57Z</time>
      </trkpt>
      <trkpt lat="43.40537" lon="5.43476">
        <ele>372.65</ele>
        <time>2021-04-25T13:14:58Z</time>
      </trkpt>
      <trkpt lat="43.40536" lon="5.43478">
        <ele>372.17</ele>
        <time>2021-04-25T13:14:59Z</time>
      </trkpt>
      <trkpt lat="43.40535" lon="5.43492">
        <ele>365.44</ele>
        <time>2021-04-25T13:15:03Z</time>
      </trkpt>
      <trkpt lat="43.40537" lon="5.43493">
        <ele>361.11</ele>
        <time>2021-04-25T13:15:19Z</time>
      </trkpt>
      <trkpt lat="43.40537" lon="5.43494">
        <ele>360.63</ele>
        <time>2021-04-25T13:15:20Z</time>
      </trkpt>
      <trkpt lat="43.40536" lon="5.43495">
        <ele>361.11</ele>
        <time>2021-04-25T13:15:21Z</time>
      </trkpt>
      <trkpt lat="43.40536" lon="5.43501">
        <ele>362.07</ele>
        <time>2021-04-25T13:15:30Z</time>
      </trkpt>
      <trkpt lat="43.40538" lon="5.43502">
        <ele>364</ele>
        <time>2021-04-25T13:15:33Z</time>
      </trkpt>
      <trkpt lat="43.40546" lon="5.43507">
        <ele>364.96</ele>
        <time>2021-04-25T13:15:44Z</time>
      </trkpt>
      <trkpt lat="43.40552" lon="5.43504">
        <ele>366.4</ele>
        <time>2021-04-25T13:15:51Z</time>
      </trkpt>
      <trkpt lat="43.40554" lon="5.43498">
        <ele>365.92</ele>
        <time>2021-04-25T13:15:55Z</time>
      </trkpt>
      <trkpt lat="43.40555" lon="5.43491">
        <ele>365.92</ele>
        <time>2021-04-25T13:16:00Z</time>
      </trkpt>
      <trkpt lat="43.4056" lon="5.43471">
        <ele>364</ele>
        <time>2021-04-25T13:16:13Z</time>
      </trkpt>
      <trkpt lat="43.4056" lon="5.43467">
        <ele>363.04</ele>
        <time>2021-04-25T13:16:16Z</time>
      </trkpt>
      <trkpt lat="43.4056" lon="5.43465">
        <ele>362.55</ele>
        <time>2021-04-25T13:16:18Z</time>
      </trkpt>
      <trkpt lat="43.40561" lon="5.43463">
        <ele>362.55</ele>
        <time>2021-04-25T13:16:19Z</time>
      </trkpt>
      <trkpt lat="43.40564" lon="5.43449">
        <ele>363.52</ele>
        <time>2021-04-25T13:16:30Z</time>
      </trkpt>
      <trkpt lat="43.40565" lon="5.43439">
        <ele>364.96</ele>
        <time>2021-04-25T13:16:37Z</time>
      </trkpt>
      <trkpt lat="43.40565" lon="5.43434">
        <ele>364.96</ele>
        <time>2021-04-25T13:16:40Z</time>
      </trkpt>
      <trkpt lat="43.40565" lon="5.43432">
        <ele>364.96</ele>
        <time>2021-04-25T13:16:41Z</time>
      </trkpt>
      <trkpt lat="43.40565" lon="5.4343">
        <ele>365.44</ele>
        <time>2021-04-25T13:16:42Z</time>
      </trkpt>
      <trkpt lat="43.40565" lon="5.43428">
        <ele>365.44</ele>
        <time>2021-04-25T13:16:44Z</time>
      </trkpt>
      <trkpt lat="43.40564" lon="5.43424">
        <ele>365.44</ele>
        <time>2021-04-25T13:16:46Z</time>
      </trkpt>
      <trkpt lat="43.40562" lon="5.43404">
        <ele>364</ele>
        <time>2021-04-25T13:16:58Z</time>
      </trkpt>
      <trkpt lat="43.40562" lon="5.43399">
        <ele>363.04</ele>
        <time>2021-04-25T13:17:01Z</time>
      </trkpt>
      <trkpt lat="43.40563" lon="5.43396">
        <ele>361.59</ele>
        <time>2021-04-25T13:17:03Z</time>
      </trkpt>
      <trkpt lat="43.40566" lon="5.43381">
        <ele>360.63</ele>
        <time>2021-04-25T13:17:15Z</time>
      </trkpt>
      <trkpt lat="43.40566" lon="5.43378">
        <ele>360.63</ele>
        <time>2021-04-25T13:17:17Z</time>
      </trkpt>
      <trkpt lat="43.40572" lon="5.43366">
        <ele>361.11</ele>
        <time>2021-04-25T13:17:28Z</time>
      </trkpt>
      <trkpt lat="43.4058" lon="5.43359">
        <ele>363.52</ele>
        <time>2021-04-25T13:17:40Z</time>
      </trkpt>
      <trkpt lat="43.40592" lon="5.43346">
        <ele>362.55</ele>
        <time>2021-04-25T13:17:53Z</time>
      </trkpt>
      <trkpt lat="43.40606" lon="5.43337">
        <ele>360.63</ele>
        <time>2021-04-25T13:18:07Z</time>
      </trkpt>
      <trkpt lat="43.40612" lon="5.43329">
        <ele>359.67</ele>
        <time>2021-04-25T13:18:19Z</time>
      </trkpt>
      <trkpt lat="43.40621" lon="5.43326">
        <ele>357.75</ele>
        <time>2021-04-25T13:18:27Z</time>
      </trkpt>
      <trkpt lat="43.4063" lon="5.43321">
        <ele>353.9</ele>
        <time>2021-04-25T13:18:39Z</time>
      </trkpt>
      <trkpt lat="43.4064" lon="5.43326">
        <ele>353.42</ele>
        <time>2021-04-25T13:18:50Z</time>
      </trkpt>
      <trkpt lat="43.40646" lon="5.43329">
        <ele>353.42</ele>
        <time>2021-04-25T13:18:56Z</time>
      </trkpt>
      <trkpt lat="43.40657" lon="5.43334">
        <ele>355.34</ele>
        <time>2021-04-25T13:19:07Z</time>
      </trkpt>
      <trkpt lat="43.40658" lon="5.43335">
        <ele>355.83</ele>
        <time>2021-04-25T13:19:09Z</time>
      </trkpt>
      <trkpt lat="43.40659" lon="5.43336">
        <ele>355.83</ele>
        <time>2021-04-25T13:19:10Z</time>
      </trkpt>
      <trkpt lat="43.40671" lon="5.43341">
        <ele>356.79</ele>
        <time>2021-04-25T13:19:22Z</time>
      </trkpt>
      <trkpt lat="43.40671" lon="5.43342">
        <ele>356.79</ele>
        <time>2021-04-25T13:19:23Z</time>
      </trkpt>
      <trkpt lat="43.40674" lon="5.4335">
        <ele>359.19</ele>
        <time>2021-04-25T13:19:34Z</time>
      </trkpt>
      <trkpt lat="43.40677" lon="5.43355">
        <ele>359.19</ele>
        <time>2021-04-25T13:19:38Z</time>
      </trkpt>
      <trkpt lat="43.40678" lon="5.43357">
        <ele>359.19</ele>
        <time>2021-04-25T13:19:39Z</time>
      </trkpt>
      <trkpt lat="43.40679" lon="5.4336">
        <ele>358.23</ele>
        <time>2021-04-25T13:19:41Z</time>
      </trkpt>
      <trkpt lat="43.40679" lon="5.43362">
        <ele>358.23</ele>
        <time>2021-04-25T13:19:42Z</time>
      </trkpt>
      <trkpt lat="43.40685" lon="5.43369">
        <ele>355.83</ele>
        <time>2021-04-25T13:19:49Z</time>
      </trkpt>
      <trkpt lat="43.40686" lon="5.43377">
        <ele>352.94</ele>
        <time>2021-04-25T13:19:56Z</time>
      </trkpt>
      <trkpt lat="43.40686" lon="5.43378">
        <ele>352.94</ele>
        <time>2021-04-25T13:19:57Z</time>
      </trkpt>
      <trkpt lat="43.40682" lon="5.43394">
        <ele>353.42</ele>
        <time>2021-04-25T13:20:12Z</time>
      </trkpt>
      <trkpt lat="43.40677" lon="5.43406">
        <ele>356.31</ele>
        <time>2021-04-25T13:20:24Z</time>
      </trkpt>
      <trkpt lat="43.40671" lon="5.43418">
        <ele>359.19</ele>
        <time>2021-04-25T13:20:35Z</time>
      </trkpt>
      <trkpt lat="43.40669" lon="5.4343">
        <ele>361.11</ele>
        <time>2021-04-25T13:20:44Z</time>
      </trkpt>
      <trkpt lat="43.4067" lon="5.43441">
        <ele>364</ele>
        <time>2021-04-25T13:20:52Z</time>
      </trkpt>
      <trkpt lat="43.40675" lon="5.43458">
        <ele>365.92</ele>
        <time>2021-04-25T13:21:04Z</time>
      </trkpt>
      <trkpt lat="43.40675" lon="5.4346">
        <ele>365.92</ele>
        <time>2021-04-25T13:21:05Z</time>
      </trkpt>
      <trkpt lat="43.40675" lon="5.43462">
        <ele>365.92</ele>
        <time>2021-04-25T13:21:06Z</time>
      </trkpt>
      <trkpt lat="43.40681" lon="5.43481">
        <ele>363.04</ele>
        <time>2021-04-25T13:21:19Z</time>
      </trkpt>
      <trkpt lat="43.40688" lon="5.43497">
        <ele>356.79</ele>
        <time>2021-04-25T13:21:31Z</time>
      </trkpt>
      <trkpt lat="43.40696" lon="5.43512">
        <ele>354.86</ele>
        <time>2021-04-25T13:21:44Z</time>
      </trkpt>
      <trkpt lat="43.40705" lon="5.43522">
        <ele>355.34</ele>
        <time>2021-04-25T13:21:59Z</time>
      </trkpt>
      <trkpt lat="43.40712" lon="5.43525">
        <ele>359.19</ele>
        <time>2021-04-25T13:22:13Z</time>
      </trkpt>
      <trkpt lat="43.40725" lon="5.43526">
        <ele>361.59</ele>
        <time>2021-04-25T13:22:29Z</time>
      </trkpt>
      <trkpt lat="43.40735" lon="5.43531">
        <ele>365.92</ele>
        <time>2021-04-25T13:22:45Z</time>
      </trkpt>
      <trkpt lat="43.40743" lon="5.43533">
        <ele>366.88</ele>
        <time>2021-04-25T13:22:53Z</time>
      </trkpt>
      <trkpt lat="43.40756" lon="5.43534">
        <ele>367.84</ele>
        <time>2021-04-25T13:23:07Z</time>
      </trkpt>
      <trkpt lat="43.40767" lon="5.43536">
        <ele>369.28</ele>
        <time>2021-04-25T13:23:21Z</time>
      </trkpt>
      <trkpt lat="43.40774" lon="5.43535">
        <ele>369.28</ele>
        <time>2021-04-25T13:23:29Z</time>
      </trkpt>
      <trkpt lat="43.40784" lon="5.43532">
        <ele>370.73</ele>
        <time>2021-04-25T13:23:44Z</time>
      </trkpt>
      <trkpt lat="43.40791" lon="5.43532">
        <ele>371.69</ele>
        <time>2021-04-25T13:23:59Z</time>
      </trkpt>
      <trkpt lat="43.40799" lon="5.43534">
        <ele>372.65</ele>
        <time>2021-04-25T13:24:14Z</time>
      </trkpt>
      <trkpt lat="43.40808" lon="5.43534">
        <ele>372.17</ele>
        <time>2021-04-25T13:24:28Z</time>
      </trkpt>
      <trkpt lat="43.40817" lon="5.43533">
        <ele>374.09</ele>
        <time>2021-04-25T13:24:43Z</time>
      </trkpt>
      <trkpt lat="43.40823" lon="5.4353">
        <ele>378.9</ele>
        <time>2021-04-25T13:24:59Z</time>
      </trkpt>
      <trkpt lat="43.40831" lon="5.43525">
        <ele>382.26</ele>
        <time>2021-04-25T13:25:16Z</time>
      </trkpt>
      <trkpt lat="43.40839" lon="5.43517">
        <ele>382.26</ele>
        <time>2021-04-25T13:25:32Z</time>
      </trkpt>
      <trkpt lat="43.4084" lon="5.43504">
        <ele>383.7</ele>
        <time>2021-04-25T13:25:47Z</time>
      </trkpt>
      <trkpt lat="43.40835" lon="5.43497">
        <ele>387.07</ele>
        <time>2021-04-25T13:26:02Z</time>
      </trkpt>
      <trkpt lat="43.40827" lon="5.43489">
        <ele>389.47</ele>
        <time>2021-04-25T13:26:17Z</time>
      </trkpt>
      <trkpt lat="43.40822" lon="5.43482">
        <ele>390.43</ele>
        <time>2021-04-25T13:26:35Z</time>
      </trkpt>
      <trkpt lat="43.4082" lon="5.4348">
        <ele>384.18</ele>
        <time>2021-04-25T13:27:01Z</time>
      </trkpt>
      <trkpt lat="43.40819" lon="5.43482">
        <ele>384.18</ele>
        <time>2021-04-25T13:27:23Z</time>
      </trkpt>
      <trkpt lat="43.40823" lon="5.43483">
        <ele>385.63</ele>
        <time>2021-04-25T13:27:38Z</time>
      </trkpt>
      <trkpt lat="43.40833" lon="5.43484">
        <ele>387.55</ele>
        <time>2021-04-25T13:27:51Z</time>
      </trkpt>
      <trkpt lat="43.40836" lon="5.43485">
        <ele>388.51</ele>
        <time>2021-04-25T13:27:54Z</time>
      </trkpt>
      <trkpt lat="43.40844" lon="5.43486">
        <ele>388.51</ele>
        <time>2021-04-25T13:28:03Z</time>
      </trkpt>
      <trkpt lat="43.40846" lon="5.43486">
        <ele>388.51</ele>
        <time>2021-04-25T13:28:05Z</time>
      </trkpt>
      <trkpt lat="43.40858" lon="5.43493">
        <ele>389.47</ele>
        <time>2021-04-25T13:28:20Z</time>
      </trkpt>
      <trkpt lat="43.40859" lon="5.43494">
        <ele>388.99</ele>
        <time>2021-04-25T13:28:21Z</time>
      </trkpt>
      <trkpt lat="43.40861" lon="5.43506">
        <ele>388.99</ele>
        <time>2021-04-25T13:28:33Z</time>
      </trkpt>
      <trkpt lat="43.40861" lon="5.4351">
        <ele>388.99</ele>
        <time>2021-04-25T13:28:38Z</time>
      </trkpt>
      <trkpt lat="43.40862" lon="5.43519">
        <ele>389.47</ele>
        <time>2021-04-25T13:28:46Z</time>
      </trkpt>
      <trkpt lat="43.40865" lon="5.43532">
        <ele>388.03</ele>
        <time>2021-04-25T13:28:57Z</time>
      </trkpt>
      <trkpt lat="43.40874" lon="5.43546">
        <ele>393.8</ele>
        <time>2021-04-25T13:29:13Z</time>
      </trkpt>
      <trkpt lat="43.40869" lon="5.43556">
        <ele>397.64</ele>
        <time>2021-04-25T13:29:27Z</time>
      </trkpt>
      <trkpt lat="43.4086" lon="5.43559">
        <ele>400.53</ele>
        <time>2021-04-25T13:29:40Z</time>
      </trkpt>
      <trkpt lat="43.40853" lon="5.43566">
        <ele>401.97</ele>
        <time>2021-04-25T13:29:53Z</time>
      </trkpt>
      <trkpt lat="43.40842" lon="5.43576">
        <ele>406.29</ele>
        <time>2021-04-25T13:30:09Z</time>
      </trkpt>
      <trkpt lat="43.40833" lon="5.43588">
        <ele>413.5</ele>
        <time>2021-04-25T13:30:24Z</time>
      </trkpt>
      <trkpt lat="43.40831" lon="5.43599">
        <ele>412.54</ele>
        <time>2021-04-25T13:30:29Z</time>
      </trkpt>
      <trkpt lat="43.40832" lon="5.43623">
        <ele>409.66</ele>
        <time>2021-04-25T13:30:42Z</time>
      </trkpt>
      <trkpt lat="43.40832" lon="5.43629">
        <ele>406.77</ele>
        <time>2021-04-25T13:30:44Z</time>
      </trkpt>
      <trkpt lat="43.40835" lon="5.43647">
        <ele>402.45</ele>
        <time>2021-04-25T13:30:55Z</time>
      </trkpt>
      <trkpt lat="43.40838" lon="5.43663">
        <ele>401.97</ele>
        <time>2021-04-25T13:31:08Z</time>
      </trkpt>
      <trkpt lat="43.40843" lon="5.43678">
        <ele>401.97</ele>
        <time>2021-04-25T13:31:22Z</time>
      </trkpt>
      <trkpt lat="43.40845" lon="5.43694">
        <ele>402.93</ele>
        <time>2021-04-25T13:31:37Z</time>
      </trkpt>
      <trkpt lat="43.40846" lon="5.43711">
        <ele>403.41</ele>
        <time>2021-04-25T13:31:52Z</time>
      </trkpt>
      <trkpt lat="43.4085" lon="5.43728">
        <ele>403.89</ele>
        <time>2021-04-25T13:32:06Z</time>
      </trkpt>
      <trkpt lat="43.40859" lon="5.43743">
        <ele>403.89</ele>
        <time>2021-04-25T13:32:21Z</time>
      </trkpt>
      <trkpt lat="43.40867" lon="5.43756">
        <ele>406.77</ele>
        <time>2021-04-25T13:32:36Z</time>
      </trkpt>
      <trkpt lat="43.40871" lon="5.43773">
        <ele>410.14</ele>
        <time>2021-04-25T13:32:53Z</time>
      </trkpt>
      <trkpt lat="43.40876" lon="5.43788">
        <ele>410.62</ele>
        <time>2021-04-25T13:33:08Z</time>
      </trkpt>
      <trkpt lat="43.40879" lon="5.43805">
        <ele>411.58</ele>
        <time>2021-04-25T13:33:26Z</time>
      </trkpt>
      <trkpt lat="43.40882" lon="5.43819">
        <ele>413.98</ele>
        <time>2021-04-25T13:33:41Z</time>
      </trkpt>
      <trkpt lat="43.40882" lon="5.43821">
        <ele>413.98</ele>
        <time>2021-04-25T13:33:43Z</time>
      </trkpt>
      <trkpt lat="43.40879" lon="5.43836">
        <ele>416.39</ele>
        <time>2021-04-25T13:33:56Z</time>
      </trkpt>
      <trkpt lat="43.40877" lon="5.43841">
        <ele>416.87</ele>
        <time>2021-04-25T13:34:02Z</time>
      </trkpt>
      <trkpt lat="43.4087" lon="5.43849">
        <ele>417.83</ele>
        <time>2021-04-25T13:34:13Z</time>
      </trkpt>
      <trkpt lat="43.40864" lon="5.43854">
        <ele>418.79</ele>
        <time>2021-04-25T13:34:21Z</time>
      </trkpt>
      <trkpt lat="43.40852" lon="5.43855">
        <ele>419.75</ele>
        <time>2021-04-25T13:34:34Z</time>
      </trkpt>
      <trkpt lat="43.40849" lon="5.43855">
        <ele>419.75</ele>
        <time>2021-04-25T13:34:37Z</time>
      </trkpt>
      <trkpt lat="43.40839" lon="5.4386">
        <ele>420.71</ele>
        <time>2021-04-25T13:34:49Z</time>
      </trkpt>
      <trkpt lat="43.40834" lon="5.43876">
        <ele>422.64</ele>
        <time>2021-04-25T13:35:02Z</time>
      </trkpt>
      <trkpt lat="43.40838" lon="5.43893">
        <ele>423.6</ele>
        <time>2021-04-25T13:35:14Z</time>
      </trkpt>
      <trkpt lat="43.40844" lon="5.43905">
        <ele>426</ele>
        <time>2021-04-25T13:35:26Z</time>
      </trkpt>
      <trkpt lat="43.40855" lon="5.4392">
        <ele>426.96</ele>
        <time>2021-04-25T13:35:41Z</time>
      </trkpt>
      <trkpt lat="43.40864" lon="5.43933">
        <ele>428.4</ele>
        <time>2021-04-25T13:35:57Z</time>
      </trkpt>
      <trkpt lat="43.40869" lon="5.43942">
        <ele>429.85</ele>
        <time>2021-04-25T13:36:07Z</time>
      </trkpt>
      <trkpt lat="43.40872" lon="5.43956">
        <ele>429.85</ele>
        <time>2021-04-25T13:36:20Z</time>
      </trkpt>
      <trkpt lat="43.40874" lon="5.4397">
        <ele>434.17</ele>
        <time>2021-04-25T13:36:34Z</time>
      </trkpt>
      <trkpt lat="43.40869" lon="5.4398">
        <ele>440.9</ele>
        <time>2021-04-25T13:36:50Z</time>
      </trkpt>
      <trkpt lat="43.40861" lon="5.43987">
        <ele>445.71</ele>
        <time>2021-04-25T13:37:03Z</time>
      </trkpt>
      <trkpt lat="43.40855" lon="5.43998">
        <ele>449.55</ele>
        <time>2021-04-25T13:37:13Z</time>
      </trkpt>
      <trkpt lat="43.40854" lon="5.44002">
        <ele>448.11</ele>
        <time>2021-04-25T13:37:16Z</time>
      </trkpt>
      <trkpt lat="43.40853" lon="5.44004">
        <ele>448.59</ele>
        <time>2021-04-25T13:37:17Z</time>
      </trkpt>
      <trkpt lat="43.40853" lon="5.44027">
        <ele>446.19</ele>
        <time>2021-04-25T13:37:32Z</time>
      </trkpt>
      <trkpt lat="43.40858" lon="5.44055">
        <ele>439.46</ele>
        <time>2021-04-25T13:37:47Z</time>
      </trkpt>
      <trkpt lat="43.40862" lon="5.44073">
        <ele>437.54</ele>
        <time>2021-04-25T13:38:02Z</time>
      </trkpt>
      <trkpt lat="43.40862" lon="5.44092">
        <ele>438.02</ele>
        <time>2021-04-25T13:38:17Z</time>
      </trkpt>
      <trkpt lat="43.40863" lon="5.44109">
        <ele>440.42</ele>
        <time>2021-04-25T13:38:32Z</time>
      </trkpt>
      <trkpt lat="43.40859" lon="5.44123">
        <ele>445.71</ele>
        <time>2021-04-25T13:38:48Z</time>
      </trkpt>
      <trkpt lat="43.40858" lon="5.44132">
        <ele>447.63</ele>
        <time>2021-04-25T13:39:01Z</time>
      </trkpt>
      <trkpt lat="43.40853" lon="5.44148">
        <ele>441.86</ele>
        <time>2021-04-25T13:39:32Z</time>
      </trkpt>
      <trkpt lat="43.40853" lon="5.44152">
        <ele>443.79</ele>
        <time>2021-04-25T13:39:41Z</time>
      </trkpt>
      <trkpt lat="43.4085" lon="5.44166">
        <ele>445.71</ele>
        <time>2021-04-25T13:39:53Z</time>
      </trkpt>
      <trkpt lat="43.4085" lon="5.44169">
        <ele>447.15</ele>
        <time>2021-04-25T13:39:57Z</time>
      </trkpt>
      <trkpt lat="43.40854" lon="5.44187">
        <ele>447.15</ele>
        <time>2021-04-25T13:40:09Z</time>
      </trkpt>
      <trkpt lat="43.40861" lon="5.44204">
        <ele>446.67</ele>
        <time>2021-04-25T13:40:24Z</time>
      </trkpt>
      <trkpt lat="43.40864" lon="5.44218">
        <ele>448.59</ele>
        <time>2021-04-25T13:40:37Z</time>
      </trkpt>
      <trkpt lat="43.40869" lon="5.44237">
        <ele>449.07</ele>
        <time>2021-04-25T13:40:54Z</time>
      </trkpt>
      <trkpt lat="43.40871" lon="5.44249">
        <ele>452.44</ele>
        <time>2021-04-25T13:41:07Z</time>
      </trkpt>
      <trkpt lat="43.40872" lon="5.44263">
        <ele>455.8</ele>
        <time>2021-04-25T13:41:20Z</time>
      </trkpt>
      <trkpt lat="43.40874" lon="5.4428">
        <ele>459.65</ele>
        <time>2021-04-25T13:41:33Z</time>
      </trkpt>
      <trkpt lat="43.40875" lon="5.44291">
        <ele>457.24</ele>
        <time>2021-04-25T13:41:48Z</time>
      </trkpt>
      <trkpt lat="43.40877" lon="5.4431">
        <ele>452.44</ele>
        <time>2021-04-25T13:42:04Z</time>
      </trkpt>
      <trkpt lat="43.40878" lon="5.44318">
        <ele>450.52</ele>
        <time>2021-04-25T13:42:09Z</time>
      </trkpt>
      <trkpt lat="43.40878" lon="5.44321">
        <ele>450.03</ele>
        <time>2021-04-25T13:42:11Z</time>
      </trkpt>
      <trkpt lat="43.40879" lon="5.44324">
        <ele>449.55</ele>
        <time>2021-04-25T13:42:13Z</time>
      </trkpt>
      <trkpt lat="43.40883" lon="5.44334">
        <ele>448.11</ele>
        <time>2021-04-25T13:42:20Z</time>
      </trkpt>
      <trkpt lat="43.40885" lon="5.4434">
        <ele>447.15</ele>
        <time>2021-04-25T13:42:24Z</time>
      </trkpt>
      <trkpt lat="43.40892" lon="5.44353">
        <ele>448.59</ele>
        <time>2021-04-25T13:42:37Z</time>
      </trkpt>
      <trkpt lat="43.40898" lon="5.44368">
        <ele>449.55</ele>
        <time>2021-04-25T13:42:52Z</time>
      </trkpt>
      <trkpt lat="43.40909" lon="5.44385">
        <ele>451.48</ele>
        <time>2021-04-25T13:43:07Z</time>
      </trkpt>
      <trkpt lat="43.40912" lon="5.44386">
        <ele>451</ele>
        <time>2021-04-25T13:43:28Z</time>
      </trkpt>
      <trkpt lat="43.40916" lon="5.44388">
        <ele>445.23</ele>
        <time>2021-04-25T13:43:44Z</time>
      </trkpt>
      <trkpt lat="43.40916" lon="5.4439">
        <ele>442.34</ele>
        <time>2021-04-25T13:44:15Z</time>
      </trkpt>
      <trkpt lat="43.40917" lon="5.44387">
        <ele>443.79</ele>
        <time>2021-04-25T13:44:51Z</time>
      </trkpt>
      <trkpt lat="43.40916" lon="5.44384">
        <ele>446.19</ele>
        <time>2021-04-25T13:45:36Z</time>
      </trkpt>
      <trkpt lat="43.40917" lon="5.44387">
        <ele>447.63</ele>
        <time>2021-04-25T13:46:05Z</time>
      </trkpt>
      <trkpt lat="43.40918" lon="5.44386">
        <ele>447.15</ele>
        <time>2021-04-25T13:46:32Z</time>
      </trkpt>
      <trkpt lat="43.40918" lon="5.44386">
        <ele>447.63</ele>
        <time>2021-04-25T13:47:01Z</time>
      </trkpt>
      <trkpt lat="43.40921" lon="5.44386">
        <ele>450.52</ele>
        <time>2021-04-25T13:47:27Z</time>
      </trkpt>
      <trkpt lat="43.40929" lon="5.4439">
        <ele>450.52</ele>
        <time>2021-04-25T13:47:42Z</time>
      </trkpt>
      <trkpt lat="43.40935" lon="5.44399">
        <ele>450.52</ele>
        <time>2021-04-25T13:47:57Z</time>
      </trkpt>
      <trkpt lat="43.40939" lon="5.44406">
        <ele>449.07</ele>
        <time>2021-04-25T13:48:09Z</time>
      </trkpt>
      <trkpt lat="43.40942" lon="5.44417">
        <ele>448.59</ele>
        <time>2021-04-25T13:48:20Z</time>
      </trkpt>
      <trkpt lat="43.4095" lon="5.4443">
        <ele>449.55</ele>
        <time>2021-04-25T13:48:37Z</time>
      </trkpt>
      <trkpt lat="43.40956" lon="5.44446">
        <ele>448.11</ele>
        <time>2021-04-25T13:48:53Z</time>
      </trkpt>
      <trkpt lat="43.40959" lon="5.44455">
        <ele>448.11</ele>
        <time>2021-04-25T13:49:05Z</time>
      </trkpt>
      <trkpt lat="43.40966" lon="5.44466">
        <ele>444.75</ele>
        <time>2021-04-25T13:49:20Z</time>
      </trkpt>
      <trkpt lat="43.40969" lon="5.4448">
        <ele>440.9</ele>
        <time>2021-04-25T13:49:34Z</time>
      </trkpt>
      <trkpt lat="43.40973" lon="5.44491">
        <ele>438.5</ele>
        <time>2021-04-25T13:49:47Z</time>
      </trkpt>
      <trkpt lat="43.4098" lon="5.44501">
        <ele>433.69</ele>
        <time>2021-04-25T13:49:59Z</time>
      </trkpt>
      <trkpt lat="43.40985" lon="5.44508">
        <ele>430.33</ele>
        <time>2021-04-25T13:50:14Z</time>
      </trkpt>
      <trkpt lat="43.40992" lon="5.44517">
        <ele>426.96</ele>
        <time>2021-04-25T13:50:29Z</time>
      </trkpt>
      <trkpt lat="43.40994" lon="5.44524">
        <ele>423.12</ele>
        <time>2021-04-25T13:50:42Z</time>
      </trkpt>
      <trkpt lat="43.41001" lon="5.44533">
        <ele>418.31</ele>
        <time>2021-04-25T13:50:56Z</time>
      </trkpt>
      <trkpt lat="43.41005" lon="5.44537">
        <ele>414.47</ele>
        <time>2021-04-25T13:51:09Z</time>
      </trkpt>
      <trkpt lat="43.41011" lon="5.44546">
        <ele>412.06</ele>
        <time>2021-04-25T13:51:22Z</time>
      </trkpt>
      <trkpt lat="43.41018" lon="5.44556">
        <ele>410.14</ele>
        <time>2021-04-25T13:51:35Z</time>
      </trkpt>
      <trkpt lat="43.41023" lon="5.44563">
        <ele>407.26</ele>
        <time>2021-04-25T13:51:50Z</time>
      </trkpt>
      <trkpt lat="43.41032" lon="5.44565">
        <ele>407.26</ele>
        <time>2021-04-25T13:52:04Z</time>
      </trkpt>
      <trkpt lat="43.41037" lon="5.44573">
        <ele>407.26</ele>
        <time>2021-04-25T13:52:18Z</time>
      </trkpt>
      <trkpt lat="43.41044" lon="5.44578">
        <ele>405.33</ele>
        <time>2021-04-25T13:52:30Z</time>
      </trkpt>
      <trkpt lat="43.41051" lon="5.44578">
        <ele>402.93</ele>
        <time>2021-04-25T13:52:44Z</time>
      </trkpt>
      <trkpt lat="43.4106" lon="5.44581">
        <ele>401.01</ele>
        <time>2021-04-25T13:52:55Z</time>
      </trkpt>
      <trkpt lat="43.41067" lon="5.44581">
        <ele>399.57</ele>
        <time>2021-04-25T13:53:06Z</time>
      </trkpt>
      <trkpt lat="43.41076" lon="5.44578">
        <ele>399.57</ele>
        <time>2021-04-25T13:53:19Z</time>
      </trkpt>
      <trkpt lat="43.41088" lon="5.44576">
        <ele>398.6</ele>
        <time>2021-04-25T13:53:32Z</time>
      </trkpt>
      <trkpt lat="43.41089" lon="5.44576">
        <ele>398.6</ele>
        <time>2021-04-25T13:53:33Z</time>
      </trkpt>
      <trkpt lat="43.41103" lon="5.44572">
        <ele>399.57</ele>
        <time>2021-04-25T13:53:48Z</time>
      </trkpt>
      <trkpt lat="43.4111" lon="5.44573">
        <ele>403.41</ele>
        <time>2021-04-25T13:53:59Z</time>
      </trkpt>
      <trkpt lat="43.41118" lon="5.44574">
        <ele>407.74</ele>
        <time>2021-04-25T13:54:11Z</time>
      </trkpt>
      <trkpt lat="43.41118" lon="5.44575">
        <ele>409.18</ele>
        <time>2021-04-25T13:54:15Z</time>
      </trkpt>
      <trkpt lat="43.41119" lon="5.44578">
        <ele>410.62</ele>
        <time>2021-04-25T13:54:26Z</time>
      </trkpt>
      <trkpt lat="43.41118" lon="5.44583">
        <ele>412.54</ele>
        <time>2021-04-25T13:54:40Z</time>
      </trkpt>
      <trkpt lat="43.41118" lon="5.44588">
        <ele>415.43</ele>
        <time>2021-04-25T13:54:53Z</time>
      </trkpt>
      <trkpt lat="43.41117" lon="5.44595">
        <ele>420.71</ele>
        <time>2021-04-25T13:55:04Z</time>
      </trkpt>
      <trkpt lat="43.41112" lon="5.44605">
        <ele>425.04</ele>
        <time>2021-04-25T13:55:17Z</time>
      </trkpt>
      <trkpt lat="43.41106" lon="5.44619">
        <ele>422.16</ele>
        <time>2021-04-25T13:55:32Z</time>
      </trkpt>
      <trkpt lat="43.41106" lon="5.44638">
        <ele>418.31</ele>
        <time>2021-04-25T13:55:43Z</time>
      </trkpt>
      <trkpt lat="43.41103" lon="5.44652">
        <ele>420.71</ele>
        <time>2021-04-25T13:55:57Z</time>
      </trkpt>
      <trkpt lat="43.41103" lon="5.4466">
        <ele>420.71</ele>
        <time>2021-04-25T13:56:05Z</time>
      </trkpt>
      <trkpt lat="43.41103" lon="5.44679">
        <ele>421.68</ele>
        <time>2021-04-25T13:56:18Z</time>
      </trkpt>
      <trkpt lat="43.41105" lon="5.44695">
        <ele>421.19</ele>
        <time>2021-04-25T13:56:30Z</time>
      </trkpt>
      <trkpt lat="43.41107" lon="5.44709">
        <ele>424.08</ele>
        <time>2021-04-25T13:56:41Z</time>
      </trkpt>
      <trkpt lat="43.41106" lon="5.44724">
        <ele>426</ele>
        <time>2021-04-25T13:56:56Z</time>
      </trkpt>
      <trkpt lat="43.41105" lon="5.44741">
        <ele>427.44</ele>
        <time>2021-04-25T13:57:09Z</time>
      </trkpt>
      <trkpt lat="43.41104" lon="5.44754">
        <ele>426.96</ele>
        <time>2021-04-25T13:57:22Z</time>
      </trkpt>
      <trkpt lat="43.41107" lon="5.44774">
        <ele>426</ele>
        <time>2021-04-25T13:57:37Z</time>
      </trkpt>
      <trkpt lat="43.41114" lon="5.44798">
        <ele>419.75</ele>
        <time>2021-04-25T13:57:52Z</time>
      </trkpt>
      <trkpt lat="43.41118" lon="5.44826">
        <ele>413.02</ele>
        <time>2021-04-25T13:58:08Z</time>
      </trkpt>
      <trkpt lat="43.41117" lon="5.4484">
        <ele>414.47</ele>
        <time>2021-04-25T13:58:22Z</time>
      </trkpt>
      <trkpt lat="43.41112" lon="5.44856">
        <ele>413.02</ele>
        <time>2021-04-25T13:58:34Z</time>
      </trkpt>
      <trkpt lat="43.41107" lon="5.44866">
        <ele>414.47</ele>
        <time>2021-04-25T13:58:46Z</time>
      </trkpt>
      <trkpt lat="43.41104" lon="5.44876">
        <ele>415.91</ele>
        <time>2021-04-25T13:58:58Z</time>
      </trkpt>
      <trkpt lat="43.41102" lon="5.44897">
        <ele>411.1</ele>
        <time>2021-04-25T13:59:10Z</time>
      </trkpt>
      <trkpt lat="43.41102" lon="5.44914">
        <ele>407.26</ele>
        <time>2021-04-25T13:59:23Z</time>
      </trkpt>
      <trkpt lat="43.41103" lon="5.44925">
        <ele>408.7</ele>
        <time>2021-04-25T13:59:35Z</time>
      </trkpt>
      <trkpt lat="43.41105" lon="5.44934">
        <ele>411.58</ele>
        <time>2021-04-25T13:59:45Z</time>
      </trkpt>
      <trkpt lat="43.41108" lon="5.44947">
        <ele>413.02</ele>
        <time>2021-04-25T13:59:58Z</time>
      </trkpt>
      <trkpt lat="43.41112" lon="5.44949">
        <ele>411.58</ele>
        <time>2021-04-25T14:00:29Z</time>
      </trkpt>
      <trkpt lat="43.41116" lon="5.44967">
        <ele>402.93</ele>
        <time>2021-04-25T14:00:42Z</time>
      </trkpt>
      <trkpt lat="43.41124" lon="5.44985">
        <ele>394.76</ele>
        <time>2021-04-25T14:00:57Z</time>
      </trkpt>
      <trkpt lat="43.4113" lon="5.44986">
        <ele>385.63</ele>
        <time>2021-04-25T14:01:25Z</time>
      </trkpt>
      <trkpt lat="43.41131" lon="5.44986">
        <ele>385.63</ele>
        <time>2021-04-25T14:01:43Z</time>
      </trkpt>
      <trkpt lat="43.41132" lon="5.44984">
        <ele>388.51</ele>
        <time>2021-04-25T14:02:03Z</time>
      </trkpt>
      <trkpt lat="43.41135" lon="5.44987">
        <ele>386.59</ele>
        <time>2021-04-25T14:02:16Z</time>
      </trkpt>
      <trkpt lat="43.4114" lon="5.44988">
        <ele>386.59</ele>
        <time>2021-04-25T14:02:28Z</time>
      </trkpt>
      <trkpt lat="43.41147" lon="5.44995">
        <ele>384.66</ele>
        <time>2021-04-25T14:02:40Z</time>
      </trkpt>
      <trkpt lat="43.41155" lon="5.45001">
        <ele>388.51</ele>
        <time>2021-04-25T14:02:54Z</time>
      </trkpt>
      <trkpt lat="43.41161" lon="5.44999">
        <ele>389.95</ele>
        <time>2021-04-25T14:03:06Z</time>
      </trkpt>
      <trkpt lat="43.41171" lon="5.44994">
        <ele>391.87</ele>
        <time>2021-04-25T14:03:20Z</time>
      </trkpt>
      <trkpt lat="43.41176" lon="5.44991">
        <ele>393.32</ele>
        <time>2021-04-25T14:03:32Z</time>
      </trkpt>
      <trkpt lat="43.41183" lon="5.44989">
        <ele>394.28</ele>
        <time>2021-04-25T14:03:43Z</time>
      </trkpt>
      <trkpt lat="43.41186" lon="5.4499">
        <ele>394.28</ele>
        <time>2021-04-25T14:03:45Z</time>
      </trkpt>
      <trkpt lat="43.41197" lon="5.44989">
        <ele>392.36</ele>
        <time>2021-04-25T14:03:56Z</time>
      </trkpt>
      <trkpt lat="43.41198" lon="5.44986">
        <ele>390.43</ele>
        <time>2021-04-25T14:04:01Z</time>
      </trkpt>
      <trkpt lat="43.41199" lon="5.44989">
        <ele>387.55</ele>
        <time>2021-04-25T14:04:14Z</time>
      </trkpt>
      <trkpt lat="43.41198" lon="5.44999">
        <ele>389.95</ele>
        <time>2021-04-25T14:04:27Z</time>
      </trkpt>
      <trkpt lat="43.41199" lon="5.45009">
        <ele>392.84</ele>
        <time>2021-04-25T14:04:37Z</time>
      </trkpt>
      <trkpt lat="43.41204" lon="5.45025">
        <ele>393.32</ele>
        <time>2021-04-25T14:04:51Z</time>
      </trkpt>
      <trkpt lat="43.41207" lon="5.45038">
        <ele>396.2</ele>
        <time>2021-04-25T14:05:04Z</time>
      </trkpt>
      <trkpt lat="43.41208" lon="5.45053">
        <ele>399.57</ele>
        <time>2021-04-25T14:05:16Z</time>
      </trkpt>
      <trkpt lat="43.41211" lon="5.45067">
        <ele>402.93</ele>
        <time>2021-04-25T14:05:29Z</time>
      </trkpt>
      <trkpt lat="43.41213" lon="5.45083">
        <ele>405.81</ele>
        <time>2021-04-25T14:05:42Z</time>
      </trkpt>
      <trkpt lat="43.41216" lon="5.45095">
        <ele>408.7</ele>
        <time>2021-04-25T14:05:54Z</time>
      </trkpt>
      <trkpt lat="43.41217" lon="5.45112">
        <ele>412.06</ele>
        <time>2021-04-25T14:06:09Z</time>
      </trkpt>
      <trkpt lat="43.41222" lon="5.45141">
        <ele>413.02</ele>
        <time>2021-04-25T14:06:23Z</time>
      </trkpt>
      <trkpt lat="43.41231" lon="5.45168">
        <ele>408.7</ele>
        <time>2021-04-25T14:06:37Z</time>
      </trkpt>
      <trkpt lat="43.41243" lon="5.4519">
        <ele>398.6</ele>
        <time>2021-04-25T14:06:50Z</time>
      </trkpt>
      <trkpt lat="43.41248" lon="5.45201">
        <ele>400.53</ele>
        <time>2021-04-25T14:07:02Z</time>
      </trkpt>
      <trkpt lat="43.41251" lon="5.45214">
        <ele>402.93</ele>
        <time>2021-04-25T14:07:13Z</time>
      </trkpt>
      <trkpt lat="43.41255" lon="5.45226">
        <ele>408.7</ele>
        <time>2021-04-25T14:07:26Z</time>
      </trkpt>
      <trkpt lat="43.41263" lon="5.45242">
        <ele>412.06</ele>
        <time>2021-04-25T14:07:40Z</time>
      </trkpt>
      <trkpt lat="43.41267" lon="5.45265">
        <ele>404.37</ele>
        <time>2021-04-25T14:07:46Z</time>
      </trkpt>
      <trkpt lat="43.41269" lon="5.45266">
        <ele>403.89</ele>
        <time>2021-04-25T14:07:48Z</time>
      </trkpt>
      <trkpt lat="43.41271" lon="5.45269">
        <ele>402.93</ele>
        <time>2021-04-25T14:07:50Z</time>
      </trkpt>
      <trkpt lat="43.41286" lon="5.45277">
        <ele>404.85</ele>
        <time>2021-04-25T14:08:05Z</time>
      </trkpt>
      <trkpt lat="43.41298" lon="5.45283">
        <ele>406.77</ele>
        <time>2021-04-25T14:08:18Z</time>
      </trkpt>
      <trkpt lat="43.41302" lon="5.45291">
        <ele>408.7</ele>
        <time>2021-04-25T14:08:27Z</time>
      </trkpt>
      <trkpt lat="43.41312" lon="5.45314">
        <ele>401.01</ele>
        <time>2021-04-25T14:08:39Z</time>
      </trkpt>
      <trkpt lat="43.41319" lon="5.45337">
        <ele>396.2</ele>
        <time>2021-04-25T14:08:53Z</time>
      </trkpt>
      <trkpt lat="43.41324" lon="5.4535">
        <ele>390.43</ele>
        <time>2021-04-25T14:09:05Z</time>
      </trkpt>
      <trkpt lat="43.41325" lon="5.45354">
        <ele>389.95</ele>
        <time>2021-04-25T14:09:07Z</time>
      </trkpt>
      <trkpt lat="43.41328" lon="5.45372">
        <ele>388.51</ele>
        <time>2021-04-25T14:09:18Z</time>
      </trkpt>
      <trkpt lat="43.41329" lon="5.45377">
        <ele>388.03</ele>
        <time>2021-04-25T14:09:22Z</time>
      </trkpt>
      <trkpt lat="43.4133" lon="5.45396">
        <ele>387.07</ele>
        <time>2021-04-25T14:09:36Z</time>
      </trkpt>
      <trkpt lat="43.41333" lon="5.45409">
        <ele>386.11</ele>
        <time>2021-04-25T14:09:48Z</time>
      </trkpt>
      <trkpt lat="43.41334" lon="5.45429">
        <ele>387.07</ele>
        <time>2021-04-25T14:10:01Z</time>
      </trkpt>
      <trkpt lat="43.41335" lon="5.45449">
        <ele>388.03</ele>
        <time>2021-04-25T14:10:15Z</time>
      </trkpt>
      <trkpt lat="43.41337" lon="5.45474">
        <ele>388.03</ele>
        <time>2021-04-25T14:10:30Z</time>
      </trkpt>
      <trkpt lat="43.41338" lon="5.45489">
        <ele>388.99</ele>
        <time>2021-04-25T14:10:42Z</time>
      </trkpt>
      <trkpt lat="43.41344" lon="5.45504">
        <ele>393.8</ele>
        <time>2021-04-25T14:10:57Z</time>
      </trkpt>
      <trkpt lat="43.41347" lon="5.45518">
        <ele>395.72</ele>
        <time>2021-04-25T14:11:10Z</time>
      </trkpt>
      <trkpt lat="43.4135" lon="5.45535">
        <ele>399.08</ele>
        <time>2021-04-25T14:11:23Z</time>
      </trkpt>
      <trkpt lat="43.41356" lon="5.45555">
        <ele>397.16</ele>
        <time>2021-04-25T14:11:36Z</time>
      </trkpt>
      <trkpt lat="43.41358" lon="5.45564">
        <ele>402.45</ele>
        <time>2021-04-25T14:11:49Z</time>
      </trkpt>
      <trkpt lat="43.41361" lon="5.45575">
        <ele>407.26</ele>
        <time>2021-04-25T14:12:03Z</time>
      </trkpt>
      <trkpt lat="43.41358" lon="5.45596">
        <ele>409.66</ele>
        <time>2021-04-25T14:12:17Z</time>
      </trkpt>
    </trkseg>
  </trk>
</gpx>